Bulletin
Investor Alert

Earnings Calendar

SEARCH
No results found.
Sorry, this date currently does not have any earnings announcements scheduled.
Sorry, this date currently does not have any earnings announcements scheduled.
Sorry, this date currently does not have any earnings announcements scheduled.
Sorry, this date currently does not have any earnings announcements scheduled.
Company Name Symbol Fiscal Quarter EPS Forecast EPS Actual Surprise
Arcelik A.S. ADR ACKAY 3/31/2021 0.60 0.98 +0.37 (61.52%)
Golden Predator Mining Corp. NTGSF 12/31/2020 -0.02 -0.02 Met
Ely Gold Royalties Inc. ELYGF 12/31/2020 0.00 0.00 +0.00 (-100.00%)
Polyus PJSC ADR OPYGY 3/31/2021 1.92 1.76 -0.16 (-8.39%)
Koninklijke Philips N.V. ADR PHG 3/31/2021 0.28 0.34 +0.06 (21.02%)
Canon Inc. ADR CAJ 3/31/2021 0.24 0.39 +0.15 (60.55%)
Hitachi Metals Ltd. ADR HMTLY 3/31/2021 -0.23 -1.82 -1.59 (702.72%)
Nitto Denko Corp. ADR NDEKY 3/31/2021 0.40 0.44 +0.04 (9.80%)
HBT Financial Inc. HBT 3/31/2021 0.41 0.51 +0.10 (25.62%)
Check Point Software Technologies Ltd. CHKP 3/31/2021 1.50 1.54 +0.04 (2.73%)
Private Bancorp of America Inc. PBAM 3/31/2021 0.60 0.81 +0.21 (35.00%)
SSAB AB ADR SSAAY 3/31/2021 0.06 0.09 +0.03 (44.64%)
Otis Worldwide Corp. OTIS 3/31/2021 0.63 0.72 +0.09 (14.44%)
Community Bank System Inc. CBU 3/31/2021 0.79 1.00 +0.21 (25.90%)
Bank of Hawaii Corp. BOH 3/31/2021 1.15 1.50 +0.35 (30.01%)
Alliance Resource Partners L.P. ARLP 3/31/2021 0.24 0.19 -0.05 (-19.15%)
Dorman Products Inc. DORM 3/31/2021 1.04 1.04 0.00 (-0.24%)
Brainstorm Cell Therapeutics Inc. BCLI 3/31/2021 -0.26 -0.19 +0.07 (-26.92%)
Flagstar Bancorp Inc. FBC 3/31/2021 2.63 3.31 +0.68 (25.70%)
New York Community Bancorp Inc. NYCB 3/31/2021 0.27 0.29 +0.02 (6.02%)
First BanCorp (Puerto Rico) FBP 3/31/2021 0.20 0.28 +0.08 (36.74%)
Albertsons Cos. Inc. ACI 2/28/2021 0.51 0.60 +0.09 (16.61%)
Lennox International Inc. LII 3/31/2021 1.31 2.27 +0.96 (73.17%)
Lakeland Financial Corp. LKFN 3/31/2021 0.88 0.90 +0.02 (1.98%)
Pacific Mercantile Bancorp PMBC 3/31/2021 0.14 0.14 +0.00 (1.63%)
Northwest Bancshares Inc. NWBI 3/31/2021 0.28 0.32 +0.04 (14.97%)
Proofpoint Inc. PFPT 3/31/2021 0.42 0.49 +0.07 (18.00%)
First Savings Financial Group Inc. FSFG 3/31/2021 4.70 4.39 -0.31 (-6.50%)
Amkor Technology Inc. AMKR 3/31/2021 0.43 0.49 +0.06 (14.78%)
Coca-Cola Femsa S.A.B. de C.V. ADR KOF 3/31/2021 14.30 14.86 +0.56 (3.90%)
Waterstone Financial Inc. WSBF 3/31/2021 0.66 0.89 +0.23 (34.85%)
SBA Communications Corp. SBAC 3/31/2021 0.15 -0.11 -0.26 (-173.26%)
Enterprise Financial Services Corp. EFSC 3/31/2021 0.88 0.96 +0.08 (9.34%)
Masimo Corp. MASI 3/31/2021 0.88 0.90 +0.03 (2.86%)
Trxade Group Inc. MEDS 3/31/2021 -0.06 -0.08 -0.02 (41.18%)
RBB Bancorp RBB 3/31/2021 0.55 0.63 +0.08 (15.38%)
Cadence Design Systems Inc. CDNS 3/31/2021 0.75 0.83 +0.08 (10.78%)
Canadian National Railway Co. CNI 3/31/2021 1.23 1.23 +0.00 (0.02%)
Tesla Inc. TSLA 3/31/2021 0.77 0.93 +0.16 (21.56%)
Citizens Community Bancorp Inc. CZWI 3/31/2021 0.40 0.51 +0.11 (27.50%)
Aerojet Rocketdyne Holdings Inc. AJRD 3/31/2021 0.44 0.36 -0.08 (-19.06%)
Universal Health Services Inc. Cl B UHS 3/31/2021 2.27 2.44 +0.17 (7.58%)
Lufax Holding Ltd. ADR LU 3/31/2021 1.77 1.96 +0.19 (10.61%)
J&J Snack Foods Corp. JJSF 3/31/2021 0.13 0.32 +0.19 (141.51%)
Range Resources Corp. RRC 3/31/2021 0.23 0.30 +0.07 (32.85%)
Covenant Logistics Group Inc. Cl A CVLG 3/31/2021 0.33 0.56 +0.23 (70.99%)
Simpson Manufacturing Co. SSD 3/31/2021 0.90 1.16 +0.27 (29.61%)
Heartland Financial USA Inc. HTLF 3/31/2021 1.11 1.20 +0.09 (8.30%)
PotlatchDeltic Corp. PCH 3/31/2021 1.84 1.94 +0.10 (5.32%)
Brown & Brown Inc. BRO 3/31/2021 0.57 0.70 +0.13 (23.13%)
Alexandria Real Estate Equities Inc. ARE 3/31/2021 0.54 0.64 +0.10 (18.60%)
Medpace Holdings Inc. MEDP 3/31/2021 1.01 1.14 +0.14 (13.43%)
Sun Communities Inc. SUI 3/31/2021 0.17 0.23 +0.06 (35.29%)
Weingarten Realty Investors WRI 3/31/2021 0.08 0.61 +0.52 (627.29%)
Albany International Corp. Cl A AIN 3/31/2021 0.65 0.87 +0.22 (33.03%)
SS&C Technologies Holdings Inc. SSNC 3/31/2021 1.10 1.18 +0.08 (7.28%)
FB Financial Corp. FBK 3/31/2021 0.88 1.12 +0.24 (26.57%)
AGNC Investment Corp. AGNC 3/31/2021 0.63 0.76 +0.13 (20.69%)
MKS Instruments Inc. MKSI 3/31/2021 2.21 2.56 +0.35 (15.85%)
Ameriprise Financial Inc. AMP 3/31/2021 4.69 5.43 +0.74 (15.66%)
TriNet Group Inc. TNET 3/31/2021 1.30 1.66 +0.36 (28.09%)
OneMain Holdings Inc. OMF 3/31/2021 2.15 3.37 +1.22 (56.68%)
Encore Wire Corp. WIRE 3/31/2021 0.88 1.99 +1.12 (127.43%)
John Bean Technologies Corp. JBT 3/31/2021 0.77 0.90 +0.13 (16.69%)
Axalta Coating Systems Ltd. AXTA 3/31/2021 0.43 0.50 +0.07 (17.00%)
Donegal Group Inc. Cl A DGICA 3/31/2021 0.35 0.29 -0.06 (-18.30%)
Donegal Group Inc. Cl B DGICB 3/31/2021 0.35 0.29 -0.06 (-18.30%)
HomeStreet Inc. HMST 3/31/2021 1.09 1.35 +0.26 (23.66%)
Cathay General Bancorp CATY 3/31/2021 0.77 0.92 +0.15 (19.17%)
TrueBlue Inc. TBI 3/31/2021 -0.04 0.25 +0.29 (-657.84%)
HealthStream Inc. HSTM 3/31/2021 -0.03 0.07 +0.10 (-362.50%)
KKR Real Estate Finance Trust Inc. KREF 3/31/2021 0.51 0.55 +0.04 (7.77%)
NXP Semiconductors N.V. NXPI 3/31/2021 2.27 3.22 +0.96 (42.27%)
Luxfer Holdings PLC LXFR 3/31/2021 0.25 0.37 +0.13 (50.97%)
Independent Bank Group Inc. IBTX 3/31/2021 1.34 1.39 +0.05 (3.95%)
Novozymes A/S ADR NVZMY 3/31/2021 0.41 0.51 +0.10 (25.74%)
Helix Energy Solutions Group Inc. HLX 3/31/2021 -0.07 -0.02 +0.05 (-69.47%)
First Bank (NJ) FRBA 3/31/2021 0.35 0.49 +0.14 (40.00%)
Heidrick & Struggles International Inc. HSII 3/31/2021 0.53 0.86 +0.33 (63.03%)
ASUSTeK Computer Inc. GDR ASUTZ 12/31/2020 2.15 2.38 +0.24 (11.02%)
ASUSTeK Computer Inc. GDR ASUUY 12/31/2020 2.15 2.38 +0.24 (11.02%)
Southern Missouri Bancorp Inc. SMBC 3/31/2021 1.07 1.27 +0.21 (19.25%)
German American Bancorp Inc. GABC 3/31/2021 0.61 0.74 +0.13 (20.52%)
Northrim BanCorp Inc. NRIM 3/31/2021 1.40 1.94 +0.54 (38.57%)
Meridian Corp. MRBK 3/31/2021 1.12 1.65 +0.53 (47.32%)
Packaging Corp. of America PKG 3/31/2021 1.44 1.77 +0.33 (22.57%)
Company Name Symbol Fiscal Quarter EPS Forecast EPS Actual Surprise
Southern Copper Corp. SCCO 3/31/2021 0.92 0.99 +0.07 (7.78%)
Wal-Mart de Mexico S.A.B. de C.V. ADR WMMVY 3/31/2021 0.29 0.29 +0.00 (0.28%)
POSCO ADR PKX 3/31/2021 2.80 2.90 +0.10 (3.51%)
NBT Bancorp Inc. NBTB 3/31/2021 0.72 0.92 +0.20 (27.87%)
First Choice Bancorp FCBP 3/31/2021 0.66 0.82 +0.16 (24.24%)
Novartis AG ADR NVS 3/31/2021 1.54 1.52 -0.02 (-1.29%)
Vale S.A. ADR VALE 3/31/2021 1.04 1.09 +0.05 (4.57%)
HSBC Holdings PLC ADR HSBC 3/31/2021 0.58 0.95 +0.37 (64.50%)
UBS Group AG UBS 3/31/2021 0.53 0.49 -0.04 (-7.53%)
ABB Ltd. ADR ABB 3/31/2021 0.28 0.25 -0.03 (-11.26%)
BillerudKorsnaes AB ADR BLRDY 3/31/2021 0.44 0.43 0.00 (-1.05%)
Makita Corp. ADR MKTAY 3/31/2021 0.66 0.51 -0.15 (-22.34%)
Nomura Holdings Inc. ADR NMR 3/31/2021 -0.36 -0.47 -0.10 (28.35%)
Fanuc Corp. ADR FANUY 3/31/2021 0.17 0.19 +0.02 (9.11%)
Hino Motors Ltd. ADR HINOY 3/31/2021 -0.25 -0.85 -0.60 (242.49%)
Advantest Corp. ADR ATEYY 3/31/2021 1.09 1.52 +0.43 (39.65%)
AudioCodes Ltd. AUDC 3/31/2021 0.31 0.37 +0.06 (17.83%)
OMRON Corp. ADR OMRNY 3/31/2021 0.57 0.43 -0.15 (-25.46%)
BP PLC ADR BP 3/31/2021 0.43 0.78 +0.34 (79.06%)
Central Japan Railway Co. ADR CJPRY 3/31/2021 -0.40 -0.42 -0.02 (5.23%)
Kyocera Corp. ADR KYOCY 3/31/2021 0.57 0.67 +0.09 (16.35%)
Astellas Pharma Inc. ADR ALPMY 3/31/2021 0.15 0.09 -0.06 (-41.42%)
FS Bancorp Inc. FSBW 3/31/2021 2.43 2.70 +0.27 (11.11%)
Esquire Financial Holdings Inc. ESQ 3/31/2021 0.48 0.53 +0.05 (10.42%)
Anhui Conch Cement Co. Ltd. AHCHY 3/31/2021 0.94 0.85 -0.09 (-10.10%)
Polaris Inc. PII 3/31/2021 1.59 2.30 +0.71 (44.25%)
Sequans Communications S.A. ADR SQNS 3/31/2021 -0.22 -0.15 +0.07 (-30.56%)
Provident Financial Holdings Inc. PROV 3/31/2021 0.21 0.21 0.00 (-1.56%)
Pacific Premier Bancorp Inc. PPBI 3/31/2021 0.63 0.72 +0.09 (14.30%)
Entegris Inc. ENTG 3/31/2021 0.72 0.70 -0.02 (-3.32%)
Roper Technologies Inc. ROP 3/31/2021 3.32 3.60 +0.28 (8.59%)
United Parcel Service Inc. Cl B UPS 3/31/2021 1.73 2.77 +1.04 (59.73%)
Sensata Technologies Holding PLC ST 3/31/2021 0.73 0.86 +0.13 (17.08%)
Centene Corp. CNC 3/31/2021 1.50 1.63 +0.13 (8.51%)
Armstrong World Industries Inc. AWI 3/31/2021 0.93 0.84 -0.09 (-9.68%)
TransUnion TRU 3/31/2021 0.80 0.91 +0.11 (14.44%)
Eli Lilly & Co. LLY 3/31/2021 2.12 1.87 -0.25 (-11.72%)
PulteGroup Inc. PHM 3/31/2021 1.22 1.13 -0.09 (-7.11%)
Hasbro Inc. HAS 3/31/2021 0.64 1.00 +0.36 (55.10%)
Synchrony Financial SYF 3/31/2021 1.37 1.73 +0.36 (26.04%)
3M Co. MMM 3/31/2021 2.29 2.77 +0.48 (20.80%)
Graphic Packaging Holding Co. GPK 3/31/2021 0.25 0.23 -0.02 (-8.04%)
Aluminum Corp. of China Ltd. ADR ACH 3/31/2021 0.14 0.21 +0.07 (52.31%)
MSCI Inc. MSCI 3/31/2021 2.25 2.46 +0.21 (9.43%)
PJT Partners Inc. PJT 3/31/2021 0.73 0.89 +0.16 (21.92%)
Stepan Co. SCL 3/31/2021 1.43 1.82 +0.39 (27.05%)
Raytheon Technologies Corp. RTX 3/31/2021 0.82 0.90 +0.08 (9.29%)
INVESCO Ltd. IVZ 3/31/2021 0.62 0.68 +0.06 (9.73%)
Stifel Financial Corp. SF 3/31/2021 1.39 1.50 +0.11 (8.17%)
DTE Energy Co. DTE 3/31/2021 2.18 2.44 +0.26 (12.17%)
Capital City Bank Group Inc. CCBG 3/31/2021 0.44 0.56 +0.12 (26.55%)
Aaron's Co. Inc. AAN 3/31/2021 1.24 1.24 Met
Marsh & McLennan Cos. MMC 3/31/2021 1.71 1.99 +0.28 (16.48%)
Crestwood Equity Partners LP CEQP 3/31/2021 0.36 -0.86 -1.22 (-341.48%)
First Commonwealth Financial Corp. (Pennsylvania) FCF 3/31/2021 0.31 0.41 +0.10 (30.25%)
Crocs Inc. CROX 3/31/2021 0.88 1.49 +0.61 (68.51%)
Shutterstock Inc. SSTK 3/31/2021 0.69 0.98 +0.29 (41.21%)
H&E Equipment Services Inc. HEES 3/31/2021 0.15 0.11 -0.04 (-26.20%)
Opera Ltd. ADR OPRA 3/31/2021 0.03 0.04 +0.02 (60.00%)
Archer Daniels Midland Co. ADM 3/31/2021 1.04 1.39 +0.35 (34.29%)
Sherwin-Williams Co. SHW 3/31/2021 1.64 2.06 +0.42 (25.87%)
JetBlue Airways Corp. JBLU 3/31/2021 -1.69 -1.48 +0.21 (-12.46%)
Asbury Automotive Group Inc. ABG 3/31/2021 3.67 4.68 +1.01 (27.56%)
Arrow Financial Corp. AROW 3/31/2021 0.69 0.85 +0.16 (23.19%)
Fiserv Inc. FISV 3/31/2021 1.13 1.17 +0.04 (3.70%)
First Foundation Inc. FFWM 3/31/2021 0.46 0.50 +0.04 (8.23%)
General Electric Co. GE 3/31/2021 0.01 0.03 +0.02 (123.28%)
Axis Bank Ltd. GDR AXBKY 3/31/2021 0.59 0.58 0.00 (-0.83%)
Home Bancorp Inc. HBCP 3/31/2021 0.98 1.41 +0.43 (43.51%)
Lincoln Electric Holdings Inc. LECO 3/31/2021 1.18 1.37 +0.19 (16.38%)
Turning Point Brands Inc. TPB 3/31/2021 0.58 0.57 -0.01 (-2.29%)
Waste Management Inc. WM 3/31/2021 1.01 1.06 +0.05 (4.64%)
Swedbank AB ADR SWDBY 3/31/2021 0.47 0.53 +0.06 (13.23%)
FirstService Corp. FSV 3/31/2021 0.45 0.66 +0.21 (46.00%)
Corning Inc. GLW 3/31/2021 0.43 0.45 +0.02 (5.05%)
Guangshen Railway Co. Ltd. ADR GSHHY 3/31/2021 -0.06 -0.10 -0.04 (66.24%)
Ebix Inc. EBIX 12/31/2020 1.06 0.94 -0.12 (-11.32%)
Hubbell Inc. HUBB 3/31/2021 1.65 1.72 +0.07 (4.46%)
Alfa Laval AB ADR ALFVY 3/31/2021 0.29 0.32 +0.03 (9.64%)
Independent Bank Corp. (Michigan) IBCP 3/31/2021 0.57 0.78 +0.21 (35.89%)
Lakeland Bancorp Inc. LBAI 3/31/2021 0.39 0.45 +0.06 (16.67%)
Oxford Square Capital Corp. OXSQ 3/31/2021 0.09 0.10 +0.01 (11.11%)
Paccar Inc. PCAR 3/31/2021 1.28 1.35 +0.07 (5.79%)
Franklin Electric Co. Inc. FELE 3/31/2021 0.37 0.59 +0.22 (60.54%)
UMB Financial Corp. UMBF 3/31/2021 1.48 1.91 +0.43 (29.20%)
NexPoint Residential Trust Inc. NXRT 3/31/2021 -0.30 0.56 +0.86 (-286.58%)
Boliden AB ADR BDNNY 3/31/2021 1.73 1.90 +0.17 (10.14%)
Ecolab Inc. ECL 3/31/2021 0.81 0.81 0.00 (-0.26%)
Camden National Corp. CAC 3/31/2021 1.01 1.32 +0.31 (30.99%)
Atlas Copco AB ADR ATLKY 3/31/2021 0.40 0.40 0.00 (-0.21%)
Atlas Copco AB Series B ADR ATLCY 3/31/2021 0.40 0.40 0.00 (-0.21%)
HarborOne Bancorp HONE 3/31/2021 0.30 0.37 +0.07 (23.33%)
First Financial Northwest Inc. FFNW 3/31/2021 0.23 0.26 +0.03 (13.04%)
Huaneng Power International Inc. ADR HNP 3/31/2021 0.46 1.05 +0.59 (128.74%)
Coastal Financial Corp. CCB 3/31/2021 0.38 0.49 +0.11 (28.95%)
First Financial Corp. (Indiana) THFF 3/31/2021 0.83 0.95 +0.12 (14.92%)
LG Display Co. Ltd. ADR LPL 3/31/2021 0.37 0.33 -0.03 (-8.76%)
DSV Panalpina A/S ADR DSDVY 3/31/2021 0.72 0.85 +0.14 (18.86%)
Eagle Bancorp Montana Inc. EBMT 3/31/2021 0.92 0.78 -0.14 (-15.52%)
PTT Exploration & Production PCL ADR PEXNY 3/31/2021 0.12 0.18 +0.07 (57.15%)
Luther Burbank Corp. LBC 3/31/2021 0.29 0.35 +0.06 (20.69%)
Vista Oil & Gas S.A.B. de C.V. ADR VIST 3/31/2021 -0.01 0.04 +0.05 (-900.00%)
Grupo Aeroportuario del Centro Norte S.A.B. de C.V. ADR OMAB 3/31/2021 9.67 8.48 -1.19 (-12.33%)
Amgen Inc. AMGN 3/31/2021 4.05 3.70 -0.35 (-8.59%)
CRISPR Therapeutics AG CRSP 3/31/2021 -1.47 -1.51 -0.04 (2.53%)
Maxim Integrated Products Inc. MXIM 3/31/2021 0.74 0.82 +0.08 (10.73%)
EastGroup Properties Inc. EGP 3/31/2021 0.61 0.69 +0.08 (13.11%)
TFI International Inc. TFII 3/31/2021 0.74 0.77 +0.03 (4.60%)
Capital One Financial Corp. COF 3/31/2021 4.12 7.03 +2.91 (70.60%)
F5 Networks Inc. FFIV 3/31/2021 2.40 2.50 +0.10 (4.38%)
NCR Corp. NCR 3/31/2021 0.48 0.51 +0.03 (7.09%)
Manhattan Associates Inc. MANH 3/31/2021 0.32 0.43 +0.11 (33.19%)
Accuray Inc. ARAY 3/31/2021 0.00 0.00 +0.00 (-100.00%)
First Bancorp (North Carolina) FBNC 3/31/2021 0.87 0.99 +0.12 (14.23%)
Hawaiian Holdings Inc. HA 3/31/2021 -3.85 -3.85 Met
Texas Instruments Inc. TXN 3/31/2021 1.58 1.87 +0.29 (18.51%)
Chubb Ltd. CB 3/31/2021 2.47 2.52 +0.05 (1.91%)
TechnipFMC PLC FTI 3/31/2021 -0.07 -0.03 +0.04 (-58.94%)
American Assets Trust Inc. AAT 3/31/2021 0.03 0.02 -0.01 (-33.33%)
ONEOK Inc. OKE 3/31/2021 0.77 0.86 +0.09 (12.28%)
Equity Residential EQR 3/31/2021 0.16 0.15 -0.01 (-4.55%)
TERNIUM S.A. ADR TX 3/31/2021 2.57 3.07 +0.50 (19.38%)
Meta Financial Group Inc. CASH 3/31/2021 1.57 1.84 +0.27 (17.20%)
Lydall Inc. LDL 3/31/2021 0.19 0.35 +0.16 (84.21%)
QCR Holdings Inc. QCRH 3/31/2021 1.12 1.16 +0.04 (3.76%)
Hope Bancorp Inc. HOPE 3/31/2021 0.31 0.35 +0.04 (12.90%)
Enphase Energy Inc. ENPH 3/31/2021 0.46 0.56 +0.10 (22.79%)
Stryker Corp. SYK 3/31/2021 1.99 1.93 -0.06 (-2.78%)
South Plains Financial Inc. SPFI 3/31/2021 0.69 0.82 +0.14 (19.71%)
First Community Bancshares Inc. FCBC 3/31/2021 0.54 0.82 +0.28 (51.85%)
Retail Opportunity Investment Corp. ROIC 3/31/2021 0.04 0.06 +0.02 (39.78%)
Yum China Holdings Inc. YUMC 3/31/2021 0.46 0.54 +0.08 (18.17%)
MRC Global Inc. MRC 3/31/2021 -0.08 -0.07 +0.01 (-14.04%)
WesBanco Inc. WSBC 3/31/2021 0.68 1.06 +0.38 (55.88%)
Mondelez International Inc. Cl A MDLZ 3/31/2021 0.69 0.77 +0.08 (11.74%)
Boyd Gaming Corp. BYD 3/31/2021 0.46 0.93 +0.47 (103.36%)
Encompass Health Corp. EHC 3/31/2021 0.82 1.05 +0.23 (27.34%)
QTS Realty Trust Inc. Cl A QTS 3/31/2021 0.02 -0.07 -0.09 (-495.37%)
Haverty Furniture Cos. Inc. Cl A HVT.A 3/31/2021 1.04 1.04 Met
Haverty Furniture Cos. Inc. HVT 3/31/2021 1.04 1.04 Met
Randolph Bancorp Inc. RNDB 3/31/2021 0.79 0.79 Met
Hanmi Financial Corp. HAFC 3/31/2021 0.42 0.54 +0.12 (28.06%)
Tenable Holdings Ltd. TENB 3/31/2021 0.07 0.13 +0.06 (80.49%)
Western New England Bancorp Inc. WNEB 3/31/2021 0.17 0.24 +0.07 (43.28%)
Advanced Micro Devices Inc. AMD 3/31/2021 0.44 0.52 +0.08 (18.79%)
ACCO Brands Corp. ACCO 3/31/2021 0.02 0.10 +0.08 (468.18%)
Horizon Technology Finance Corp. HRZN 3/31/2021 0.28 0.31 +0.03 (10.71%)
USANA Health Sciences Inc. USNA 3/31/2021 1.49 1.45 -0.04 (-2.36%)
Matson Inc. MATX 3/31/2021 1.63 1.99 +0.36 (22.09%)
Illumina Inc. ILMN 3/31/2021 1.39 1.89 +0.50 (36.11%)
C.H. Robinson Worldwide Inc. CHRW 3/31/2021 0.98 1.28 +0.30 (29.98%)
FireEye Inc. FEYE 3/31/2021 0.06 0.08 +0.02 (26.50%)
Rexnord Corp. RXN 3/31/2021 0.45 0.47 +0.02 (3.46%)
PPD Inc. PPD 3/31/2021 0.31 0.35 +0.04 (11.18%)
Four Corners Property Trust Inc. FCPT 3/31/2021 0.28 0.27 -0.01 (-3.55%)
Edison International EIX 3/31/2021 0.72 0.79 +0.07 (10.34%)
PS Business Parks Inc. PSB 3/31/2021 0.80 1.01 +0.21 (26.29%)
R.R. Donnelley & Sons Co. RRD 3/31/2021 0.08 0.08 Met
Chemed Corp. CHE 3/31/2021 4.02 4.44 +0.42 (10.36%)
Juniper Networks Inc. JNPR 3/31/2021 0.25 0.30 +0.05 (18.45%)
First Interstate BancSystem Inc. Cl A FIBK 3/31/2021 0.83 0.83 Met
Essex Property Trust Inc. ESS 3/31/2021 0.96 2.59 +1.63 (169.19%)
Tremont Mortgage Trust TRMT 3/31/2021 0.27 0.27 Met
CoStar Group Inc. CSGP 3/31/2021 2.40 2.75 +0.35 (14.36%)
Starbucks Corp. SBUX 3/31/2021 0.53 0.62 +0.09 (16.55%)
UDR Inc. UDR 3/31/2021 0.02 0.01 -0.01 (-46.32%)
Pinterest Inc. PINS 3/31/2021 0.06 0.11 +0.05 (75.72%)
Principal Financial Group Inc. PFG 3/31/2021 1.35 1.53 +0.18 (13.42%)
AtriCure Inc. ATRC 3/31/2021 -0.39 -0.38 +0.01 (-1.66%)
CyberOptics Corp. CYBE 3/31/2021 0.19 0.19 Met
A10 Networks Inc. ATEN 3/31/2021 0.12 0.12 Met
IDEX Corp. IEX 3/31/2021 1.41 1.51 +0.10 (6.73%)
Trustmark Corp. TRMK 3/31/2021 0.62 0.82 +0.20 (33.12%)
Boston Properties Inc. BXP 3/31/2021 0.57 0.63 +0.06 (11.10%)
First Busey Corp. BUSE 3/31/2021 0.52 0.69 +0.17 (32.33%)
Renasant Corp. RNST 3/31/2021 0.65 1.02 +0.37 (57.09%)
Veritex Holdings Inc. VBTX 3/31/2021 0.52 0.64 +0.12 (23.08%)
LAIX Inc. ADR LAIX 12/31/2020 -2.08 -0.70 +1.38 (-66.35%)
Teradyne Inc. TER 3/31/2021 1.05 1.11 +0.06 (5.98%)
Arch Capital Group Ltd. ACGL 3/31/2021 0.46 0.59 +0.13 (29.46%)
ATN International Inc. ATNI 3/31/2021 -0.01 0.17 +0.18 (-1478.42%)
Visa Inc. Cl A V 3/31/2021 1.27 1.38 +0.11 (8.25%)
Alphabet Inc. Cl C GOOG 3/31/2021 15.81 26.29 +10.48 (66.25%)
Alphabet Inc. Cl A GOOGL 3/31/2021 15.76 26.29 +10.53 (66.83%)
Microsoft Corp. MSFT 3/31/2021 1.78 1.95 +0.17 (9.47%)
Highwoods Properties Inc. HIW 3/31/2021 0.28 0.52 +0.24 (84.07%)
Navient Corp. NAVI 3/31/2021 0.77 1.71 +0.94 (123.05%)
Artisan Partners Asset Management Inc. APAM 3/31/2021 1.11 1.13 +0.02 (1.84%)
Flushing Financial Corp. FFIC 3/31/2021 0.47 0.54 +0.07 (14.89%)
Calix Inc. CALX 3/31/2021 0.19 0.39 +0.20 (103.13%)
NOV Inc. NOV 3/31/2021 -0.22 -0.28 -0.06 (27.05%)
Deutsche Bank AG DB 3/31/2021 0.44 0.57 +0.12 (27.86%)
Santander Bank Polska S.A. ADR BKZHY 3/31/2021 0.18 0.06 -0.12 (-67.83%)
Jiangxi Copper Co. Ltd. ADR JIXAY 3/31/2021 1.69 1.54 -0.15 (-8.71%)
Jiangxi Copper Co. Ltd. JIAXF 3/31/2021 0.04 0.04 0.00 (-8.71%)
Olin Corp. OLN 3/31/2021 1.36 1.54 +0.18 (13.25%)
Company Name Symbol Fiscal Quarter EPS Forecast EPS Actual Surprise
America Movil S.A.B. de C.V. ADR AMOV 3/31/2021 0.03 0.03 Met
America Movil S.A.B. de C.V. ADR Series L AMX 3/31/2021 0.60 0.60 Met
Beiersdorf AG ADR BDRFY 3/31/2021 0.37 0.37 Met
Akbank T.A.S. ADR New144A AKBDY 3/31/2021 0.06 0.09 +0.03 (53.76%)
Akbank T.A.S. ADR AKBTY 3/31/2021 0.06 0.09 +0.03 (53.76%)
Jiangsu Expressway Co. Ltd. ADR JEXYY 3/31/2021 0.63 0.70 +0.07 (11.66%)
Embotelladora Andina S.A. (Series B) ADR AKO.B 3/31/2021 0.38 0.38 Met
Embotelladora Andina S.A. (Series A) ADR AKO.A 3/31/2021 0.38 0.38 Met
Liberty Oilfield Services Inc. LBRT 3/31/2021 -0.22 -0.21 +0.01 (-3.85%)
Denso Corp. ADR DNZOY 3/31/2021 0.49 0.49 0.00 (-0.71%)
Aisin Corp. ADR ASEKY 3/31/2021 1.86 2.27 +0.41 (21.95%)
Hong Kong Exchanges & Clearing Ltd. ADR HKXCY 3/31/2021 0.40 0.39 -0.01 (-2.92%)
Mitsubishi Electric Corp. ADR MIELY 3/31/2021 0.52 0.73 +0.21 (39.90%)
Scor S.E. ADR SCRYY 3/31/2021 -0.01 0.03 +0.03 (-677.30%)
Symrise AG ADR SYIEY 3/31/2021 0.20 N/A N/A
Teck Resources Ltd. Cl B TECK 3/31/2021 0.51 0.49 -0.02 (-3.06%)
Dassault Systemes SE ADR DASTY 3/31/2021 1.23 1.38 +0.15 (12.45%)
ASE Technology Holding Co. Ltd. ADR ASX 3/31/2021 0.12 0.14 +0.02 (16.44%)
Seiko Epson Corp. ADR SEKEY 3/31/2021 -0.04 0.14 +0.18 (-487.53%)
Renesas Electronics Corp. ADR RNECY 3/31/2021 0.06 0.04 -0.02 (-37.03%)
Yamazaki Baking Co. Ltd. ADR YMZBY 3/31/2021 1.15 1.30 +0.16 (13.68%)
Hitachi Ltd. ADR HTHIY 3/31/2021 1.62 3.68 +2.06 (127.13%)
Carlsberg ADR Rep B Shares CABGY 3/31/2021 0.15 0.15 +0.00 (0.49%)
Toto Ltd. ADR TOTDY 3/31/2021 0.51 0.63 +0.12 (23.97%)
Sony Group Corp. ADR SONY 3/31/2021 0.35 0.79 +0.44 (124.07%)
Fujitsu Ltd. ADR FJTSY 3/31/2021 0.81 0.81 0.00 (-0.14%)
Daiwa Securities Group Inc. ADR DSEEY 3/31/2021 0.13 0.30 +0.17 (127.55%)
Lloyds Banking Group PLC ADR LYG 3/31/2021 0.07 0.03 -0.04 (-59.76%)
Sanofi ADR SNY 3/31/2021 0.83 0.97 +0.14 (17.25%)
Banco Santander S.A. ADR SAN 3/31/2021 0.12 0.14 +0.02 (21.36%)
Electrolux AB ADR ELUXY 3/31/2021 0.82 1.29 +0.47 (57.12%)
Assa Abloy AB ADR ASAZY 3/31/2021 0.11 0.12 +0.01 (6.70%)
TDK Corp. ADR TTDKY 3/31/2021 0.94 0.46 -0.48 (-51.50%)
Danske Bank A/S ADR DNKEY 3/31/2021 0.26 0.28 +0.03 (10.27%)
China Life Insurance Co. Ltd. ADR LFC 3/31/2021 0.52 0.78 +0.26 (51.04%)
China Petroleum & Chemical Corp. ADR SNP 3/31/2021 2.11 2.29 +0.18 (8.65%)
LivaNova PLC LIVN 3/31/2021 0.15 0.35 +0.20 (127.17%)
United Microelectronics Corp. ADR UMC 3/31/2021 0.10 0.15 +0.05 (49.38%)
Sharps Compliance Corp. SMED 3/31/2021 0.13 0.40 +0.27 (203.03%)
Six Flags Entertainment Corp. SIX 3/31/2021 -1.30 -1.12 +0.18 (-14.17%)
Integra LifeSciences Holdings Corp. IART 3/31/2021 0.57 0.69 +0.12 (22.02%)
Evercore Inc. Cl A EVR 3/31/2021 2.56 3.29 +0.73 (28.38%)
Vertiv Holdings LLC VRT 3/31/2021 0.12 0.21 +0.09 (81.35%)
Constellium SE CSTM 3/31/2021 0.08 0.32 +0.24 (307.96%)
Spotify Technology S.A. SPOT 3/31/2021 -0.40 -0.25 +0.15 (-37.88%)
Stanley Black & Decker Inc. SWK 3/31/2021 2.57 3.13 +0.56 (22.01%)
Owens Corning OC 3/31/2021 1.43 1.73 +0.30 (20.58%)
Littelfuse Inc. LFUS 3/31/2021 1.90 2.67 +0.77 (40.69%)
Genius Sports Ltd. GENI 12/31/2020 -0.05 -0.08 -0.03 (60.00%)
Santander Consumer USA Holdings Inc. SC 3/31/2021 1.44 2.42 +0.98 (68.22%)
Veoneer Inc. VNE 3/31/2021 -0.93 -0.93 0.00 (0.27%)
Prosperity Bancshares Inc. PB 3/31/2021 1.38 1.44 +0.06 (4.52%)
Boston Scientific Corp. BSX 3/31/2021 0.31 0.37 +0.06 (21.07%)
TriCo Bancshares TCBK 3/31/2021 0.81 1.13 +0.32 (38.93%)
First Citizens Bancshares Inc. Cl A FCNCA 3/31/2021 13.05 13.31 +0.26 (1.99%)
First Citizens Bancshares Inc. Cl B FCNCB 3/31/2021 13.05 13.31 +0.26 (1.99%)
Camtek Ltd. CAMT 3/31/2021 0.26 0.33 +0.07 (28.57%)
Entergy Corp. ETR 3/31/2021 1.17 1.47 +0.30 (25.27%)
CGI Inc. Cl A GIB 3/31/2021 1.05 1.09 +0.04 (4.03%)
Central Pacific Financial Corp. CPF 3/31/2021 0.49 0.64 +0.15 (31.28%)
Travel + Leisure Co. TNL 3/31/2021 0.20 0.39 +0.19 (90.91%)
Humana Inc. HUM 3/31/2021 7.07 7.67 +0.60 (8.42%)
Avery Dennison Corp. AVY 3/31/2021 2.02 2.40 +0.38 (18.78%)
Marine Products Corp. MPX 3/31/2021 0.19 0.24 +0.05 (26.32%)
Helen of Troy Ltd. HELE 2/28/2021 1.57 1.57 +0.00 (0.26%)
Oshkosh Corp. OSK 3/31/2021 1.15 1.48 +0.33 (28.25%)
Brinker International Inc. EAT 3/31/2021 0.82 0.78 -0.04 (-4.98%)
Yum! Brands Inc. YUM 3/31/2021 0.87 1.07 +0.20 (23.21%)
Teledyne Technologies Inc. TDY 3/31/2021 2.59 2.23 -0.36 (-13.90%)
SINOPEC Shanghai Petrochemical Co. Ltd. ADR SHI 3/31/2021 1.18 1.67 +0.49 (41.12%)
GlaxoSmithKline PLC ADR GSK 3/31/2021 0.59 0.64 +0.05 (7.84%)
Silicon Laboratories Inc. SLAB 3/31/2021 0.79 0.91 +0.12 (15.86%)
Driven Brands Holdings Inc. DRVN 3/31/2021 0.06 0.19 +0.13 (210.91%)
AC Immune S.A. ACIU 3/31/2021 -0.23 -0.23 +0.00 (-0.22%)
Steven Madden Ltd. SHOO 3/31/2021 0.17 0.33 +0.16 (95.50%)
Timken Co. TKR 3/31/2021 1.20 1.38 +0.18 (14.64%)
Discovery Inc. Series A DISCA 3/31/2021 0.64 0.21 -0.43 (-67.40%)
Interpublic Group of Cos. IPG 3/31/2021 0.15 0.45 +0.30 (204.45%)
Discovery Inc. Series B DISCB 3/31/2021 0.64 0.21 -0.43 (-67.34%)
General Dynamics Corp. GD 3/31/2021 2.30 2.48 +0.18 (7.81%)
Discovery Inc. Series C DISCK 3/31/2021 0.64 0.21 -0.43 (-67.34%)
Virtus Investment Partners Inc. VRTS 3/31/2021 5.44 6.78 +1.34 (24.63%)
Sirius XM Holdings Inc. SIRI 3/31/2021 0.06 0.05 -0.01 (-18.29%)
Extreme Networks Inc. EXTR 3/31/2021 0.13 0.16 +0.03 (21.74%)
Mastech Digital Inc. MHH 3/31/2021 0.28 0.19 -0.09 (-32.14%)
RPC Inc. RES 3/31/2021 -0.04 -0.05 -0.01 (24.60%)
Alkermes PLC ALKS 3/31/2021 -0.02 0.11 +0.13 (-833.33%)
Penske Automotive Group Inc. PAG 3/31/2021 1.81 2.26 +0.45 (25.17%)
Dana Inc. DAN 3/31/2021 0.47 0.66 +0.19 (40.67%)
CME Group Inc. Cl A CME 3/31/2021 1.76 1.79 +0.03 (1.88%)
Moody's Corp. MCO 3/31/2021 2.82 4.06 +1.24 (43.82%)
Ares Capital Corp. ARCC 3/31/2021 0.42 0.43 +0.01 (1.56%)
Masco Corp. MAS 3/31/2021 0.67 0.89 +0.22 (33.71%)
Teva Pharmaceutical Industries Ltd. ADR TEVA 3/31/2021 0.59 0.63 +0.04 (6.64%)
Rockwell Automation Inc. ROK 3/31/2021 2.15 2.41 +0.26 (12.13%)
Wabash National Corp. WNC 3/31/2021 -0.01 0.06 +0.07 (-590.40%)
Chefs' Warehouse Inc. CHEF 3/31/2021 -0.43 -0.50 -0.07 (17.47%)
Silgan Holdings Inc. SLGN 3/31/2021 0.70 0.75 +0.05 (6.86%)
Garmin Ltd. GRMN 3/31/2021 0.91 1.18 +0.27 (29.22%)
AerCap Holdings N.V. AER 3/31/2021 1.15 1.76 +0.61 (52.88%)
Automatic Data Processing Inc. ADP 3/31/2021 1.79 1.89 +0.10 (5.82%)
Boeing Co. BA 3/31/2021 -1.05 -1.53 -0.48 (45.88%)
Saia Inc. SAIA 3/31/2021 1.38 1.40 +0.02 (1.36%)
Brink's Co. BCO 3/31/2021 0.76 0.82 +0.06 (7.89%)
Surmodics Inc. SRDX 3/31/2021 0.56 0.62 +0.06 (11.71%)
BYD Co. Ltd. ADR BYDDY 3/31/2021 0.04 0.02 -0.02 (-42.00%)
Hess Corp. HES 3/31/2021 0.33 0.82 +0.49 (146.41%)
Rollins Inc. ROL 3/31/2021 0.11 0.19 +0.08 (68.00%)
Wingstop Inc. WING 3/31/2021 0.31 0.44 +0.13 (42.08%)
China Construction Bank Corp. ADR CICHY 3/31/2021 1.01 1.02 +0.02 (1.50%)
Ryder System Inc. R 3/31/2021 0.58 1.09 +0.51 (87.28%)
Amphenol Corp. Cl A APH 3/31/2021 0.47 0.52 +0.05 (10.07%)
Norfolk Southern Corp. NSC 3/31/2021 2.55 2.66 +0.11 (4.45%)
Superior Group of Cos. Inc. SGC 3/31/2021 0.35 0.66 +0.31 (88.57%)
Farmers National Banc Corp. FMNB 3/31/2021 0.37 0.51 +0.14 (37.84%)
Dynex Capital Inc. DX 3/31/2021 0.46 0.46 0.00 (-0.23%)
Popular Inc. BPOP 3/31/2021 1.86 3.12 +1.26 (67.93%)
Hess Midstream LP Cl A HESM 3/31/2021 0.40 0.43 +0.03 (7.97%)
Melco Resorts & Entertainment Ltd. ADR MLCO 3/31/2021 -0.36 -0.49 -0.13 (35.56%)
Studio City International Holdings Ltd. ADR MSC 3/31/2021 -0.28 -0.56 -0.28 (98.93%)
M/I Homes Inc. MHO 3/31/2021 1.51 2.85 +1.34 (88.74%)
CIT Group Inc. CIT 3/31/2021 0.75 3.04 +2.29 (305.91%)
Naturgy Energy Group S.A. ADR GASNY 3/31/2021 0.07 0.08 +0.01 (10.41%)
Banco Santander (Brasil) S.A. ADR BSBR 3/31/2021 0.15 0.17 +0.02 (13.91%)
HomeTrust Bancshares Inc. HTBI 3/31/2021 0.37 0.70 +0.34 (92.27%)
Virco Manufacturing Corp. VIRC 1/31/2021 -0.24 -0.35 -0.11 (45.83%)
Cargotec Oyj ADR CYJBY 3/31/2021 0.27 0.09 -0.18 (-66.62%)
Blackstone Mortgage Trust Inc. Cl A BXMT 3/31/2021 0.60 0.59 -0.01 (-0.85%)
Shopify Inc. Cl A SHOP 3/31/2021 0.74 2.01 +1.27 (170.93%)
SunCoke Energy Inc. SXC 3/31/2021 0.10 0.20 +0.10 (100.00%)
Yandex N.V. Cl A YNDX 3/31/2021 19.45 6.55 -12.90 (-66.30%)
Tetra Tech Inc. TTEK 3/31/2021 0.75 0.83 +0.08 (10.67%)
MiMedx Group Inc. MDXG 3/31/2021 -0.19 -0.09 +0.10 (-52.63%)
Align Technology Inc. ALGN 3/31/2021 2.02 2.49 +0.47 (23.14%)
PRA Health Sciences Inc. PRAH 3/31/2021 1.32 1.35 +0.03 (1.92%)
Public Storage PSA 3/31/2021 1.77 2.21 +0.44 (24.91%)
Alerus Financial Corp. ALRS 3/31/2021 0.63 0.86 +0.23 (37.23%)
Atomera Inc. ATOM 3/31/2021 -0.13 -0.16 -0.03 (23.08%)
CBTX Inc. CBTX 3/31/2021 0.35 0.41 +0.06 (18.27%)
McGrath RentCorp MGRC 3/31/2021 0.77 0.90 +0.13 (16.65%)
Hologic Inc. HOLX 3/31/2021 2.62 2.59 -0.03 (-1.08%)
icad Inc. ICAD 3/31/2021 -0.11 -0.07 +0.04 (-38.08%)
2U Inc. TWOU 3/31/2021 -0.22 -0.12 +0.10 (-46.45%)
Apellis Pharmaceuticals Inc. APLS 3/31/2021 -1.64 -2.32 -0.68 (41.76%)
JAKKS Pacific Inc. JAKK 3/31/2021 -3.86 -1.77 +2.09 (-54.18%)
Echo Global Logistics Inc. ECHO 3/31/2021 0.47 0.61 +0.14 (29.24%)
Cree Inc. CREE 3/31/2021 -0.23 -0.22 +0.01 (-2.67%)
SP Plus Corp. SP 3/31/2021 0.00 0.27 +0.27 (10700.00%)
Ribbon Communications Inc. RBBN 3/31/2021 0.02 0.03 +0.01 (80.00%)
Monarch Casino & Resort Inc. MCRI 3/31/2021 0.40 0.42 +0.02 (4.81%)
eBay Inc. EBAY 3/31/2021 1.08 1.09 +0.01 (1.17%)
Teladoc Health Inc. TDOC 3/31/2021 -0.54 -1.31 -0.77 (141.83%)
Vermilion Energy Inc. VET 3/31/2021 -0.02 2.56 +2.59 (-10803.14%)
Manning & Napier Inc. MN 3/31/2021 0.05 0.29 +0.24 (480.00%)
OPKO Health Inc. OPK 3/31/2021 0.05 0.05 +0.00 (4.17%)
RiceBran Technologies RIBT 3/31/2021 -0.04 0.01 +0.05 (-125.00%)
Viking Therapeutics Inc. VKTX 3/31/2021 -0.17 -0.19 -0.02 (9.47%)
LSB Industries Inc. LXU 3/31/2021 -0.49 -0.82 -0.34 (69.07%)
Ultra Clean Holdings Inc. UCTT 3/31/2021 0.85 0.92 +0.07 (8.66%)
Financial Institutions Inc. FISI 3/31/2021 0.76 1.27 +0.51 (67.11%)
Icon PLC ICLR 3/31/2021 1.97 2.06 +0.09 (4.55%)
Independence Realty Trust Inc. IRT 3/31/2021 0.02 0.01 -0.01 (-52.54%)
AXT Inc. AXTI 3/31/2021 0.05 0.08 +0.03 (47.47%)
Werner Enterprises Inc. WERN 3/31/2021 0.63 0.68 +0.05 (7.44%)
Avantor Inc. AVTR 3/31/2021 0.28 0.35 +0.07 (26.53%)
Digimarc Corp. DMRC 3/31/2021 -0.56 -0.50 +0.06 (-9.91%)
Columbia Financial Inc. CLBK 3/31/2021 0.17 0.20 +0.03 (20.56%)
Cincinnati Financial Corp. CINF 3/31/2021 1.05 1.37 +0.32 (30.41%)
Brightcove Inc. BCOV 3/31/2021 0.10 0.15 +0.05 (45.16%)
Allison Transmission Holdings Inc. ALSN 3/31/2021 0.90 1.07 +0.17 (18.90%)
Century Communities Inc. CCS 3/31/2021 1.60 3.00 +1.41 (88.09%)
Benchmark Electronics Inc. BHE 3/31/2021 0.20 0.21 +0.01 (6.78%)
MaxLinear Inc. MXL 3/31/2021 0.50 0.55 +0.05 (10.60%)
Waste Connections Inc. WCN 3/31/2021 0.67 0.65 -0.02 (-2.57%)
Aspen Technology Inc. AZPN 3/31/2021 1.11 1.05 -0.06 (-5.77%)
FormFactor Inc. FORM 3/31/2021 0.39 0.38 -0.01 (-1.72%)
First Mid Bancshares Inc. FMBH 3/31/2021 0.42 0.24 -0.18 (-42.40%)
Facebook Inc. Cl A FB 3/31/2021 2.35 3.30 +0.95 (40.57%)
Grubhub Inc. GRUB 3/31/2021 0.00 -0.56 -0.56 (-33693.28%)
South State Corp. SSB 3/31/2021 1.36 2.06 +0.70 (51.33%)
Amedisys Inc. AMED 3/31/2021 1.43 1.54 +0.11 (7.92%)
TTM Technologies Inc. TTMI 3/31/2021 0.23 0.23 0.00 (-0.54%)
Equinix Inc. EQIX 3/31/2021 1.74 1.74 +0.00 (0.05%)
Brookline Bancorp Inc. BRKL 3/31/2021 0.28 0.34 +0.06 (22.30%)
LendingClub Corp. LC 3/31/2021 -0.79 -0.94 -0.15 (19.29%)
Getty Realty Corp. GTY 3/31/2021 0.29 0.40 +0.11 (37.24%)
CyrusOne Inc. CONE 3/31/2021 0.05 0.15 +0.10 (189.10%)
AFLAC Inc. AFL 3/31/2021 1.21 1.53 +0.32 (26.04%)
Comfort Systems USA Inc. FIX 3/31/2021 0.53 0.70 +0.17 (32.23%)
Pegasystems Inc. PEGA 3/31/2021 0.09 0.26 +0.17 (192.56%)
Merchants Bancorp MBIN 3/31/2021 1.47 2.02 +0.55 (37.10%)
Orion Group Holdings Inc. ORN 3/31/2021 0.02 0.03 +0.01 (50.00%)
Innoviva Inc. INVA 3/31/2021 -0.01 0.84 +0.85 (-8500.00%)
CONMED Corp. CNMD 3/31/2021 0.44 0.63 +0.19 (44.42%)
Avnet Inc. AVT 3/31/2021 0.56 0.74 +0.18 (31.65%)
Inovalon Holdings Inc. Cl A INOV 3/31/2021 0.15 0.17 +0.02 (15.89%)
Duke Realty Corp. DRE 3/31/2021 0.13 0.21 +0.08 (56.18%)
Blackbaud Inc. BLKB 3/31/2021 0.62 0.68 +0.06 (9.15%)
Altice USA Inc. Cl A ATUS 3/31/2021 0.31 0.58 +0.27 (88.03%)
John B. Sanfilippo & Son Inc. JBSS 3/31/2021 1.18 1.27 +0.09 (7.63%)
ServiceNow Inc. NOW 3/31/2021 1.35 1.52 +0.17 (12.99%)
Matador Resources Co. MTDR 3/31/2021 0.41 0.71 +0.30 (73.37%)
Univest Financial Corp. UVSP 3/31/2021 0.59 1.11 +0.53 (89.74%)
Knoll Inc. KNL 3/31/2021 0.02 0.04 +0.02 (100.00%)
Nabors Industries Ltd. NBR 3/31/2021 -21.42 -20.16 +1.26 (-5.89%)
AXIS Capital Holdings Ltd. AXS 3/31/2021 0.64 0.97 +0.33 (51.93%)
Piedmont Office Realty Trust Inc. Cl A PDM 3/31/2021 0.06 0.08 +0.02 (37.58%)
Empire State Realty Trust Inc. Cl A ESRT 3/31/2021 -0.04 -0.02 +0.02 (-50.00%)
Mid-America Apartment Communities Inc. MAA 3/31/2021 0.60 0.40 -0.20 (-32.85%)
Ingevity Corp. NGVT 3/31/2021 1.03 1.27 +0.24 (23.30%)
United Rentals Inc. URI 3/31/2021 3.09 3.45 +0.36 (11.78%)
Moelis & Co. MC 3/31/2021 0.88 1.02 +0.14 (15.31%)
Continental Resources Inc. CLR 3/31/2021 0.51 0.77 +0.26 (50.48%)
Acadia Realty Trust AKR 3/31/2021 -0.12 0.06 +0.18 (-150.84%)
MGM Resorts International MGM 3/31/2021 -0.85 -0.68 +0.17 (-19.89%)
Antero Resources Corp. AR 3/31/2021 0.55 0.62 +0.07 (12.05%)
Hersha Hospitality Trust Cl A HT 3/31/2021 -1.32 0.07 +1.39 (-105.30%)
Selective Insurance Group Inc. SIGI 3/31/2021 1.04 1.70 +0.66 (63.64%)
Everest Re Group Ltd. RE 3/31/2021 4.61 6.49 +1.88 (40.85%)
Avalonbay Communities Inc. AVB 3/31/2021 0.78 1.02 +0.24 (30.39%)
Invitation Homes Inc. INVH 3/31/2021 0.06 0.10 +0.04 (54.44%)
Annaly Capital Management Inc. NLY 3/31/2021 0.26 0.29 +0.03 (10.04%)
Element Solutions Inc. ESI 3/31/2021 0.31 0.37 +0.06 (19.02%)
Redwood Trust Inc. RWT 3/31/2021 0.26 0.09 -0.17 (-65.32%)
Washington Real Estate Investment Trust WRE 3/31/2021 -0.05 -0.02 +0.03 (-62.85%)
FARO Technologies Inc. FARO 3/31/2021 0.05 -0.03 -0.08 (-164.29%)
Antero Midstream Corp. AM 3/31/2021 0.20 0.17 -0.03 (-15.13%)
ASGN Inc. ASGN 3/31/2021 1.10 1.15 +0.05 (4.78%)
Molina Healthcare Inc. MOH 3/31/2021 3.67 4.44 +0.77 (20.85%)
Sunnova Energy International Inc. NOVA 3/31/2021 -0.32 -0.31 +0.01 (-4.41%)
CNO Financial Group Inc. CNO 3/31/2021 0.52 0.55 +0.03 (6.35%)
Extra Space Storage Inc. EXR 3/31/2021 1.03 1.53 +0.50 (49.00%)
Cheesecake Factory Inc. CAKE 3/31/2021 -0.05 0.20 +0.25 (-542.88%)
RenaissanceRe Holdings Ltd. RNR 3/31/2021 0.49 0.09 -0.40 (-81.59%)
Universal Insurance Holdings Inc. UVE 3/31/2021 0.69 0.84 +0.15 (21.44%)
Impinj Inc. PI 3/31/2021 -0.12 0.01 +0.13 (-108.14%)
Community Health Systems Inc. CYH 3/31/2021 -0.16 0.36 +0.52 (-322.40%)
CloudMD Software & Services Inc. DOCRF 12/31/2020 -0.01 -0.03 -0.02 (173.14%)
O-I Glass Inc. OI 3/31/2021 0.30 0.35 +0.05 (16.12%)
Pilgrim's Pride Corp. PPC 3/31/2021 0.35 0.42 +0.07 (20.49%)
Kraton Corp. KRA 3/31/2021 0.30 0.53 +0.23 (75.76%)
Paramount Group Inc. PGRE 3/31/2021 -0.05 -0.02 +0.03 (-58.76%)
PTC Inc. PTC 3/31/2021 0.72 1.08 +0.36 (49.03%)
Bankwell Financial Group Inc. BWFG 3/31/2021 0.59 0.71 +0.12 (20.34%)
Tyler Technologies Inc. TYL 3/31/2021 1.32 1.43 +0.11 (8.06%)
MYR Group Inc. MYRG 3/31/2021 0.62 1.17 +0.55 (89.94%)
Welltower Inc. WELL 3/31/2021 0.16 0.17 +0.01 (8.84%)
Bank of Butterfield Ltd. NTB 3/31/2021 0.77 0.83 +0.06 (7.56%)
Kaiser Aluminum Corp. KALU 3/31/2021 0.60 0.64 +0.04 (7.48%)
Meritage Homes Corp. MTH 3/31/2021 2.50 3.44 +0.94 (37.85%)
Unifi Inc. UFI 3/31/2021 0.17 0.25 +0.08 (44.93%)
Apple Inc. AAPL 3/31/2021 0.99 1.40 +0.41 (41.93%)
Wyndham Hotels & Resorts Inc. WH 3/31/2021 0.25 0.36 +0.11 (42.86%)
Ingersoll Rand Inc. IR 3/31/2021 0.36 0.45 +0.09 (26.09%)
Tronox Holdings PLC TROX 3/31/2021 0.30 0.43 +0.13 (44.89%)
O'Reilly Automotive Inc. ORLY 3/31/2021 5.46 7.06 +1.60 (29.31%)
Murphy USA Inc. MUSA 3/31/2021 1.47 2.00 +0.53 (35.87%)
Capstead Mortgage Corp. CMO 3/31/2021 0.16 0.13 -0.03 (-16.13%)
Tenaris S.A. ADR TS 3/31/2021 0.06 0.18 +0.12 (183.19%)
ChampionX Corp. CHX 3/31/2021 0.05 0.08 +0.03 (56.07%)
Coeur Mining Inc. CDE 3/31/2021 0.08 0.06 -0.02 (-21.74%)
Origin Bancorp Inc. OBNK 3/31/2021 0.91 1.08 +0.17 (19.21%)
Alimera Sciences Inc. ALIM 3/31/2021 -0.54 -0.63 -0.09 (16.67%)
VSE Corp. VSEC 3/31/2021 0.35 0.44 +0.09 (25.71%)
Horizon Bancorp Inc. HBNC 3/31/2021 0.41 0.44 +0.03 (6.28%)
Berkshire Hills Bancorp Inc. BHLB 3/31/2021 0.22 0.32 +0.10 (43.28%)
Yamana Gold Inc. AUY 3/31/2021 0.07 0.07 +0.00 (2.23%)
AMTD International Inc. ADR HKIB 12/31/2020 0.85 N/A N/A
Markel Corp. MKL 3/31/2021 10.50 10.35 -0.15 (-1.45%)
Select Bancorp Inc. SLCT 3/31/2021 0.25 0.36 +0.11 (44.00%)
Ashland Global Holdings Inc. ASH 3/31/2021 1.33 1.05 -0.28 (-20.89%)
Ford Motor Co. F 3/31/2021 0.30 0.89 +0.59 (195.03%)
Companhia Siderurgica Nacional ADR SID 3/31/2021 0.61 0.77 +0.16 (26.92%)
Methanex Corp. MEOH 3/31/2021 1.03 1.07 +0.04 (3.75%)
Amerant Bancorp Inc. Cl A AMTB 3/31/2021 0.25 0.39 +0.14 (58.89%)
Alamos Gold Inc. AGI 3/31/2021 0.13 0.13 +0.00 (2.76%)
Valvoline Inc. VVV 3/31/2021 0.37 0.46 +0.09 (24.74%)
Oceaneering International Inc. OII 3/31/2021 -0.06 0.03 +0.09 (-149.27%)
Raymond James Financial Inc. RJF 3/31/2021 2.11 2.52 +0.41 (19.31%)
Qualcomm Inc. QCOM 3/31/2021 1.69 1.90 +0.21 (12.73%)
North American Construction Group Ltd. NOA 3/31/2021 0.51 0.62 +0.11 (20.77%)
Investors Bancorp Inc. ISBC 3/31/2021 0.29 0.31 +0.02 (8.50%)
Kilroy Realty Corp. KRC 3/31/2021 0.42 4.26 +3.84 (918.77%)
Celestica Inc. CLS 3/31/2021 0.20 0.22 +0.02 (8.32%)
Oil States International Inc. OIS 3/31/2021 -0.27 -0.26 +0.01 (-4.26%)
Ovintiv Inc. OVV 3/31/2021 0.96 1.10 +0.14 (15.08%)
Cogent Communications Holdings Inc. CCOI 3/31/2021 0.18 0.41 +0.23 (128.95%)
Altabancorp ALTA 3/31/2021 0.50 0.50 0.00 (-0.50%)
Stoneridge Inc. SRI 3/31/2021 -0.03 0.06 +0.09 (-280.00%)
MSA Safety Inc. MSA 3/31/2021 0.95 0.95 +0.00 (0.21%)
Customers Bancorp Inc. CUBI 3/31/2021 1.71 1.01 -0.70 (-41.06%)
Banco Santander Mexico, S.A., Institucion de Banca Multiple, Grupo Financiero Santander Mexico ADR BSMX 3/31/2021 0.15 0.12 -0.03 (-20.40%)
Forterra Inc. FRTA 3/31/2021 -0.03 0.19 +0.22 (-710.02%)
BASF SE ADR BASFY 3/31/2021 0.59 0.61 +0.02 (2.63%)
Enviva Partners LP EVA 3/31/2021 0.23 -0.05 -0.28 (-120.69%)
Newcrest Mining Ltd. ADR NCMGY 3/31/2021 0.00 0.00 N/A
Euronet Worldwide Inc. EEFT 3/31/2021 0.43 0.23 -0.20 (-45.92%)
Northfield Bancorp Inc. NFBK 3/31/2021 0.27 0.38 +0.12 (43.40%)
SJW Group SJW 3/31/2021 0.14 0.09 -0.05 (-37.87%)
Company Name Symbol Fiscal Quarter EPS Forecast EPS Actual Surprise
AU Optronics Corp. ADR AUOTY 3/31/2021 0.44 0.44 0.00 (-0.12%)
Samsung Electronics Co. Ltd. GDR Pfd. 144A SSNGY 3/31/2021 23.82 23.55 -0.27 (-1.13%)
Turkiye Garanti Bankasi A.S. ADR TKGBY 3/31/2021 0.05 0.07 +0.03 (52.47%)
HTC Corp. GDR HTCKF 3/31/2021 -0.20 -0.18 +0.02 (-8.23%)
Ambuja Cements Ltd. GDR AMBUY 3/31/2021 0.04 0.04 +0.01 (25.49%)
Airbus SE ADR EADSY 3/31/2021 0.18 0.18 0.00 (-2.69%)
Logitech International S.A. LOGI 3/31/2021 0.84 1.45 +0.61 (71.74%)
Clariant AG ADR CLZNY 3/31/2021 0.00 0.00 N/A
Fuchs Petrolub SE Pfd. ADR FUPBY 3/31/2021 0.15 0.15 +0.01 (5.36%)
Equinor ASA ADR EQNR 3/31/2021 0.62 0.81 +0.19 (30.33%)
STMicroelectronics N.V. STM 3/31/2021 0.38 0.39 +0.01 (2.21%)
Nokia Corp. ADR NOK 3/31/2021 0.01 0.08 +0.08 (965.26%)
Andritz AG ADR ADRZY 3/31/2021 0.13 0.15 +0.02 (13.08%)
Verona Pharma PLC ADR VRNA 3/31/2021 -0.47 -0.05 +0.42 (-89.45%)
Royal Dutch Shell PLC ADR Cl A RDS.A 3/31/2021 0.78 0.84 +0.06 (8.14%)
LG Electronics Inc. New Sp GDR 144A Nv LGEJY 3/31/2021 2.68 2.50 -0.18 (-6.60%)
OMV AG ADR OMVKY 3/31/2021 1.32 1.57 +0.26 (19.56%)
Oersted A/S ADR DNNGY 3/31/2021 0.19 0.15 -0.04 (-18.99%)
Royal Dutch Shell PLC ADR B RDS.B 3/31/2021 0.78 0.84 +0.06 (8.14%)
Mail.ru Group Ltd. GDR MLRYY 3/31/2021 0.00 -0.15 -0.15 (-6712.54%)
NatWest Group PLC ADR NWG 3/31/2021 0.09 0.14 +0.06 (65.86%)
VEON Ltd. ADR VEON 3/31/2021 0.07 0.07 Met
TietoEVRY Oyj ADR TCYBY 3/31/2021 0.26 0.29 +0.03 (12.10%)
Orkla ASA ADR ORKLY 3/31/2021 0.12 0.15 +0.04 (30.37%)
Atresmedia Corp. de Medios de Comunicacion S.A. ADR ATVDY 3/31/2021 0.07 0.11 +0.05 (66.00%)
Unilever PLC ADR UL 3/31/2021 1.54 N/A N/A
Unilever PLC UNLYF 3/31/2021 1.54 N/A N/A
Deutsche Lufthansa AG ADR DLAKY 3/31/2021 -2.07 -2.12 -0.05 (2.23%)
Magnit GDR 144A MGJCL 3/31/2021 0.22 0.30 +0.08 (35.77%)
Subsea 7 S.A. ACGYF 3/31/2021 -0.03 -0.03 0.00 (18.09%)
Subsea 7 S.A. ADR SUBCY 3/31/2021 -0.03 -0.03 0.00 (18.09%)
Repsol S.A. ADR REPYY 3/31/2021 0.28 0.36 +0.08 (30.80%)
Janus Henderson Group PLC JHG 3/31/2021 0.82 0.91 +0.09 (10.98%)
ESSA Bancorp Inc. ESSA 3/31/2021 0.38 0.43 +0.05 (13.16%)
Bank of Communications Co. Ltd. ADR BCMXY 3/31/2021 0.94 1.16 +0.22 (22.78%)
Yanzhou Coal Mining Co. Ltd. ADR YZCAY 3/31/2021 0.77 0.72 -0.05 (-7.01%)
PetroChina Co. Ltd. ADR PTR 3/31/2021 1.23 2.33 +1.11 (90.09%)
Industrial & Commercial Bank of China Ltd. ADR IDCBY 3/31/2021 0.63 0.74 +0.11 (16.93%)
Bank of China Ltd. ADR BACHY 3/31/2021 0.68 0.70 +0.02 (2.32%)
China CITIC Bank ADR CHCJY 3/31/2021 0.72 0.90 +0.17 (23.63%)
KBR Inc. KBR 3/31/2021 0.48 0.48 0.00 (-0.05%)
Gazprom PJSC ADR OGZPY 12/31/2020 0.06 0.18 +0.12 (200.79%)
Total SE ADR TOT 3/31/2021 0.88 1.10 +0.22 (24.31%)
Atkore Inc. ATKR 3/31/2021 1.83 2.79 +0.96 (52.06%)
Colfax Corp. CFX 3/31/2021 0.40 0.44 +0.04 (10.67%)
ExlService Holdings Inc. EXLS 3/31/2021 1.00 1.18 +0.18 (18.49%)
Embraer S/A ADR ERJ 3/31/2021 -0.52 -0.52 Met
Novocure Ltd. NVCR 3/31/2021 0.02 -0.04 -0.06 (-366.67%)
Millicom International Cellular S.A. TIGO 3/31/2021 0.14 0.24 +0.10 (71.21%)
Ares Management Corp. ARES 3/31/2021 0.51 0.46 -0.05 (-10.41%)
Gentherm Inc. THRM 3/31/2021 0.67 1.04 +0.37 (55.22%)
Carlyle Group Inc. CG 3/31/2021 0.58 0.58 +0.00 (0.07%)
Patterson-UTI Energy Inc. PTEN 3/31/2021 -0.56 -0.57 -0.01 (2.19%)
LKQ Corp. LKQ 3/31/2021 0.63 0.94 +0.31 (49.29%)
Xcel Energy Inc. XEL 3/31/2021 0.61 0.67 +0.06 (10.48%)
Overstock.com Inc. OSTK 3/31/2021 0.04 0.56 +0.52 (1300.00%)
M.D.C. Holdings Inc. MDC 3/31/2021 1.44 1.51 +0.07 (4.77%)
West Pharmaceutical Services Inc. WST 3/31/2021 1.43 2.05 +0.62 (43.24%)
Willis Towers Watson PLC WLTW 3/31/2021 3.28 3.64 +0.36 (11.00%)
Thermo Fisher Scientific Inc. TMO 3/31/2021 6.67 7.21 +0.54 (8.16%)
Clarivate PLC CLVT 3/31/2021 0.12 0.15 +0.03 (25.06%)
Generac Holdings Inc. GNRC 3/31/2021 1.86 2.38 +0.52 (27.70%)
DISH Network Corp. Cl A DISH 3/31/2021 0.83 0.99 +0.16 (18.98%)
Amarin Corp. PLC ADR AMRN 3/31/2021 -0.05 0.00 +0.05 (-100.00%)
Syneos Health Inc. Cl A SYNH 3/31/2021 0.74 0.79 +0.05 (6.20%)
AllianceBernstein Holding L.P. AB 3/31/2021 0.75 0.81 +0.06 (7.40%)
Sberbank Rossia ADR SBRCY 3/31/2021 0.61 0.76 +0.15 (25.37%)
Materialise N.V. ADR MTLS 3/31/2021 -0.02 -0.07 -0.06 (366.67%)
Southern Co. SO 3/31/2021 0.83 0.98 +0.15 (17.69%)
Triton International Ltd. TRTN 3/31/2021 1.74 1.91 +0.17 (9.77%)
Carrier Global Corp. CARR 3/31/2021 0.37 0.48 +0.11 (29.14%)
IDACORP Inc. IDA 3/31/2021 0.81 0.89 +0.08 (10.33%)
CBIZ Inc. CBZ 3/31/2021 0.74 0.92 +0.18 (24.32%)
Textron Inc. TXT 3/31/2021 0.47 0.70 +0.23 (49.56%)
WEX Inc. WEX 3/31/2021 1.67 1.79 +0.12 (7.34%)
Merck & Co. Inc. MRK 3/31/2021 1.61 1.40 -0.21 (-13.02%)
PBF Energy Inc. PBF 3/31/2021 -2.63 -2.61 +0.02 (-0.92%)
Keurig Dr Pepper Inc. KDP 3/31/2021 0.32 0.33 +0.01 (4.20%)
PBF Logistics LP PBFX 3/31/2021 0.53 0.59 +0.06 (11.00%)
Teleflex Inc. TFX 3/31/2021 2.42 2.87 +0.45 (18.49%)
Wabtec WAB 3/31/2021 0.86 0.89 +0.03 (3.54%)
Caterpillar Inc. CAT 3/31/2021 1.94 2.87 +0.93 (47.84%)
Strategic Education Inc. STRA 3/31/2021 1.56 1.53 -0.03 (-1.92%)
1-800-FLOWERS.COM Inc. Cl A FLWS 3/31/2021 -0.09 0.02 +0.11 (-122.22%)
Applied Industrial Technologies Inc. AIT 3/31/2021 1.05 1.37 +0.32 (30.82%)
CoreSite Realty Corp. COR 3/31/2021 0.44 0.51 +0.07 (17.12%)
Tempur Sealy International Inc. TPX 3/31/2021 0.52 0.64 +0.12 (23.81%)
China Southern Airlines Co. Ltd. ADR ZNH 3/31/2021 -1.98 -2.01 -0.02 (1.21%)
CNX Resources Corp. CNX 3/31/2021 0.28 0.36 +0.07 (25.25%)
nVent Electric PLC NVT 3/31/2021 0.42 0.43 +0.01 (2.79%)
Canadian Utilities Ltd. Cl A CDUAF 3/31/2021 0.54 0.49 -0.05 (-8.94%)
Hershey Co. HSY 3/31/2021 1.80 1.92 +0.12 (6.70%)
Kimco Realty Corp. KIM 3/31/2021 0.10 0.14 +0.04 (40.71%)
Northrop Grumman Corp. NOC 3/31/2021 5.48 6.57 +1.09 (19.89%)
Computer Task Group Inc. CTG 3/31/2021 0.12 0.13 +0.02 (13.04%)
Taylor Morrison Home Corp. TMHC 3/31/2021 0.75 0.75 0.00 (-0.59%)
A.O. Smith Corp. AOS 3/31/2021 0.57 0.60 +0.03 (5.27%)
Sonic Automotive Inc. Cl A SAH 3/31/2021 0.92 1.23 +0.31 (34.18%)
Visteon Corp. VC 3/31/2021 0.24 0.56 +0.32 (133.60%)
CBRE Group Inc. Cl A CBRE 3/31/2021 0.67 0.86 +0.19 (27.72%)
Church & Dwight Co. CHD 3/31/2021 0.81 0.83 +0.02 (2.70%)
Laboratory Corp. of America Holdings LH 3/31/2021 7.46 8.79 +1.33 (17.91%)
Bristol Myers Squibb Co. BMY 3/31/2021 1.81 1.74 -0.07 (-3.61%)
Cowen Inc. Cl A COWN 3/31/2021 3.17 4.34 +1.17 (36.99%)
Ultralife Corp. ULBI 3/31/2021 0.05 0.05 Met
Stericycle Inc. SRCL 3/31/2021 0.59 0.71 +0.12 (20.73%)
Mr. Cooper Group Inc. COOP 3/31/2021 2.36 3.08 +0.72 (30.61%)
McDonald's Corp. MCD 3/31/2021 1.81 1.92 +0.11 (5.85%)
Agios Pharmaceuticals Inc. AGIO 3/31/2021 -1.29 26.95 +28.24 (-2184.92%)
BCE Inc. BCE 3/31/2021 0.58 0.63 +0.05 (9.32%)
American Tower REIT AMT 3/31/2021 1.26 1.45 +0.19 (15.19%)
Comcast Corp. Cl A CMCSA 3/31/2021 0.59 0.76 +0.17 (29.19%)
Cemex S.A.B. de C.V. ADR CX 3/31/2021 0.07 0.42 +0.35 (528.54%)
Altra Industrial Motion Corp. AIMC 3/31/2021 0.76 0.86 +0.10 (12.66%)
Allegiance Bancshares Inc. ABTX 3/31/2021 0.83 0.95 +0.12 (14.42%)
Kirby Corp. KEX 3/31/2021 0.12 -0.06 -0.18 (-151.26%)
Molson Coors Beverage Co. Cl B TAP 3/31/2021 -0.10 0.01 +0.11 (-110.33%)
Molson Coors Beverage Co. Cl A TAP.A 3/31/2021 -0.11 0.01 +0.12 (-109.28%)
Altria Group Inc. MO 3/31/2021 1.05 1.07 +0.02 (2.09%)
Tradeweb Markets Inc. TW 3/31/2021 0.43 0.43 +0.00 (0.98%)
Resolute Forest Products Inc. RFP 3/31/2021 1.66 1.45 -0.21 (-12.84%)
Meredith Corp. Cl B MDPEB 3/31/2021 0.24 0.53 +0.29 (122.69%)
OneWater Marine Inc. Cl A ONEW 3/31/2021 0.71 1.83 +1.12 (157.02%)
Lantronix Inc. LTRX 3/31/2021 0.03 0.05 +0.02 (87.50%)
Great Western Bancorp Inc. GWB 3/31/2021 0.61 0.93 +0.32 (53.40%)
Meredith Corp. MDP 3/31/2021 0.34 0.53 +0.19 (56.72%)
Genocea Biosciences Inc. GNCA 3/31/2021 -0.20 -0.17 +0.03 (-14.14%)
Evelo Biosciences Inc. EVLO 3/31/2021 -0.51 -0.49 +0.02 (-4.16%)
ConnectOne Bancorp Inc. CNOB 3/31/2021 0.67 0.82 +0.15 (23.12%)
Capital Product Partners L.P. CPLP 3/31/2021 0.43 0.57 +0.14 (33.81%)
Bloomin' Brands Inc. BLMN 3/31/2021 0.33 0.72 +0.39 (120.83%)
Blueprint Medicines Corp. BPMC 3/31/2021 -1.89 -1.72 +0.17 (-9.19%)
Kraft Heinz Co. KHC 3/31/2021 0.60 0.72 +0.12 (20.22%)
International Paper Co. IP 3/31/2021 0.61 0.76 +0.15 (25.38%)
Ardagh Group S.A. Cl A ARD 3/31/2021 0.37 0.37 0.00 (-0.67%)
PROG Holdings Inc. PRG 3/31/2021 0.91 1.22 +0.31 (33.58%)
Garrett Motion Inc. GTX 3/31/2021 0.70 1.27 +0.57 (81.15%)
LendingTree Inc. TREE 3/31/2021 -0.74 1.35 +2.09 (-281.82%)
Abiomed Inc. ABMD 3/31/2021 1.09 1.24 +0.15 (13.36%)
Materion Corp. MTRN 3/31/2021 0.60 0.82 +0.22 (36.67%)
Group 1 Automotive Inc. GPI 3/31/2021 4.43 5.57 +1.14 (25.86%)
Bridgewater Bancshares Inc. BWB 3/31/2021 0.33 0.37 +0.04 (12.12%)
Citrix Systems Inc. CTXS 3/31/2021 1.43 1.42 -0.01 (-0.82%)
Dril-Quip Inc. DRQ 3/31/2021 -0.05 -0.47 -0.42 (784.91%)
S&P Global Inc. SPGI 3/31/2021 3.07 3.39 +0.32 (10.42%)
Baxter International Inc. BAX 3/31/2021 0.65 0.76 +0.11 (17.72%)
T. Rowe Price Group Inc. TROW 3/31/2021 2.97 3.01 +0.04 (1.29%)
Hexagon AB ADR HXGBY 3/31/2021 0.62 0.68 +0.06 (10.25%)
Newmont Corp. NEM 3/31/2021 0.79 0.74 -0.05 (-6.48%)
FTI Consulting Inc. FCN 3/31/2021 1.34 1.89 +0.55 (41.40%)
Lawson Products Inc. LAWS 3/31/2021 0.53 0.39 -0.14 (-25.71%)
iStar Inc. STAR 3/31/2021 0.12 0.30 +0.19 (160.87%)
CTS Corp. CTS 3/31/2021 0.37 0.46 +0.09 (23.21%)
Allegheny Technologies Inc. ATI 3/31/2021 -0.24 -0.06 +0.18 (-75.26%)
AGCO Corp. AGCO 3/31/2021 1.13 2.00 +0.87 (76.60%)
Intercontinental Exchange Inc. ICE 3/31/2021 1.31 1.34 +0.03 (2.08%)
Parker Hannifin Corp. PH 3/31/2021 3.78 4.11 +0.33 (8.83%)
Hilton Grand Vacations Inc. HGV 3/31/2021 -0.06 -0.08 -0.02 (34.72%)
Domino's Pizza Inc. DPZ 3/31/2021 2.94 3.00 +0.06 (1.93%)
Alliance Data Systems Corp. ADS 3/31/2021 3.19 6.28 +3.09 (97.03%)
Realogy Holdings Corp. RLGY 3/31/2021 0.13 0.28 +0.15 (117.87%)
Lindblad Expeditions Holdings Inc. LIND 3/31/2021 -0.55 -0.66 -0.11 (20.00%)
MACOM Technology Solutions Holdings Inc. MTSI 3/31/2021 0.47 0.51 +0.04 (7.69%)
EMCOR Group Inc. EME 3/31/2021 1.23 1.54 +0.32 (25.71%)
Navios Maritime Partners L.P. NMM 3/31/2021 2.06 1.01 -1.05 (-50.91%)
GOL Linhas Aereas Inteligentes S.A. ADR GOL 3/31/2021 -1.16 -0.91 +0.25 (-21.28%)
Air China Ltd. ADR AIRYY 3/31/2021 -0.73 -1.39 -0.66 (89.78%)
Carter Bankshares Inc. CARE 3/31/2021 0.21 0.22 +0.01 (4.67%)
Valley National Bancorp VLY 3/31/2021 0.28 0.28 0.00 (-0.69%)
ORBCOMM Inc. ORBC 3/31/2021 -0.05 -0.13 -0.08 (151.61%)
Morphic Holding Inc. MORF 3/31/2021 -0.55 -0.63 -0.08 (14.96%)
NexPoint Real Estate Finance Inc. NREF 3/31/2021 0.51 0.53 +0.02 (3.92%)
Perficient Inc. PRFT 3/31/2021 0.67 0.75 +0.08 (11.23%)
Integer Holdings Corp. ITGR 3/31/2021 0.73 0.97 +0.24 (33.49%)
Cohu Inc. COHU 3/31/2021 0.79 0.89 +0.10 (12.42%)
China Eastern Airlines Corp. Ltd. ADR CEA 3/31/2021 -1.37 -1.78 -0.40 (29.33%)
Carpenter Technology Corp. CRS 3/31/2021 -0.57 -0.54 +0.03 (-5.26%)
CMS Energy Corp. CMS 3/31/2021 1.13 1.21 +0.08 (6.90%)
Alnylam Pharmaceuticals Inc. ALNY 3/31/2021 -1.75 -1.71 +0.04 (-2.23%)
Peabody Energy Corp. BTU 3/31/2021 -0.80 -0.79 +0.01 (-0.84%)
Royal Caribbean Group RCL 3/31/2021 -4.61 -4.44 +0.17 (-3.64%)
Medical Properties Trust Inc. MPW 3/31/2021 0.26 0.28 +0.02 (6.58%)
Consolidated Communications Holdings Inc. CNSL 3/31/2021 0.06 0.21 +0.15 (255.84%)
Magellan Midstream Partners L.P. MMP 3/31/2021 0.84 0.99 +0.15 (18.33%)
TriMas Corp. TRS 3/31/2021 0.37 0.40 +0.03 (8.11%)
Mastercard Inc. MA 3/31/2021 1.58 1.74 +0.16 (10.31%)
SolarWinds Corp. SWI 3/31/2021 0.20 0.23 +0.03 (16.67%)
Imax Corp. IMAX 3/31/2021 -0.26 -0.25 +0.01 (-3.01%)
Silicom Ltd. SILC 3/31/2021 0.36 0.42 +0.06 (16.67%)
Patrick Industries Inc. PATK 3/31/2021 1.32 2.04 +0.72 (54.31%)
PG&E Corp. PCG 3/31/2021 0.27 0.23 -0.04 (-13.21%)
First of Long Island Corp. FLIC 3/31/2021 0.44 0.47 +0.03 (6.82%)
Red River Bancshares Inc. RRBI 3/31/2021 0.92 1.10 +0.19 (20.22%)
West Bancorp Inc. WTBA 3/31/2021 0.63 0.70 +0.07 (11.11%)
PCSB Financial Corp. PCSB 3/31/2021 0.17 0.25 +0.08 (47.06%)
Freedom Bank of Virginia FDVA 3/31/2021 0.11 0.34 +0.23 (209.09%)
Fomento Economico Mexicano S.A.B. de C.V. ADR FMX 3/31/2021 12.76 12.80 +0.04 (0.29%)
Towne Bank TOWN 3/31/2021 0.60 0.98 +0.38 (63.28%)
Bank7 Corp. BSVN 3/31/2021 0.52 0.56 +0.04 (8.39%)
Peapack-Gladstone Financial Corp. PGC 3/31/2021 0.58 0.67 +0.09 (15.52%)
BrightSphere Investment Group Inc. BSIG 3/31/2021 0.38 0.34 -0.04 (-9.57%)
BGC Partners Inc. Cl A BGCP 3/31/2021 0.19 0.18 -0.01 (-2.70%)
OSI Systems Inc. OSIS 3/31/2021 1.34 1.38 +0.04 (3.37%)
Schneider National Inc. Cl B SNDR 3/31/2021 0.29 0.31 +0.02 (7.74%)
California Water Service Group CWT 3/31/2021 -0.02 -0.06 -0.04 (232.94%)
Namaste Technologies Inc. NXTTF 2/28/2021 -0.02 -0.02 0.00 (0.64%)
Columbia Banking System Inc. COLB 3/31/2021 0.62 0.73 +0.11 (18.38%)
Cullen/Frost Bankers Inc. CFR 3/31/2021 1.43 1.77 +0.34 (23.64%)
Capitol Federal Financial Inc. CFFN 3/31/2021 0.12 0.15 +0.04 (30.43%)
Grupo Aeroportuario del Pacifico S.A.B. de C.V. ADR PAC 3/31/2021 0.63 0.99 +0.36 (56.42%)
Brunswick Corp. BC 3/31/2021 1.46 2.24 +0.78 (53.24%)
Freddie Mac FMCC 3/31/2021 0.00 0.12 N/A
Apartment Income REIT Corp. AIRC 3/31/2021 -0.10 0.56 +0.66 (-660.00%)
First Business Financial Services Inc. FBIZ 3/31/2021 0.76 1.12 +0.36 (46.60%)
Amazon.com Inc. AMZN 3/31/2021 9.54 15.79 +6.25 (65.54%)
Cirrus Logic Inc. CRUS 3/31/2021 0.71 0.66 -0.05 (-7.04%)
Western Digital Corp. WDC 3/31/2021 0.68 1.02 +0.34 (49.06%)
Vertex Pharmaceuticals Inc. VRTX 3/31/2021 2.70 2.98 +0.28 (10.30%)
Macrogenics Inc. MGNX 3/31/2021 -0.64 -0.90 -0.26 (40.99%)
Skywest Inc. SKYW 3/31/2021 1.16 0.71 -0.45 (-38.97%)
Power Integrations Inc. POWI 3/31/2021 0.56 0.76 +0.20 (36.53%)
Riverview Bancorp Inc. RVSB 3/31/2021 0.12 0.15 +0.03 (25.00%)
Universal Logistics Holdings Inc. ULH 3/31/2021 0.70 0.80 +0.10 (13.96%)
Mammoth Energy Services Inc. TUSK 3/31/2021 -0.20 -0.27 -0.07 (37.83%)
Seagen Inc. SGEN 3/31/2021 -0.61 -0.67 -0.06 (9.50%)
BlackRock Capital Investment Corp. BKCC 3/31/2021 0.06 0.06 Met
Aqua Metals Inc. AQMS 3/31/2021 -0.06 -0.06 Met
Goosehead Insurance Inc. Cl A GSHD 3/31/2021 0.06 0.03 -0.03 (-50.31%)
Qumu Corp. QUMU 3/31/2021 -0.26 -0.29 -0.03 (12.99%)
Zynex Inc. ZYXI 3/31/2021 -0.03 0.02 +0.05 (-176.92%)
Allscripts Healthcare Solutions Inc. MDRX 3/31/2021 0.15 0.19 +0.04 (25.66%)
Credit Acceptance Corp. CACC 3/31/2021 7.93 11.82 +3.90 (49.15%)
Ethan Allen Interiors Inc. ETH 3/31/2021 0.58 0.58 +0.01 (0.87%)
Wrap Technologies Inc. WRAP 3/31/2021 -0.10 -0.14 -0.04 (35.48%)
MicroStrategy Inc. MSTR 3/31/2021 -0.84 -11.40 -10.56 (1262.16%)
Omnicell Inc. OMCL 3/31/2021 0.66 0.83 +0.17 (26.40%)
Texas Roadhouse Inc. TXRH 3/31/2021 0.59 0.91 +0.32 (54.00%)
Skyworks Solutions Inc. SWKS 3/31/2021 2.35 2.37 +0.02 (0.85%)
Gilead Sciences Inc. GILD 3/31/2021 2.08 2.08 +0.00 (0.09%)
Castlight Health Inc. Cl B CSLT 3/31/2021 -0.01 0.01 +0.02 (-233.33%)
CAI International Inc. CAI 3/31/2021 1.66 1.85 +0.19 (11.45%)
Fortinet Inc. FTNT 3/31/2021 0.74 0.81 +0.07 (9.80%)
Digital Realty Trust Inc. DLR 3/31/2021 0.29 1.32 +1.03 (348.30%)
Trupanion Inc. TRUP 3/31/2021 -0.08 -0.31 -0.23 (297.44%)
Twitter Inc. TWTR 3/31/2021 0.14 0.16 +0.02 (12.60%)
BioMarin Pharmaceutical Inc. BMRN 3/31/2021 -0.09 0.09 +0.18 (-200.86%)
Atlassian Corp. PLC Cl A TEAM 3/31/2021 0.29 0.48 +0.19 (62.79%)
ChemoCentryx Inc. CCXI 3/31/2021 -0.41 -0.43 -0.03 (6.17%)
Merit Medical Systems Inc. MMSI 3/31/2021 0.36 0.52 +0.16 (45.45%)
USA Truck Inc. USAK 3/31/2021 0.23 0.43 +0.20 (86.96%)
Byline Bancorp Inc. BY 3/31/2021 0.36 0.57 +0.21 (57.07%)
Marlin Business Services Corp. MRLN 3/31/2021 -0.05 0.57 +0.62 (-1240.00%)
Alexander & Baldwin Inc. ALEX 3/31/2021 0.02 0.14 +0.13 (833.33%)
The Bancorp Inc. TBBK 3/31/2021 0.42 0.44 +0.02 (4.76%)
ResMed Inc. RMD 3/31/2021 1.28 1.30 +0.02 (1.69%)
CTO Realty Growth Inc. CTO 3/31/2021 1.61 1.32 -0.29 (-18.18%)
Exponent Inc. EXPO 3/31/2021 0.42 0.58 +0.16 (38.10%)
Data I/O Corp. DAIO 3/31/2021 -0.01 -0.04 -0.03 (300.00%)
MicroVision Inc. MVIS 3/31/2021 -0.03 -0.04 -0.02 (60.00%)
Evertec Inc. EVTC 3/31/2021 0.54 0.62 +0.08 (14.81%)
Hanover Insurance Group Inc. THG 3/31/2021 0.92 1.66 +0.74 (79.52%)
Office Properties Income Trust OPI 3/31/2021 -0.06 -0.07 -0.01 (16.67%)
Vocera Communications Inc. VCRA 3/31/2021 -0.06 0.09 +0.15 (-250.00%)
Del Taco Restaurants Inc. TACO 3/31/2021 0.06 0.07 +0.02 (27.27%)
Noodles & Co. Cl A NDLS 3/31/2021 -0.01 -0.02 -0.01 (66.67%)
KLA Corp. KLAC 3/31/2021 3.61 3.85 +0.24 (6.52%)
DaVita Inc. DVA 3/31/2021 1.79 2.09 +0.30 (17.00%)
Casella Waste Systems Inc. Cl A CWST 3/31/2021 0.04 0.09 +0.05 (102.11%)
Ekso Bionics Holdings Inc. EKSO 3/31/2021 -0.24 -0.34 -0.10 (41.67%)
First Solar Inc. FSLR 3/31/2021 1.14 1.96 +0.82 (71.82%)
Kinsale Capital Group Inc. KNSL 3/31/2021 0.81 1.11 +0.30 (36.25%)
SPS Commerce Inc. SPSC 3/31/2021 0.37 0.43 +0.06 (15.18%)
Lifevantage Corp. LFVN 3/31/2021 0.20 0.15 -0.05 (-25.33%)
Emergent Biosolutions Inc. EBS 3/31/2021 1.15 1.53 +0.38 (33.20%)
Pacific Biosciences of California Inc. PACB 3/31/2021 -0.46 -0.45 +0.01 (-1.91%)
National Instruments Corp. NATI 3/31/2021 0.09 0.03 -0.06 (-65.12%)
Corvus Pharmaceuticals Inc. CRVS 3/31/2021 -0.31 -0.34 -0.03 (9.68%)
Casa Systems Inc. CASA 3/31/2021 0.01 0.11 +0.10 (669.98%)
CryoLife Inc. CRY 3/31/2021 -0.09 -0.08 +0.01 (-14.29%)
LeMaitre Vascular Inc. LMAT 3/31/2021 0.27 0.28 +0.01 (3.07%)
LPL Financial Holdings Inc. LPLA 3/31/2021 1.46 1.77 +0.31 (20.90%)
Onto Innovation Inc. ONTO 3/31/2021 0.69 0.73 +0.04 (5.49%)
Hercules Capital Inc. HTGC 3/31/2021 0.30 0.30 0.00 (-0.60%)
eHealth Inc. EHTH 3/31/2021 0.03 0.36 +0.33 (1120.75%)
Fortune Brands Home & Security Inc. FBHS 3/31/2021 1.05 1.36 +0.31 (29.50%)
Mitek Systems Inc. MITK 3/31/2021 0.14 0.16 +0.02 (14.29%)
Five9 Inc. FIVN 3/31/2021 0.13 0.23 +0.10 (75.50%)
Acadia Healthcare Co. Inc. ACHC 3/31/2021 0.44 0.47 +0.03 (5.63%)
Columbia Sportswear Co. COLM 3/31/2021 0.46 0.84 +0.38 (81.91%)
Idera Pharmaceuticals Inc. IDRA 3/31/2021 -0.22 -0.14 +0.08 (-34.88%)
Ensign Group Inc. ENSG 3/31/2021 0.84 0.87 +0.04 (4.19%)
Mohawk Industries Inc. MHK 3/31/2021 2.83 3.49 +0.66 (23.47%)
NeoPhotonics Corp. NPTN 3/31/2021 -0.17 -0.15 +0.02 (-13.16%)
Griffon Corp. GFF 3/31/2021 0.30 0.48 +0.18 (58.24%)
Rogers Corp. ROG 3/31/2021 1.79 1.92 +0.13 (7.06%)
Terex Corp. TEX 3/31/2021 0.24 0.56 +0.32 (130.13%)
Pebblebrook Hotel Trust PEB 3/31/2021 -0.92 -0.98 -0.06 (6.52%)
Kemper Corp. KMPR 3/31/2021 1.31 1.31 +0.00 (0.17%)
TFS Financial Corp. TFSL 3/31/2021 0.07 0.08 +0.01 (14.29%)
Haynes International Inc. HAYN 3/31/2021 -0.58 -0.29 +0.29 (-49.71%)
Shore Bancshares Inc. SHBI 3/31/2021 0.33 0.34 +0.01 (3.03%)
Ocwen Financial Corp. OCN 3/31/2021 0.24 N/A N/A
Aspen Aerogels Inc. ASPN 3/31/2021 -0.20 -0.22 -0.02 (8.64%)
Erie Indemnity Co. Cl A ERIE 3/31/2021 1.45 1.41 -0.04 (-3.07%)
NetSTREIT Corp. NTST 3/31/2021 0.05 0.02 -0.03 (-57.14%)
Fortress Transportation & Infrastructure Investors LLC FTAI 3/31/2021 -0.40 -0.40 0.00 (1.14%)
Gaming & Leisure Properties Inc. GLPI 3/31/2021 0.55 0.54 -0.01 (-2.19%)
Helmerich & Payne Inc. HP 3/31/2021 -0.65 -0.60 +0.05 (-7.62%)
LTC Properties Inc. LTC 3/31/2021 0.44 0.35 -0.09 (-20.90%)
OceanFirst Financial Corp. OCFC 3/31/2021 0.40 0.44 +0.04 (8.98%)
Kite Realty Group Trust KRG 3/31/2021 -0.05 0.29 +0.34 (-680.00%)
Covanta Holding Corp. CVA 3/31/2021 -0.14 0.01 +0.15 (-107.10%)
SM Energy Co. SM 3/31/2021 -0.23 -0.05 +0.18 (-78.16%)
Pharvaris N.V. PHVS 12/31/2020 -1.42 -1.05 +0.37 (-26.23%)
Enova International Inc. ENVA 3/31/2021 1.29 2.20 +0.92 (71.21%)
Mackinac Financial Corp. MFNC 3/31/2021 0.32 0.37 +0.05 (15.63%)
JMP Group LLC JMP 3/31/2021 0.02 0.18 +0.16 (800.00%)
Camden Property Trust CPT 3/31/2021 0.30 0.31 +0.01 (2.35%)
Compass Diversified Holdings CODI 3/31/2021 0.38 0.29 -0.09 (-22.64%)
Kearny Financial Corp. KRNY 3/31/2021 0.18 0.20 +0.02 (11.11%)
Matthews International Corp. Cl A MATW 3/31/2021 0.75 0.89 +0.15 (19.46%)
Eastern Bankshares Inc. EBC 3/31/2021 0.20 0.27 +0.07 (33.66%)
Zendesk Inc. ZEN 3/31/2021 0.12 0.17 +0.05 (37.38%)
Arcosa Inc. ACA 3/31/2021 0.21 0.35 +0.14 (66.67%)
Arthur J. Gallagher & Co. AJG 3/31/2021 1.84 2.02 +0.18 (9.86%)
Federated Hermes Inc. FHI 3/31/2021 0.78 0.75 -0.03 (-3.66%)
Bio-Rad Laboratories Inc. Cl B BIO.B 3/31/2021 2.96 5.21 +2.25 (76.01%)
Bio-Rad Laboratories Inc. Cl A BIO 3/31/2021 2.99 5.21 +2.22 (73.98%)
Beazer Homes USA Inc. BZH 3/31/2021 0.61 0.81 +0.20 (32.79%)
Evans Bancorp Inc. EVBN 3/31/2021 0.95 0.89 -0.06 (-6.32%)
Axos Financial Inc. AX 3/31/2021 0.86 0.89 +0.03 (3.15%)
VICI Properties Inc. VICI 3/31/2021 0.50 0.50 +0.00 (0.84%)
Fortive Corp. FTV 3/31/2021 0.60 0.63 +0.03 (5.64%)
Southwestern Energy Co. SWN 3/31/2021 0.24 0.29 +0.05 (20.30%)
Forward Air Corp. FWRD 3/31/2021 0.57 0.60 +0.03 (4.65%)
World Fuel Services Corp. INT 3/31/2021 0.28 0.33 +0.06 (20.00%)
Vince Holding Corp. VNCE 1/31/2021 -0.35 -0.48 -0.13 (37.14%)
Corporate Office Properties Trust OFC 3/31/2021 0.22 -0.06 -0.28 (-126.89%)
United States Steel Corp. X 3/31/2021 0.88 1.08 +0.20 (22.96%)
Cabot Oil & Gas Corp. COG 3/31/2021 0.36 0.38 +0.02 (6.66%)
Sandstorm Gold Ltd. SAND 3/31/2021 0.05 0.04 -0.01 (-27.47%)
Territorial Bancorp Inc. TBNK 3/31/2021 0.44 0.55 +0.11 (25.95%)
Baytex Energy Corp. BTEGF 3/31/2021 0.02 -0.05 -0.07 (-375.04%)
Mercer International Inc. MERC 3/31/2021 0.32 0.09 -0.23 (-71.80%)
Shenandoah Telecommunications Co. SHEN 3/31/2021 0.85 0.06 -0.79 (-92.91%)
AMERISAFE Inc. AMSF 3/31/2021 0.73 0.76 +0.03 (3.87%)
CubeSmart CUBE 3/31/2021 0.25 0.21 -0.04 (-17.35%)
US Ecology Inc. ECOL 3/31/2021 -0.10 -0.07 +0.03 (-30.01%)
HNI Corp. HNI 3/31/2021 0.09 0.36 +0.27 (285.72%)
WillScot Mobile Mini Holdings Corp. WSC 3/31/2021 0.15 0.14 -0.01 (-4.42%)
Limelight Networks Inc. LLNW 3/31/2021 -0.02 -0.09 -0.07 (268.19%)
Genworth Financial Inc. Cl A GNW 3/31/2021 0.18 0.33 +0.15 (80.00%)
Eastman Chemical Co. EMN 3/31/2021 2.04 2.13 +0.09 (4.46%)
Companhia de Transmissao de Energia Eletrica Paulista ADR CTPTY 3/31/2021 0.09 0.09 Met
Companhia de Transmissao de Energia Eletrica Paulista ADR CTPZY 3/31/2021 0.09 0.09 Met
Agnico Eagle Mines Ltd. AEM 3/31/2021 0.59 0.67 +0.08 (12.74%)
Fairfax Financial Holdings Ltd. FRFHF 3/31/2021 29.08 28.91 -0.17 (-0.59%)
Fairfax India Holdings Corp. FFXDF 3/31/2021 0.36 1.66 +1.30 (361.11%)
Aptargroup Inc. ATR 3/31/2021 0.90 1.09 +0.19 (20.98%)
Eldorado Gold Corp. EGO 3/31/2021 0.18 0.12 -0.06 (-33.14%)
Industrias Bachoco S.A.B. de C.V. ADR IBA 3/31/2021 1.60 2.08 +0.48 (30.24%)
Cousins Properties Inc. CUZ 3/31/2021 0.19 0.20 +0.01 (7.07%)
Columbia Property Trust Inc. CXP 3/31/2021 0.00 0.00 N/A
Nexa Resources S.A. NEXA 3/31/2021 0.40 0.17 -0.23 (-57.02%)
Royal KPN N.V. ADR KKPNY 3/31/2021 0.04 0.04 Met
Greenhill & Co. Inc. GHL 3/31/2021 0.38 0.09 -0.29 (-76.47%)
NIO Inc. ADR NIO 3/31/2021 -0.68 -3.14 -2.46 (363.47%)
Archrock Inc. AROC 3/31/2021 0.08 0.03 -0.05 (-62.04%)
Company Name Symbol Fiscal Quarter EPS Forecast EPS Actual Surprise
BNP Paribas S.A. ADR BNPQY 3/31/2021 0.66 0.67 +0.01 (1.82%)
Advanced Info Service PCL ADR AVIFY 3/31/2021 0.07 0.07 Met
Siemens Gamesa Renewable Energy S.A. ADR GCTAY 3/31/2021 0.01 -0.01 -0.02 (-148.69%)
Banco Bilbao Vizcaya Argentaria S.A. ADR BBVA 3/31/2021 0.18 0.20 +0.02 (9.97%)
Banco de Sabadell S.A. ADR BNDSY 3/31/2021 0.02 0.02 0.00 (-0.02%)
BNP Paribas S.A. ADR 144A BNPZY 3/31/2021 1.32 1.35 +0.02 (1.82%)
Advantage Oil & Gas Ltd. AAVVF 3/31/2021 0.06 0.00 -0.06 (-100.00%)
Compania de Minas Buenaventura S.A. ADR BVN 3/31/2021 0.13 0.06 -0.07 (-52.00%)
Adtalem Global Education Inc. ATGE 3/31/2021 0.69 0.72 +0.03 (4.35%)
DBS Group Holdings Ltd. ADR DBSDY 3/31/2021 1.68 9.44 +7.76 (461.17%)
Hoya Corp. ADR HOCPY 3/31/2021 0.82 0.76 -0.05 (-6.65%)
Hoya Corp. HOCPF 3/31/2021 0.82 0.76 -0.05 (-6.65%)
Proximus Group ADR BGAOY 3/31/2021 0.08 0.09 +0.01 (13.64%)
Mitsui & Co. Ltd. ADR MITSY 3/31/2021 12.27 12.27 Met
Daibiru Corp. ADR DIBUY 3/31/2021 0.24 0.38 +0.15 (61.44%)
Erste Group Bank AG ADR EBKDY 3/31/2021 0.43 0.50 +0.07 (15.18%)
Swiss Re Ltd. ADR SSREY 3/31/2021 -0.01 N/A N/A
Barclays PLC ADR BCS 3/31/2021 0.41 0.55 +0.14 (33.99%)
ANA Holdings Inc. ADR ALNPY 3/31/2021 -0.65 -0.37 +0.27 (-42.54%)
Alps Alpine Co. Ltd. ADR APELY 3/31/2021 -0.03 -0.16 -0.13 (458.78%)
Komatsu Ltd. ADR KMTUY 3/31/2021 0.34 0.39 +0.05 (15.85%)
Japan Tobacco Inc. ADR JAPAY 3/31/2021 0.21 0.29 +0.08 (38.97%)
West Japan Railway Co. ADR WJRYY 3/31/2021 -3.40 -3.42 -0.02 (0.52%)
AstraZeneca PLC ADR AZN 3/31/2021 0.71 0.82 +0.11 (15.43%)
Swisscom AG ADR SCMWY 3/31/2021 0.93 1.35 +0.42 (45.23%)
Tokyo Electron Ltd. ADR TOELY 3/31/2021 1.18 1.25 +0.08 (6.38%)
BE Semiconductor Industries N.V. ADR BESIY 3/31/2021 0.68 0.57 -0.11 (-16.67%)
Primis Financial Corp. FRST 3/31/2021 0.29 0.39 +0.10 (33.24%)
Portland General Electric Co. POR 3/31/2021 0.97 1.07 +0.10 (10.15%)
Dime Community Bancshares Inc. DCOM 3/31/2021 0.56 0.94 +0.38 (67.11%)
JELD-WEN Holding Inc. JELD 3/31/2021 0.20 0.27 +0.07 (32.45%)
Aon PLC AON 3/31/2021 4.05 4.28 +0.23 (5.74%)
Huntsman Corp. HUN 3/31/2021 0.59 0.66 +0.07 (12.34%)
Carter's Inc. CRI 3/31/2021 0.28 1.98 +1.70 (595.32%)
Emerald Holding Inc. EEX 3/31/2021 0.25 -0.28 -0.53 (-211.71%)
PNM Resources Inc. PNM 3/31/2021 0.19 0.32 +0.13 (67.25%)
Clorox Co. CLX 3/31/2021 1.48 1.62 +0.14 (9.60%)
Restaurant Brands International Inc. QSR 3/31/2021 0.50 0.55 +0.05 (10.06%)
LyondellBasell Industries N.V. Cl A LYB 3/31/2021 2.59 3.18 +0.59 (22.72%)
Chevron Corp. CVX 3/31/2021 0.89 0.90 +0.01 (1.43%)
Barnes Group Inc. B 3/31/2021 0.31 0.38 +0.07 (20.72%)
Magellan Health Inc. MGLN 3/31/2021 0.28 1.07 +0.80 (289.09%)
Civeo Corp. CVEO 3/31/2021 -0.56 -0.70 -0.14 (25.00%)
AdvanSix Inc. ASIX 3/31/2021 0.72 0.98 +0.27 (37.06%)
L3Harris Technologies Inc. LHX 3/31/2021 2.96 3.18 +0.22 (7.60%)
Community Bankers Trust Corp. ESXB 3/31/2021 0.18 0.30 +0.12 (66.67%)
Avient Corp. AVNT 3/31/2021 0.72 0.89 +0.17 (23.51%)
Vista Gold Corp. VGZ 3/31/2021 -0.02 -0.03 -0.01 (50.00%)
Lazard Ltd. LAZ 3/31/2021 0.89 0.87 -0.02 (-1.91%)
Johnson Controls International PLC JCI 3/31/2021 0.49 0.52 +0.03 (6.46%)
Colgate-Palmolive Co. CL 3/31/2021 0.79 0.80 +0.01 (1.16%)
Hill-Rom Holdings Inc. HRC 3/31/2021 1.43 1.73 +0.30 (20.91%)
CSI Compressco L.P. CCLP 3/31/2021 -0.30 -0.30 Met
iRadimed Corp. IRMD 3/31/2021 0.10 0.13 +0.03 (30.00%)
Phillips 66 PSX 3/31/2021 -1.40 -1.16 +0.24 (-17.24%)
BeyondSpring Inc. BYSI 12/31/2020 -0.45 -0.55 -0.10 (22.91%)
Charter Communications Inc. Cl A CHTR 3/31/2021 4.25 4.11 -0.14 (-3.30%)
WisdomTree Investments Inc. WETF 3/31/2021 0.07 0.08 +0.01 (13.91%)
Newell Brands Inc. NWL 3/31/2021 0.13 0.30 +0.17 (123.28%)
Balchem Corp. BCPC 3/31/2021 0.79 0.87 +0.08 (10.13%)
Orthofix Medical Inc. OFIX 3/31/2021 0.02 0.17 +0.15 (710.33%)
Pitney Bowes Inc. PBI 3/31/2021 0.04 0.07 +0.03 (59.09%)
Fannie Mae FNMA 3/31/2021 0.00 0.00 N/A
Weyerhaeuser Co. WY 3/31/2021 0.93 0.91 -0.02 (-2.56%)
Exxon Mobil Corp. XOM 3/31/2021 0.60 0.65 +0.05 (8.53%)
Cboe Global Markets Inc. CBOE 3/31/2021 1.41 1.53 +0.12 (8.37%)
AbbVie Inc. ABBV 3/31/2021 2.81 2.95 +0.14 (5.10%)
W. P. Carey Inc. WPC 3/31/2021 0.54 0.29 -0.25 (-46.30%)
U.S. Silica Holdings Inc. SLCA 3/31/2021 -0.28 -0.27 +0.01 (-3.57%)
Moog Inc. Cl A MOG.A 3/31/2021 1.09 1.51 +0.43 (39.17%)
Twin Disc Inc. TWIN 3/31/2021 -0.13 0.01 +0.14 (-108.00%)
Moog Inc. Cl B MOG.B 3/31/2021 1.09 1.51 +0.43 (39.17%)
AnPac Bio-Medical Science Co. Ltd. ADR ANPC 12/31/2020 -0.11 -0.11 Met
Imperial Oil Ltd. IMO 3/31/2021 0.39 0.43 +0.04 (9.39%)
Alexion Pharmaceuticals Inc. ALXN 3/31/2021 3.16 3.52 +0.36 (11.45%)
Phillips 66 Partners LP PSXP 3/31/2021 0.79 -0.13 -0.92 (-116.42%)
Piper Sandler Cos. PIPR 3/31/2021 3.12 4.13 +1.01 (32.23%)
O2Micro International Ltd. ADR OIIM 3/31/2021 0.11 0.09 -0.01 (-10.25%)
Shell Midstream Partners L.P. SHLX 3/31/2021 0.34 0.37 +0.03 (9.11%)
Quhuo Ltd. ADR QH 12/31/2020 0.57 0.24 -0.33 (-57.89%)
Illinois Tool Works Inc. ITW 3/31/2021 1.90 2.11 +0.21 (11.18%)
Goodyear Tire & Rubber Co. GT 3/31/2021 0.12 0.43 +0.31 (259.48%)
W.W. Grainger Inc. GWW 3/31/2021 4.32 4.48 +0.16 (3.72%)
California Bancorp CALB 3/31/2021 0.27 0.34 +0.07 (25.93%)
Provident Financial Services Inc. PFS 3/31/2021 0.43 0.63 +0.20 (47.89%)
Level One Bancorp Inc. LEVL 3/31/2021 0.87 1.10 +0.23 (26.44%)
SuperCom Ltd. SPCB 12/31/2020 -0.05 -0.16 -0.11 (220.00%)
Banco Santander-Chile ADR BSAC 3/31/2021 0.47 0.54 +0.07 (14.17%)
MGM Growth Properties LLC MGP 3/31/2021 0.32 0.44 +0.12 (39.19%)
Tompkins Financial Corp. TMP 3/31/2021 1.36 1.72 +0.37 (26.94%)
Itau CorpBanca ADR ITCB 3/31/2021 0.06 0.39 +0.33 (524.40%)
Turkcell Iletisim Hizmetleri A.S. ADR TKC 3/31/2021 0.21 0.15 -0.05 (-26.15%)
ENI S.p.A. ADR E 3/31/2021 0.35 0.19 -0.15 (-44.37%)
DexCom Inc. DXCM 3/31/2021 0.31 0.33 +0.02 (7.22%)
SB Financial Group Inc. SBFG 3/31/2021 0.59 0.68 +0.09 (15.25%)
ECMOHO Ltd. ADR MOHO 12/31/2020 0.10 N/A N/A
PDL Community Bancorp PDLB 3/31/2021 0.15 0.15 Met
Company Name Symbol Fiscal Quarter EPS Forecast EPS Actual Surprise
Berkshire Hathaway Inc. Cl B BRK.B 3/31/2021 2.53 3.05 +0.52 (20.56%)
Berkshire Hathaway Inc. Cl A BRK.A 3/31/2021 3792.36 4571.96 +779.60 (20.56%)
Company Name Symbol Fiscal Quarter EPS Forecast EPS Actual Surprise
DBV Technologies S.A. ADR DBVT 3/31/2021 -0.51 -0.45 +0.07 (-12.82%)
Enterprise Products Partners L.P. EPD 3/31/2021 0.48 0.64 +0.16 (32.57%)
Loews Corp. L 3/31/2021 0.95 1.18 +0.23 (24.19%)
CNA Financial Corp. CNA 3/31/2021 0.88 0.96 +0.08 (8.54%)
Enable Midstream Partners LP ENBL 3/31/2021 0.16 0.33 +0.17 (100.82%)
Estee Lauder Cos. Cl A EL 3/31/2021 1.32 1.59 +0.27 (20.23%)
Cooper Tire & Rubber Co. CTB 3/31/2021 0.57 0.43 -0.14 (-24.56%)
Affiliated Managers Group Inc. AMG 3/31/2021 4.24 4.28 +0.04 (0.98%)
DSP Group Inc. DSPG 3/31/2021 0.05 0.05 +0.00 (8.70%)
Akoustis Technologies Inc. AKTS 3/31/2021 -0.27 -0.22 +0.05 (-18.52%)
WEC Energy Group Inc. WEC 3/31/2021 1.47 1.61 +0.14 (9.33%)
Cabaletta Bio Inc. CABA 3/31/2021 -0.49 -0.41 +0.08 (-15.90%)
Karyopharm Therapeutics Inc. KPTI 3/31/2021 -0.71 -0.77 -0.06 (8.62%)
Ceragon Networks Ltd. CRNT 3/31/2021 -0.04 -0.01 +0.03 (-71.43%)
loanDepot Inc. LDI 3/31/2021 0.98 0.98 +0.00 (0.37%)
GlycoMimetics Inc. GLYC 3/31/2021 -0.31 -0.28 +0.03 (-9.68%)
Green Plains Inc. GPRE 3/31/2021 -0.42 -0.17 +0.25 (-59.92%)
Bel Fuse Inc. Cl B BELFB 3/31/2021 0.06 -0.23 -0.29 (-483.33%)
Bel Fuse Inc. Cl A BELFA 3/31/2021 0.06 -0.23 -0.29 (-483.33%)
Green Plains Partners LP GPP 3/31/2021 0.47 0.45 -0.02 (-4.26%)
Vaxart Inc. VXRT 3/31/2021 -0.10 -0.14 -0.04 (40.00%)
Rhythm Pharmaceuticals Inc. RYTM 3/31/2021 0.30 0.90 +0.60 (201.26%)
PetMed Express Inc. PETS 3/31/2021 0.41 0.34 -0.07 (-16.73%)
ON Semiconductor Corp. ON 3/31/2021 0.34 0.35 +0.01 (4.43%)
Sterling Bancorp Inc. SBT 3/31/2021 0.02 0.05 +0.03 (199.99%)
Loop Industries Inc. LOOP 2/28/2021 -0.15 -0.15 Met
Denali Therapeutics Inc. DNLI 3/31/2021 -0.34 -0.58 -0.24 (70.79%)
Itron Inc. ITRI 3/31/2021 0.42 0.52 +0.10 (24.62%)
Alexander's Inc. ALX 3/31/2021 3.07 3.49 +0.42 (13.68%)
MVB Financial Corp. MVBF 3/31/2021 0.73 0.66 -0.07 (-9.59%)
Gray Television Inc. Cl A GTN.A 3/31/2021 0.18 0.27 +0.09 (50.00%)
Gray Television Inc. GTN 3/31/2021 0.18 0.27 +0.09 (50.00%)
FBL Financial Group Inc. FFG 3/31/2021 0.80 0.96 +0.17 (20.75%)
1st Constitution Bancorp FCCY 3/31/2021 0.53 0.48 -0.05 (-9.43%)
DZS Inc. DZSI 3/31/2021 -0.22 0.10 +0.32 (-146.51%)
Enel Americas S.A. ADR ENIA 3/31/2021 0.10 0.12 +0.02 (19.28%)
trivago N.V. ADR TRVG 3/31/2021 -0.01 -0.01 +0.00 (-23.38%)
Shoals Technologies Group Inc. SHLS 3/31/2021 0.04 0.05 +0.01 (34.50%)
iRobot Corp. IRBT 3/31/2021 0.08 0.41 +0.33 (397.56%)
Semler Scientific Inc. SMLR 3/31/2021 0.50 0.60 +0.10 (19.41%)
Sanmina Corp. SANM 3/31/2021 0.83 1.01 +0.18 (20.97%)
SI-BONE Inc. SIBN 3/31/2021 -0.37 -0.37 Met
Rambus Inc. RMBS 3/31/2021 0.28 0.09 -0.19 (-67.16%)
Renewable Energy Group Inc. REGI 3/31/2021 0.18 0.88 +0.70 (394.32%)
Gaia Inc. Cl A GAIA 3/31/2021 0.01 0.02 +0.01 (166.67%)
Tactile Systems Technology Inc. TCMD 3/31/2021 -0.15 -0.12 +0.03 (-22.08%)
Agree Realty Corp. ADC 3/31/2021 0.45 0.48 +0.03 (6.67%)
Harmonic Inc. HLIT 3/31/2021 0.03 0.04 +0.01 (27.27%)
Qiagen N.V. QGEN 3/31/2021 0.63 0.66 +0.03 (4.91%)
Chegg Inc. CHGG 3/31/2021 0.28 0.28 0.00 (-0.24%)
Sterling Construction Co. Inc. STRL 3/31/2021 0.22 0.22 Met
EverQuote Inc. Cl A EVER 3/31/2021 -0.13 -0.13 Met
Bonanza Creek Energy Inc. BCEI 3/31/2021 0.75 0.88 +0.13 (17.59%)
Woodward Inc. WWD 3/31/2021 0.80 1.04 +0.24 (29.84%)
Maxar Technologies Inc. MAXR 3/31/2021 -0.10 -1.30 -1.20 (1219.94%)
Intevac Inc. IVAC 3/31/2021 -0.26 -0.27 -0.01 (3.85%)
Addus HomeCare Corp. ADUS 3/31/2021 0.74 0.74 +0.00 (0.17%)
Essential Properties Realty Trust Inc. EPRT 3/31/2021 0.09 0.14 +0.05 (55.56%)
Leggett & Platt Inc. LEG 3/31/2021 0.43 0.64 +0.22 (50.59%)
Chemours Co. CC 3/31/2021 0.63 0.71 +0.08 (11.82%)
Insperity Inc. NSP 3/31/2021 1.56 1.82 +0.26 (16.67%)
Service Corp. International SCI 3/31/2021 0.99 1.32 +0.33 (33.67%)
Fabrinet FN 3/31/2021 1.21 1.21 Met
Atlas Corp. ATCO 3/31/2021 0.32 0.31 -0.01 (-4.08%)
Argo Group International Holdings Ltd. ARGO 3/31/2021 -0.07 0.44 +0.51 (-712.30%)
Vornado Realty Trust VNO 3/31/2021 0.08 0.06 -0.02 (-28.00%)
American Water Works Co. AWK 3/31/2021 0.73 0.73 0.00 (-0.51%)
Transocean Ltd. RIG 3/31/2021 -0.17 -0.19 -0.02 (10.02%)
Williams Cos. WMB 3/31/2021 0.29 0.35 +0.06 (19.38%)
Intrepid Potash Inc. IPI 3/31/2021 0.18 0.18 Met
Varonis Systems Inc. VRNS 3/31/2021 -0.13 -0.08 +0.05 (-37.62%)
Viper Energy Partners L.P. Un VNOM 3/31/2021 0.07 -0.08 -0.15 (-218.63%)
XPO Logistics Inc. XPO 3/31/2021 0.97 1.46 +0.49 (50.97%)
Myriad Genetics Inc. MYGN 3/31/2021 -0.15 -0.06 +0.09 (-60.34%)
American States Water Co. AWR 3/31/2021 0.52 0.52 Met
Centerspace CSR 3/31/2021 -0.46 -0.49 -0.03 (6.52%)
Capitala Finance Corp. CPTA 3/31/2021 0.14 -0.81 -0.95 (-678.57%)
Freshpet Inc. FRPT 3/31/2021 -0.02 -0.26 -0.24 (992.62%)
TravelCenters of America Inc. TA 3/31/2021 -0.40 -0.40 Met
SeaSpine Holdings Corp. SPNE 3/31/2021 -0.33 -0.46 -0.13 (37.92%)
NCS Multistage Holdings Inc. NCSM 3/31/2021 -0.44 -1.18 -0.74 (166.94%)
Kforce Inc. KFRC 3/31/2021 0.62 0.62 0.00 (-0.67%)
Northwest Pipe Co. NWPX 3/31/2021 0.15 0.22 +0.08 (51.72%)
Sunstone Hotel Investors Inc. SHO 3/31/2021 -0.30 -0.26 +0.04 (-12.77%)
Mosaic Co. MOS 3/31/2021 0.54 0.57 +0.03 (6.53%)
Avis Budget Group Inc. CAR 3/31/2021 -1.99 -0.46 +1.53 (-76.84%)
Brixmor Property Group Inc. BRX 3/31/2021 0.12 0.18 +0.06 (47.32%)
Kennametal Inc. KMT 3/31/2021 0.19 0.32 +0.13 (65.00%)
BWX Technologies Inc. BWXT 3/31/2021 0.71 0.73 +0.02 (3.03%)
Realty Income Corp. O 3/31/2021 0.30 0.26 -0.04 (-12.75%)
Regal Beloit Corp. RBC 3/31/2021 1.72 1.98 +0.26 (15.00%)
ONE Gas Inc. OGS 3/31/2021 1.81 1.79 -0.02 (-0.97%)
Livent Corp. LTHM 3/31/2021 0.01 0.02 +0.01 (135.88%)
Flowserve Corp. FLS 3/31/2021 0.19 0.28 +0.09 (45.48%)
Ellington Residential Mortgage REIT EARN 3/31/2021 0.33 0.31 -0.02 (-4.92%)
Solaris Oilfield Infrastructure Inc. Cl A SOI 3/31/2021 -0.03 -0.04 -0.01 (19.32%)
CURO Group Holdings Corp. CURO 3/31/2021 0.20 0.69 +0.49 (247.84%)
Urban Edge Properties UE 3/31/2021 0.01 0.17 +0.16 (2449.87%)
ZoomInfo Technologies Inc. Cl A ZI 3/31/2021 0.10 0.13 +0.03 (23.89%)
SolarEdge Technologies Inc. SEDG 3/31/2021 0.80 0.55 -0.25 (-31.28%)
Medallion Financial Corp. MFIN 3/31/2021 0.19 0.34 +0.15 (75.86%)
Ligand Pharmaceuticals Inc. LGND 3/31/2021 1.13 1.41 +0.29 (25.33%)
Lantern Pharma Inc. LTRN 3/31/2021 -0.27 -0.24 +0.03 (-11.11%)
L.B. Foster Co. FSTR 3/31/2021 -0.03 -0.12 -0.09 (300.00%)
Omega Healthcare Investors Inc. OHI 3/31/2021 0.45 0.69 +0.24 (54.02%)
Mueller Water Products Inc. MWA 3/31/2021 0.12 0.14 +0.02 (13.13%)
Ryman Hospitality Properties Inc. RHP 3/31/2021 -1.62 -1.90 -0.28 (17.63%)
Douglas Dynamics Inc. PLOW 3/31/2021 -0.18 0.04 +0.22 (-121.82%)
Crane Co. CR 3/31/2021 1.30 1.66 +0.36 (27.67%)
CVR Energy Inc. CVI 3/31/2021 -1.17 -1.33 -0.16 (13.70%)
CVR Partners LP UAN 3/31/2021 -1.31 -2.37 -1.06 (80.92%)
Hallador Energy Co. HNRG 3/31/2021 0.04 -0.03 -0.07 (-175.00%)
Jack Henry & Associates Inc. JKHY 3/31/2021 0.86 0.95 +0.09 (10.23%)
Viemed Healthcare Inc. VMD 3/31/2021 0.04 0.04 0.00 (-7.69%)
Nutrien Ltd. NTR 3/31/2021 0.09 0.29 +0.20 (226.72%)
Avangrid Inc. AGR 3/31/2021 0.76 1.14 +0.38 (49.44%)
Diamondback Energy Inc. FANG 3/31/2021 1.81 2.30 +0.49 (27.25%)
IAMGOLD Corp. IAG 3/31/2021 0.04 0.01 -0.03 (-72.36%)
Oasis Petroleum Inc. OAS 3/31/2021 1.96 4.34 +2.38 (121.20%)
Cabot Corp. CBT 3/31/2021 0.97 1.38 +0.41 (42.53%)
Oasis Midstream Partners LP OMP 3/31/2021 0.84 0.72 -0.12 (-13.86%)
Elevate Credit Inc. ELVT 3/31/2021 0.12 0.34 +0.22 (183.33%)
Otter Tail Corp. OTTR 3/31/2021 0.73 0.73 Met
Teligent Inc. TLGT 12/31/2020 -2.11 N/A N/A
Itau Unibanco Holding S/A ADR ITUB 3/31/2021 0.11 0.10 -0.01 (-6.05%)
Suncor Energy Inc. SU 3/31/2021 0.33 0.40 +0.07 (21.70%)
Ballard Power Systems Inc. BLDP 3/31/2021 -0.05 -0.06 -0.01 (27.73%)
Company Name Symbol Fiscal Quarter EPS Forecast EPS Actual Surprise
Enel Chile S.A. ADR ENIC 3/31/2021 67.00 67.00 Met
Telekomunikasi Indonesia ADR TLK 12/31/2020 0.33 0.30 -0.03 (-8.45%)
Adecco Group A.G. ADR AHEXY 3/31/2021 0.44 0.46 +0.02 (4.62%)
Sixth Street Specialty Lending Inc. TSLX 3/31/2021 0.50 0.46 -0.04 (-7.26%)
Vistra Corp. VST 3/31/2021 -2.34 -4.21 -1.87 (80.24%)
Telenor ASA ADR TELNY 3/31/2021 -0.11 -0.13 -0.02 (16.49%)
Pandora A/S ADR PANDY 3/31/2021 0.27 0.26 -0.01 (-3.27%)
Infineon Technologies AG ADR IFNNY 3/31/2021 0.30 0.29 -0.01 (-4.85%)
Black Stone Minerals L.P. BSM 3/31/2021 0.13 0.05 -0.08 (-60.58%)
Grifols S.A. ADR GIKLY 3/31/2021 0.11 0.10 -0.01 (-7.41%)
Grifols S.A. ADR GRFS 3/31/2021 0.22 0.21 -0.02 (-7.41%)
Chunghwa Telecom Co. Ltd. ADR CHT 3/31/2021 0.33 0.41 +0.08 (23.21%)
Orange County Bancorp Inc. OCBI 3/31/2021 0.68 1.12 +0.44 (64.71%)
GCP Applied Technologies Inc. GCP 3/31/2021 0.08 0.12 +0.04 (50.00%)
Ares Commercial Real Estate Corp. ACRE 3/31/2021 0.36 0.40 +0.04 (12.20%)
DuPont de Nemours Inc. DD 3/31/2021 0.75 0.91 +0.16 (21.38%)
Atotech Ltd. ATC 3/31/2021 -0.17 -0.04 +0.13 (-76.46%)
Ingredion Inc. INGR 3/31/2021 1.62 1.85 +0.23 (14.07%)
ArcBest Corp. ARCB 3/31/2021 0.59 1.01 +0.42 (70.50%)
Leidos Holdings Inc. LDOS 3/31/2021 1.48 1.73 +0.25 (16.77%)
Bunge Ltd. BG 3/31/2021 1.54 3.13 +1.59 (102.66%)
Gartner Inc. IT 3/31/2021 1.05 2.00 +0.95 (89.70%)
Lamar Advertising Co. Cl A LAMR 3/31/2021 0.36 0.38 +0.02 (5.04%)
Jounce Therapeutics Inc. JNCE 3/31/2021 -0.41 -0.58 -0.17 (40.97%)
Chatham Lodging Trust CLDT 3/31/2021 -0.48 0.06 +0.54 (-112.50%)
Easterly Government Properties Inc. DEA 3/31/2021 0.08 0.08 +0.01 (6.67%)
Thomson Reuters Corp. TRI 3/31/2021 0.42 0.58 +0.16 (37.17%)
CVS Health Corp. CVS 3/31/2021 1.73 2.04 +0.31 (18.19%)
Zimmer Biomet Holdings Inc. ZBH 3/31/2021 1.53 1.71 +0.18 (11.88%)
Westlake Chemical Partners LP WLKP 3/31/2021 0.52 0.43 -0.09 (-17.06%)
Eaton Corp. PLC ETN 3/31/2021 1.24 1.44 +0.20 (15.95%)
Zebra Technologies Corp. Cl A ZBRA 3/31/2021 4.40 4.79 +0.39 (8.86%)
Equitrans Midstream Corp. ETRN 3/31/2021 0.20 0.19 -0.01 (-3.29%)
Westlake Chemical Corp. WLK 3/31/2021 1.54 1.87 +0.33 (21.05%)
Henry Schein Inc. HSIC 3/31/2021 0.84 1.24 +0.40 (47.21%)
Perion Network Ltd. PERI 3/31/2021 0.14 0.19 +0.05 (33.80%)
Holly Energy Partners L.P. HEP 3/31/2021 0.47 0.61 +0.14 (30.56%)
Premier Inc. PINC 3/31/2021 0.56 0.64 +0.08 (15.27%)
IDEXX Laboratories Inc. IDXX 3/31/2021 1.71 2.35 +0.64 (37.19%)
Sage Therapeutics Inc. SAGE 3/31/2021 -1.87 -1.64 +0.23 (-12.47%)
Armada Hoffler Properties Inc. AHH 3/31/2021 0.11 0.04 -0.07 (-63.64%)
Marathon Petroleum Corp. MPC 3/31/2021 -0.72 -0.20 +0.52 (-72.21%)
Unitil Corp. UTL 3/31/2021 1.16 1.26 +0.10 (8.31%)
Independence Contract Drilling Inc. ICD 3/31/2021 -2.74 -2.64 +0.10 (-3.68%)
CONSOL Energy Inc. CEIX 3/31/2021 0.75 0.75 Met
Martin Marietta Materials Inc. MLM 3/31/2021 0.49 1.04 +0.55 (112.59%)
MPLX L.P. MPLX 3/31/2021 0.61 0.68 +0.07 (10.59%)
Pfizer Inc. PFE 3/31/2021 0.78 0.93 +0.15 (19.86%)
Meritor Inc. MTOR 3/31/2021 0.61 0.68 +0.07 (10.62%)
NuSTAR Energy L.P. NS 3/31/2021 0.22 0.05 -0.17 (-77.03%)
Arconic Corp. ARNC 3/31/2021 0.30 0.46 +0.16 (55.21%)
IAA Inc. IAA 3/31/2021 0.47 0.58 +0.11 (23.40%)
Brookfield Renewable Partners L.P. BEP 3/31/2021 -0.04 -0.24 -0.20 (477.85%)
Glatfelter Corp. GLT 3/31/2021 0.18 0.19 +0.01 (5.56%)
Brookfield Renewable Corp. BEPC 3/31/2021 -0.05 -0.24 -0.19 (380.00%)
Under Armour Inc. Cl A UAA 3/31/2021 0.04 0.16 +0.12 (323.09%)
Xylem Inc. XYL 3/31/2021 0.38 0.56 +0.18 (49.28%)
Ametek Inc. AME 3/31/2021 1.01 1.07 +0.06 (5.49%)
Under Armour Inc. Cl C UA 3/31/2021 0.04 0.16 +0.12 (324.96%)
Global Payments Inc. GPN 3/31/2021 1.77 1.82 +0.05 (2.69%)
Catalent Inc. CTLT 3/31/2021 0.74 0.82 +0.08 (10.89%)
Neuronetics Inc. STIM 3/31/2021 -0.31 -0.31 +0.00 (-0.16%)
Arvinas Inc. ARVN 3/31/2021 -0.83 -0.84 -0.01 (0.71%)
Virtu Financial Inc. VIRT 3/31/2021 1.29 2.04 +0.75 (58.48%)
Malibu Boats Inc. Cl A MBUU 3/31/2021 1.65 1.82 +0.17 (10.21%)
Colliers International Group Inc. CIGI 3/31/2021 0.61 1.04 +0.43 (69.90%)
Lantheus Holdings Inc. LNTH 3/31/2021 -0.01 0.05 +0.06 (-600.00%)
Oncorus Inc. ONCR 3/31/2021 -0.54 -0.53 +0.01 (-2.45%)
Harsco Corp. HSC 3/31/2021 0.04 0.15 +0.11 (275.00%)
LGI Homes Inc. LGIH 3/31/2021 2.50 3.95 +1.45 (57.91%)
Broadridge Financial Solutions Inc. BR 3/31/2021 1.67 1.76 +0.09 (5.18%)
Bausch Health Cos. Inc. BHC 3/31/2021 0.95 0.99 +0.03 (3.59%)
R1 RCM Inc. RCM 3/31/2021 0.08 0.11 +0.03 (37.27%)
Beasley Broadcast Group Inc. Cl A BBGI 3/31/2021 -0.20 -0.36 -0.16 (80.00%)
USA Compression Partners L.P. USAC 3/31/2021 -0.11 -0.12 -0.01 (6.73%)
Frank's International N.V. FI 3/31/2021 -0.06 -0.11 -0.05 (96.23%)
ConocoPhillips COP 3/31/2021 0.54 0.69 +0.15 (26.99%)
Exterran Corp. EXTN 3/31/2021 -0.76 -0.86 -0.10 (13.53%)
Apollo Global Management Inc. Cl A APO 3/31/2021 0.66 0.66 0.00 (-0.05%)
LCI Industries LCII 3/31/2021 2.31 2.93 +0.62 (27.00%)
Corsair Gaming Inc. CRSR 3/31/2021 0.33 0.58 +0.25 (73.61%)
Concert Pharmaceuticals Inc. CNCE 3/31/2021 -0.69 -0.67 +0.02 (-2.62%)
Incyte Corp. INCY 3/31/2021 0.45 0.24 -0.21 (-46.86%)
Charles River Laboratories International Inc. CRL 3/31/2021 2.19 2.53 +0.34 (15.54%)
Nexstar Media Group Inc. Cl A NXST 3/31/2021 3.54 4.42 +0.88 (24.98%)
Berry Global Group Inc. BERY 3/31/2021 1.28 1.59 +0.31 (23.83%)
WideOpenWest Inc. WOW 3/31/2021 0.11 0.11 +0.00 (4.58%)
Seres Therapeutics Inc. MCRB 3/31/2021 -0.31 -0.39 -0.08 (25.81%)
Sealed Air Corp. SEE 3/31/2021 0.70 0.78 +0.08 (11.05%)
Vulcan Materials Co. VMC 3/31/2021 0.45 0.69 +0.24 (52.04%)
Vishay Intertechnology Inc. VSH 3/31/2021 0.44 0.46 +0.02 (4.06%)
Intelligent Systems Corp. INS 3/31/2021 0.11 0.12 +0.01 (7.10%)
Repligen Corp. RGEN 3/31/2021 0.42 0.68 +0.26 (60.95%)
Lancaster Colony Corp. LANC 3/31/2021 1.20 1.35 +0.15 (12.19%)
Warner Music Group Corp. WMG 3/31/2021 0.15 0.28 +0.13 (86.83%)
Cummins Inc. CMI 3/31/2021 3.47 4.10 +0.63 (18.10%)
Kaleido Biosciences Inc. KLDO 3/31/2021 -0.59 -0.58 +0.01 (-2.36%)
Dominion Energy Inc. D 3/31/2021 1.07 1.09 +0.02 (1.47%)
Kopin Corp. KOPN 3/31/2021 -0.02 -0.05 -0.03 (150.00%)
Tetra Technologies Inc. TTI 3/31/2021 -0.03 -0.06 -0.03 (100.00%)
Ferrari N.V. RACE 3/31/2021 1.32 1.34 +0.02 (1.53%)
CommVault Systems Inc. CVLT 3/31/2021 0.48 0.59 +0.11 (23.88%)
Sabre Corp. SABR 3/31/2021 -0.72 -0.72 Met
Great Lakes Dredge & Dock Corp. GLDD 3/31/2021 0.22 0.13 -0.09 (-39.53%)
Pacira BioSciences Inc. PCRX 3/31/2021 0.64 0.53 -0.11 (-16.59%)
IPG Photonics Corp. IPGP 3/31/2021 1.09 1.26 +0.17 (15.17%)
Sysco Corp. SYY 3/31/2021 0.20 0.22 +0.02 (12.11%)
Kiniksa Pharmaceuticals Ltd. KNSA 3/31/2021 -0.73 -0.72 +0.01 (-0.69%)
Federal Signal Corp. FSS 3/31/2021 0.33 0.38 +0.05 (14.16%)
Cheniere Energy Partners L.P. CQP 3/31/2021 0.64 0.64 +0.00 (0.67%)
Cheniere Energy Inc. LNG 3/31/2021 0.85 1.54 +0.69 (80.19%)
Camping World Holdings Inc. Cl A CWH 3/31/2021 0.71 1.40 +0.69 (96.84%)
Sapiens International Corp. N.V. SPNS 3/31/2021 0.27 0.27 0.00 (-0.12%)
CB Financial Services Inc. CBFV 3/31/2021 0.47 0.52 +0.06 (11.83%)
Galecto Inc. GLTO 3/31/2021 -0.46 -0.53 -0.07 (15.22%)
Exela Technologies Inc. XELA 3/31/2021 -0.45 -0.76 -0.31 (68.89%)
National Retail Properties Inc. NNN 3/31/2021 0.36 0.30 -0.06 (-15.49%)
Expeditors International of Washington Inc. EXPD 3/31/2021 1.05 1.67 +0.62 (58.39%)
Franklin Resources Inc. BEN 3/31/2021 0.74 0.79 +0.05 (6.14%)
UFP Technologies Inc. UFPT 3/31/2021 0.36 0.55 +0.19 (52.78%)
Tennant Co. TNC 3/31/2021 0.60 1.17 +0.57 (94.19%)
Louisiana-Pacific Corp. LPX 3/31/2021 2.70 3.01 +0.31 (11.34%)
CF Bankshares Inc. CFBK 3/31/2021 0.94 0.96 +0.02 (2.13%)
York Water Co. YORW 3/31/2021 0.30 0.28 -0.02 (-6.67%)
Emmaus Life Sciences Inc. EMMA 12/31/2020 -0.78 N/A N/A
KKR & Co. Inc. KKR 3/31/2021 0.64 0.75 +0.11 (16.29%)
Exact Sciences Corp. EXAS 3/31/2021 -0.96 -0.18 +0.78 (-81.32%)
Apollo Endosurgery Inc. APEN 3/31/2021 -0.22 -0.17 +0.05 (-22.73%)
Arrowhead Pharmaceuticals Corp. ARWR 3/31/2021 0.10 -0.26 -0.36 (-352.27%)
Esperion Therapeutics Inc. ESPR 3/31/2021 -2.52 -3.50 -0.98 (39.06%)
OneSpan Inc. OSPN 3/31/2021 -0.08 -0.16 -0.08 (100.95%)
Lattice Semiconductor Corp. LSCC 3/31/2021 0.19 0.22 +0.03 (13.99%)
Big 5 Sporting Goods Corp. BGFV 3/31/2021 0.50 1.02 +0.52 (104.00%)
Protagonist Therapeutics Inc. PTGX 3/31/2021 -0.57 -0.54 +0.03 (-4.93%)
Rattler Midstream L.P. RTLR 3/31/2021 0.24 0.16 -0.08 (-32.78%)
Allegiant Travel Co. ALGT 3/31/2021 -3.10 -3.58 -0.48 (15.39%)
NMI Holdings Inc. Cl A NMIH 3/31/2021 0.60 0.62 +0.02 (3.84%)
Monolithic Power Systems Inc. MPWR 3/31/2021 1.34 1.46 +0.12 (8.89%)
Aptose Biosciences Inc. APTO 3/31/2021 -0.17 -0.18 -0.01 (5.11%)
PTC Therapeutics Inc. PTCT 3/31/2021 -1.54 -1.83 -0.29 (18.47%)
Axcelis Technologies Inc. ACLS 3/31/2021 0.36 0.48 +0.12 (33.95%)
Smart Sand Inc. SND 3/31/2021 -0.14 -0.09 +0.05 (-35.71%)
Ultragenyx Pharmaceutical Inc. RARE 3/31/2021 -1.24 -2.03 -0.79 (63.36%)
Atara Biotherapeutics Inc. ATRA 3/31/2021 -0.90 -0.86 +0.04 (-4.58%)
Sangamo Therapeutics Inc. SGMO 3/31/2021 -0.29 -0.32 -0.03 (8.98%)
Alarm.Com Holdings Inc. ALRM 3/31/2021 0.38 0.50 +0.12 (32.08%)
T-Mobile US Inc. TMUS 3/31/2021 0.54 0.74 +0.20 (37.72%)
Red Rock Resorts Inc. Cl A RRR 3/31/2021 0.28 -0.92 -1.20 (-431.44%)
Magnolia Oil & Gas Corp. MGY 3/31/2021 0.27 0.38 +0.11 (39.14%)
Bottomline Technologies Inc. EPAY 3/31/2021 0.26 0.27 +0.01 (2.70%)
Cerus Corp. CERS 3/31/2021 -0.10 -0.10 Met
Infinera Corp. INFN 3/31/2021 -0.06 -0.03 +0.03 (-51.08%)
Caesars Entertainment Inc. CZR 3/31/2021 -1.71 -2.06 -0.35 (20.34%)
Mercury Systems Inc. MRCY 3/31/2021 0.62 0.64 +0.02 (2.42%)
Trecora Resources TREC 3/31/2021 0.05 -0.18 -0.23 (-460.00%)
Outfront Media Inc. OUT 3/31/2021 -0.46 -0.52 -0.06 (14.00%)
Penn Virginia Corp. PVAC 3/31/2021 0.31 0.39 +0.08 (23.92%)
Viavi Solutions Inc. VIAV 3/31/2021 0.17 0.18 +0.01 (4.52%)
TransMedics Group Inc. TMDX 3/31/2021 -0.29 -0.29 +0.00 (-0.23%)
Pulmonx Corp. LUNG 3/31/2021 -0.39 -0.34 +0.05 (-13.19%)
Upwork Inc. UPWK 3/31/2021 0.00 0.03 +0.03 (-1326.49%)
Sprout Social Inc. Cl A SPT 3/31/2021 -0.10 -0.05 +0.05 (-50.98%)
Aziyo Biologics Inc. AZYO 3/31/2021 -0.55 -0.50 +0.05 (-9.50%)
Cryoport Inc. CYRX 3/31/2021 -0.18 -0.13 +0.05 (-28.65%)
Rocky Brands Inc. RCKY 3/31/2021 0.59 1.19 +0.60 (101.69%)
Benefitfocus Inc. BNFT 3/31/2021 -0.11 0.01 +0.12 (-108.93%)
Silk Road Medical Inc. SILK 3/31/2021 -0.39 -0.31 +0.08 (-20.62%)
Super Micro Computer Inc. SMCI 3/31/2021 0.47 0.50 +0.03 (6.95%)
Agile Therapeutics Inc. AGRX 3/31/2021 -0.21 -0.20 +0.01 (-6.54%)
Intellicheck Inc. IDN 3/31/2021 -0.03 -0.06 -0.03 (132.86%)
Lyft Inc. Cl A LYFT 3/31/2021 -0.60 -0.35 +0.25 (-41.52%)
Invitae Corp. NVTA 3/31/2021 -0.60 -0.63 -0.03 (4.78%)
Ichor Holdings Ltd. ICHR 3/31/2021 0.72 0.76 +0.04 (5.56%)
Zillow Group Inc. Cl C Z 3/31/2021 0.26 0.44 +0.18 (66.76%)
XP Inc. Cl A XP 3/31/2021 1.19 1.16 -0.03 (-2.36%)
Ameresco Inc. Cl A AMRC 3/31/2021 0.09 0.25 +0.16 (167.86%)
Denny's Corp. DENN 3/31/2021 0.03 0.01 -0.02 (-65.63%)
Zillow Group Inc. Cl A ZG 3/31/2021 0.26 0.44 +0.18 (68.26%)
AquaBounty Technologies Inc. AQB 3/31/2021 -0.07 -0.06 +0.01 (-7.69%)
PerkinElmer Inc. PKI 3/31/2021 3.09 3.72 +0.63 (20.42%)
Andersons Inc. ANDE 3/31/2021 0.03 0.45 +0.42 (1250.01%)
ManTech International Corp. Cl A MANT 3/31/2021 0.83 0.88 +0.05 (5.78%)
Paycom Software Inc. PAYC 3/31/2021 1.42 1.47 +0.05 (3.88%)
Berry Corp. (bry) BRY 3/31/2021 -0.07 0.07 +0.14 (-206.66%)
SiTime Corp. SITM 3/31/2021 0.12 0.19 +0.07 (58.33%)
Cardlytics Inc. CDLX 3/31/2021 -0.58 -0.85 -0.27 (46.55%)
AnaptysBio Inc. ANAB 3/31/2021 -0.69 -0.66 +0.03 (-4.11%)
Alteryx Inc. Cl A AYX 3/31/2021 -0.23 -0.08 +0.15 (-65.24%)
Theravance Biopharma Inc. TBPH 3/31/2021 -1.08 -1.24 -0.16 (15.08%)
Mercury General Corp. MCY 3/31/2021 1.22 1.34 +0.12 (9.46%)
RingCentral Inc. Cl A RNG 3/31/2021 0.25 0.27 +0.02 (8.76%)
Jazz Pharmaceuticals PLC JAZZ 3/31/2021 3.73 3.92 +0.19 (4.98%)
Penumbra Inc. PEN 3/31/2021 0.09 0.32 +0.23 (255.56%)
Pioneer Natural Resources Co. PXD 3/31/2021 1.42 1.77 +0.35 (24.52%)
National Storage Affiliates Trust NSA 3/31/2021 0.19 0.19 +0.00 (1.33%)
Broadstone Net Lease Inc. BNL 3/31/2021 0.14 0.15 +0.01 (5.15%)
Varex Imaging Corp. VREX 3/31/2021 0.17 0.35 +0.19 (112.12%)
Pixelworks Inc. PXLW 3/31/2021 -0.12 -0.12 +0.00 (-2.70%)
Monroe Capital Corp. MRCC 3/31/2021 0.25 0.25 +0.01 (2.04%)
Kimball International Inc. Cl B KBAL 3/31/2021 0.04 -0.03 -0.07 (-170.59%)
STAG Industrial Inc. STAG 3/31/2021 0.12 0.13 +0.01 (8.73%)
LivePerson Inc. LPSN 3/31/2021 -0.13 -0.07 +0.06 (-48.44%)
Durect Corp. DRRX 3/31/2021 -0.04 -0.05 -0.01 (19.05%)
Veeco Instruments Inc. VECO 3/31/2021 0.23 0.25 +0.02 (10.29%)
Intrusion Inc. INTZ 3/31/2021 -0.11 -0.22 -0.11 (93.24%)
Medifast Inc. MED 3/31/2021 2.73 3.46 +0.73 (26.89%)
TTEC Holdings Inc. TTEC 3/31/2021 1.02 1.26 +0.24 (23.83%)
Akamai Technologies Inc. AKAM 3/31/2021 1.30 1.38 +0.08 (5.88%)
ICF International Inc. ICFI 3/31/2021 0.85 1.13 +0.28 (32.68%)
Herbalife Nutrition Ltd. HLF 3/31/2021 1.09 1.42 +0.33 (30.51%)
Compass Minerals International Inc. CMP 3/31/2021 0.64 0.95 +0.31 (49.31%)
Amcor PLC AMCR 3/31/2021 0.17 0.18 +0.01 (4.64%)
Commercial Vehicle Group Inc. CVGI 3/31/2021 0.07 0.27 +0.20 (285.71%)
Viad Corp. VVI 3/31/2021 -2.01 -1.92 +0.09 (-4.48%)
Activision Blizzard Inc. ATVI 3/31/2021 0.70 0.84 +0.14 (20.47%)
Veritone Inc. VERI 3/31/2021 -0.14 -0.12 +0.02 (-14.29%)
Coursera Inc. COUR 3/31/2021 -0.32 -0.32 0.00 (0.69%)
Western Union Co. WU 3/31/2021 0.44 0.44 0.00 (-0.61%)
Comstock Resources Inc. CRK 3/31/2021 0.14 0.25 +0.11 (72.97%)
Huron Consulting Group Inc. HURN 3/31/2021 0.36 0.35 -0.01 (-1.69%)
Arista Networks Inc. ANET 3/31/2021 2.39 2.50 +0.11 (4.81%)
Inogen Inc. INGN 3/31/2021 -0.27 -0.03 +0.24 (-88.82%)
Inspire Medical Systems Inc. INSP 3/31/2021 -0.66 -0.60 +0.06 (-9.05%)
Globus Medical Inc. GMED 3/31/2021 0.37 0.49 +0.12 (33.48%)
Workiva Inc. Cl A WK 3/31/2021 0.07 0.12 +0.05 (65.52%)
Select Energy Services Inc. Cl A WTTR 3/31/2021 -0.16 -0.27 -0.11 (66.36%)
Ducommun Inc. DCO 3/31/2021 0.59 0.55 -0.04 (-6.25%)
Horace Mann Educators Corp. HMN 3/31/2021 0.80 1.10 +0.30 (37.43%)
McAfee Corp. Cl A MCFE 3/31/2021 0.36 0.42 +0.06 (17.86%)
Delek US Holdings Inc. DK 3/31/2021 -1.41 -1.69 -0.28 (20.09%)
Life Storage Inc. LSI 3/31/2021 0.57 0.63 +0.06 (10.53%)
BlueLinx Holdings Inc. BXC 3/31/2021 2.09 6.29 +4.20 (201.08%)
Hannon Armstrong Sustainable Infrastructure Capital Inc. HASI 3/31/2021 0.40 0.43 +0.03 (6.44%)
Cytosorbents Corp. CTSO 3/31/2021 -0.04 -0.10 -0.07 (185.71%)
ProPetro Holding Corp. PUMP 3/31/2021 -0.17 -0.20 -0.03 (18.93%)
Green Brick Partners Inc. GRBK 3/31/2021 0.49 0.51 +0.02 (3.55%)
AssetMark Financial Holdings Inc. AMK 3/31/2021 0.31 0.30 -0.01 (-3.23%)
Plains GP Holdings LP PAGP 3/31/2021 0.19 0.36 +0.17 (85.14%)
Dolby Laboratories Inc. Cl A DLB 3/31/2021 0.46 0.73 +0.27 (59.56%)
Regional Management Corp. RM 3/31/2021 1.17 2.31 +1.14 (97.15%)
ESCO Technologies Inc. ESE 3/31/2021 0.55 0.59 +0.04 (7.27%)
TCG BDC Inc. CGBD 3/31/2021 0.36 0.36 0.00 (-0.80%)
Verisk Analytics Inc. VRSK 3/31/2021 1.25 1.23 -0.02 (-1.72%)
Watts Water Technologies Inc. Cl A WTS 3/31/2021 1.01 1.24 +0.23 (23.18%)
Newpark Resources Inc. NR 3/31/2021 -0.05 -0.02 +0.03 (-63.37%)
Plains All American Pipeline L.P. PAA 3/31/2021 0.24 0.51 +0.27 (114.34%)
Black Hills Corp. BKH 3/31/2021 1.66 1.54 -0.12 (-7.31%)
Healthpeak Properties Inc. PEAK 3/31/2021 0.08 0.27 +0.19 (239.15%)
Prudential Financial Inc. PRU 3/31/2021 2.76 4.11 +1.35 (48.76%)
Delek Logistics Partners L.P. DKL 3/31/2021 0.81 0.83 +0.02 (2.79%)
PROS Holdings Inc. PRO 3/31/2021 -0.27 -0.22 +0.05 (-18.18%)
Centennial Resource Development Inc. CDEV 3/31/2021 0.00 0.06 +0.06 (2866.65%)
Retail Properties of America Inc. RPAI 3/31/2021 0.00 0.02 +0.02 (493.30%)
Powell Industries Inc. POWL 3/31/2021 0.12 -0.02 -0.14 (-117.39%)
FTS International Inc. FTSI 3/31/2021 -0.55 -0.56 -0.01 (1.81%)
JBG SMITH Properties JBGS 3/31/2021 -0.24 -0.16 +0.08 (-33.33%)
Assurant Inc. AIZ 3/31/2021 1.97 2.47 +0.50 (25.50%)
Xilinx Inc. XLNX 3/31/2021 0.73 0.75 +0.02 (2.25%)
KAR Auction Services Inc. KAR 3/31/2021 0.11 0.45 +0.34 (311.27%)
Systemax Inc. SYX 3/31/2021 0.33 0.14 -0.19 (-56.92%)
Deciphera Pharmaceuticals Inc. DCPH 3/31/2021 -1.07 -1.06 +0.01 (-0.75%)
DHT Holdings Inc. DHT 3/31/2021 0.06 0.05 -0.01 (-13.04%)
Quad/Graphics Inc. QUAD 3/31/2021 -0.07 0.19 +0.26 (-371.43%)
Whitestone REIT WSR 3/31/2021 0.25 0.03 -0.22 (-87.76%)
Blueknight Energy Partners L.P. LLC Pfd. Series A BKEPP 3/31/2021 -0.06 -0.03 +0.03 (-50.00%)
Gladstone Capital Corp. GLAD 3/31/2021 0.20 0.20 0.00 (-1.27%)
Erytech Pharma ADR ERYP 3/31/2021 -0.96 -0.67 +0.28 (-29.72%)
Blueknight Energy Partners G.P. LLC BKEP 3/31/2021 -0.02 -0.01 +0.01 (-50.00%)
Alcon Inc. ALC 3/31/2021 0.45 0.49 +0.04 (9.31%)
Masonite International Corp. DOOR 3/31/2021 1.77 1.93 +0.16 (9.19%)
Host Hotels & Resorts Inc. HST 3/31/2021 -0.40 -0.22 +0.18 (-45.15%)
Kadant Inc. KAI 3/31/2021 1.36 1.43 +0.07 (4.84%)
Hillenbrand Inc. HI 3/31/2021 0.91 0.98 +0.07 (7.40%)
Franklin Street Properties Corp. FSP 3/31/2021 -0.03 -0.06 -0.04 (140.00%)
Hyatt Hotels Corp. H 3/31/2021 -1.31 -3.57 -2.26 (171.57%)
Kaman Corp. KAMN 3/31/2021 0.18 0.29 +0.11 (58.90%)
Devon Energy Corp. DVN 3/31/2021 0.33 0.45 +0.12 (36.87%)
Summit Hotel Properties Inc. INN 3/31/2021 -0.37 -0.34 +0.03 (-8.96%)
Rayonier Advanced Materials Inc. RYAM 3/31/2021 0.39 -0.43 -0.82 (-209.32%)
Chesapeake Utilities Corp. CPK 3/31/2021 1.84 1.97 +0.14 (7.36%)
W&T Offshore Inc. WTI 3/31/2021 0.05 0.11 +0.06 (120.00%)
Innospec Inc. IOSP 3/31/2021 1.01 1.06 +0.05 (4.95%)
Arcutis Biotherapeutics Inc. ARQT 3/31/2021 -0.96 -0.76 +0.20 (-20.63%)
Park-Ohio Holdings Corp. PKOH 3/31/2021 0.34 0.53 +0.19 (57.43%)
FedNat Holding Co. FNHC 3/31/2021 -1.07 -1.35 -0.28 (26.54%)
Sendas Distribuidora S.A. ADR ASAI 3/31/2021 0.14 0.17 +0.02 (16.28%)
Skillz Inc. SKLZ 3/31/2021 -0.13 -0.15 -0.02 (18.50%)
Corteva Inc. CTVA 3/31/2021 0.65 0.79 +0.14 (21.82%)
Hyster-Yale Materials Handling Inc. HY 3/31/2021 0.58 0.33 -0.25 (-43.10%)
American Financial Group Inc. AFG 3/31/2021 1.64 2.38 +0.74 (45.37%)
Community Healthcare Trust Inc. CHCT 3/31/2021 0.24 0.21 -0.03 (-11.27%)
EnLink Midstream LLC ENLC 3/31/2021 -0.02 -0.03 -0.01 (39.41%)
Douglas Emmett Inc. DEI 3/31/2021 0.03 0.06 +0.03 (132.97%)
TPG RE Finance Trust TRTX 3/31/2021 0.24 0.27 +0.03 (13.61%)
Sykes Enterprises Inc. SYKE 3/31/2021 0.69 0.73 +0.04 (6.31%)
Kinaxis Inc. KXSCF 3/31/2021 0.11 0.14 +0.03 (23.42%)
Match Group Inc. MTCH 3/31/2021 0.42 0.57 +0.15 (35.11%)
Mayville Engineering Co. Inc. MEC 3/31/2021 0.10 0.12 +0.02 (24.14%)
Ashford Hospitality Trust AHT 3/31/2021 -1.44 -1.10 +0.34 (-23.61%)
Aquestive Therapeutics Inc. AQST 3/31/2021 -0.43 -0.41 +0.02 (-3.53%)
Pretium Resources Inc. PVG 3/31/2021 0.20 0.14 -0.06 (-31.10%)
Heritage-Crystal Clean Inc. HCCI 3/31/2021 0.19 0.39 +0.20 (105.26%)
Radian Group Inc. RDN 3/31/2021 0.67 0.68 +0.01 (1.28%)
NexTier Oilfield Solutions Inc. NEX 3/31/2021 -0.30 -0.23 +0.07 (-24.19%)
Ecopetrol S.A. ADR EC 3/31/2021 1280.62 1560.89 +280.27 (21.89%)
GreenSky Inc. Cl A GSKY 3/31/2021 -0.01 0.08 +0.09 (-999.08%)
B2Gold Corp. BTG 3/31/2021 0.07 0.09 +0.02 (27.45%)
Company Name Symbol Fiscal Quarter EPS Forecast EPS Actual Surprise
Vestas Wind Systems A/S VWSYF 3/31/2021 -0.10 -0.07 +0.03 (-27.59%)
Vestas Wind Systems A/S ADR VWDRY 3/31/2021 -0.20 -0.14 +0.05 (-27.59%)
ENGIE Brasil Energia S/A ADR EGIEY 3/31/2021 0.15 0.15 -0.01 (-5.65%)
Hayward Holdings Inc. HAYW 3/31/2021 0.23 0.27 +0.05 (20.00%)
Anadolu Efes Biracilik ve Malt Sanayi A.S. ADR AEBZY 3/31/2021 0.01 0.01 Met
Anadolu Efes Biracilik ve Malt Sanayi A.S. ADR 144A AEBMY 3/31/2021 0.01 0.01 Met
Team Inc. TISI 3/31/2021 -0.59 -0.97 -0.38 (63.30%)
Gran Tierra Energy Inc. GTE 3/31/2021 -0.02 -0.10 -0.08 (400.00%)
Monmouth Real Estate Investment Corp. Cl A MNR 3/31/2021 0.11 0.07 -0.04 (-33.83%)
First Majestic Silver Corp. AG 3/31/2021 0.07 0.01 -0.06 (-84.98%)
Koninklijke DSM N.V. ADR RDSMY 3/31/2021 0.34 0.39 +0.06 (16.34%)
Addex Therapeutics Ltd. ADR ADXN 3/31/2021 -0.66 -0.53 +0.13 (-19.93%)
Veolia Environnement S.A. ADR VEOEY 3/31/2021 0.44 0.42 -0.02 (-3.56%)
Hannover Rueck SE ADR HVRRY 3/31/2021 1.62 1.52 -0.10 (-6.05%)
G5 Entertainment AB GENTF 3/31/2021 0.74 0.74 +0.00 (0.34%)
Deutsche Post AG ADR DPSGY 3/31/2021 1.13 1.13 0.00 (-0.15%)
Sampo Oyj Series A ADR SAXPY 3/31/2021 0.45 0.49 +0.04 (9.14%)
Cedar Fair L.P. Dep. Rec. FUN 3/31/2021 -1.85 -1.95 -0.10 (5.16%)
Acer Inc. GDR Reg S ACEYY 3/31/2021 0.10 0.16 +0.06 (58.47%)
Acer Inc. GDR ACEIY 3/31/2021 0.10 0.16 +0.06 (58.47%)
Fresh Del Monte Produce Inc. FDP 3/31/2021 0.36 0.88 +0.52 (144.44%)
Lumber Liquidators Holdings Inc. LL 3/31/2021 0.23 0.36 +0.13 (55.17%)
Barrick Gold Corp. GOLD 3/31/2021 0.27 0.29 +0.02 (6.80%)
Fortis Inc. FTS 3/31/2021 0.60 0.63 +0.03 (4.25%)
Northwest Natural Holding Co. NWN 3/31/2021 1.82 1.94 +0.12 (6.34%)
SiteOne Landscape Supply Inc. SITE 3/31/2021 -0.45 0.26 +0.72 (-158.11%)
United Therapeutics Corp. UTHR 3/31/2021 3.03 0.61 -2.42 (-79.88%)
Radware Ltd. RDWR 3/31/2021 0.14 0.17 +0.03 (17.82%)
Owens & Minor Inc. OMI 3/31/2021 0.99 1.57 +0.58 (57.87%)
Genesis Energy L.P. GEL 3/31/2021 -0.10 -0.43 -0.33 (345.43%)
Hilton Worldwide Holdings Inc. HLT 3/31/2021 0.07 0.02 -0.05 (-72.21%)
Tellurian Inc. TELL 3/31/2021 -0.07 -0.08 -0.01 (13.22%)
SPX FLOW Inc. FLOW 3/31/2021 0.35 0.61 +0.26 (72.44%)
WestRock Co. WRK 3/31/2021 0.63 0.54 -0.09 (-14.09%)
NiSource Inc. NI 3/31/2021 0.77 0.77 0.00 (-0.44%)
BorgWarner Inc. BWA 3/31/2021 0.92 1.21 +0.29 (31.22%)
AmerisourceBergen Corp. ABC 3/31/2021 2.48 2.53 +0.05 (1.97%)
Parsons Corp. PSN 3/31/2021 0.29 0.34 +0.05 (17.24%)
Blucora Inc. BCOR 3/31/2021 0.96 1.04 +0.08 (7.96%)
IVERIC bio Inc. ISEE 3/31/2021 -0.25 -0.29 -0.04 (16.26%)
HollyFrontier Corp. HFC 3/31/2021 -0.45 -0.53 -0.08 (18.32%)
New Residential Investment Corp. NRZ 3/31/2021 0.34 0.34 Met
New Gold Inc. NGD 3/31/2021 0.02 0.01 -0.01 (-41.38%)
Trane Technologies PLC TT 3/31/2021 0.62 1.01 +0.39 (63.63%)
GrafTech International Ltd. EAF 3/31/2021 0.37 0.37 +0.00 (1.01%)
Brookfield Business Partners L.P. BBU 3/31/2021 -0.39 3.57 +3.96 (-1015.38%)
Surface Oncology Inc. SURF 3/31/2021 -0.39 -0.37 +0.02 (-5.61%)
NOW Inc. DNOW 3/31/2021 -0.14 -0.04 +0.10 (-71.01%)
ODP Corp. ODP 3/31/2021 0.83 1.21 +0.38 (46.65%)
Exelon Corp. EXC 3/31/2021 0.36 -0.06 -0.42 (-116.78%)
Waters Corp. WAT 3/31/2021 1.57 2.29 +0.72 (45.48%)
Emerson Electric Co. EMR 3/31/2021 0.90 0.97 +0.07 (8.10%)
Sempra Energy SRE 3/31/2021 2.61 2.95 +0.34 (13.01%)
Criteo S.A. ADR CRTO 3/31/2021 0.51 0.67 +0.16 (30.97%)
Alico Inc. ALCO 3/31/2021 1.02 1.02 Met
NeoGenomics Inc. NEO 3/31/2021 -0.06 -0.04 +0.02 (-31.91%)
Optinose Inc. OPTN 3/31/2021 -0.53 -0.49 +0.04 (-7.55%)
Evoqua Water Technologies Corp. AQUA 3/31/2021 0.11 0.12 +0.01 (10.32%)
PowerFleet Inc. PWFL 3/31/2021 0.02 0.00 -0.02 (-100.00%)
CDW Corp. CDW 3/31/2021 1.53 1.74 +0.21 (14.01%)
Vericel Corp. VCEL 3/31/2021 -0.04 -0.07 -0.03 (69.70%)
Caesarstone Ltd. CSTE 3/31/2021 0.09 0.42 +0.33 (366.67%)
KVH Industries Inc. KVHI 3/31/2021 -0.19 -0.22 -0.03 (15.79%)
Dun & Bradstreet Holdings Inc. DNB 3/31/2021 0.21 0.23 +0.02 (11.74%)
Ionis Pharmaceuticals Inc. IONS 3/31/2021 -0.51 -0.64 -0.13 (25.86%)
Tupperware Brands Corp. TUP 3/31/2021 0.54 0.82 +0.28 (52.08%)
Scotts Miracle-Gro Co. SMG 3/31/2021 5.48 5.64 +0.16 (3.01%)
United Fire Group Inc. UFCS 3/31/2021 -0.32 -0.03 +0.29 (-90.54%)
Banco Latinoamericano de Comercio Exterior S.A. Cl E BLX 3/31/2021 0.40 0.32 -0.08 (-20.00%)
Astec Industries Inc. ASTE 3/31/2021 0.83 0.41 -0.42 (-50.45%)
EyePoint Pharmaceuticals Inc. EYPT 3/31/2021 -0.49 -0.50 -0.01 (1.35%)
Baudax Bio Inc. BXRX 3/31/2021 -0.19 -0.27 -0.08 (39.66%)
Donnelley Financial Solutions Inc. DFIN 3/31/2021 0.54 1.02 +0.49 (90.65%)
Editas Medicine Inc. EDIT 3/31/2021 -0.74 -0.86 -0.12 (15.62%)
Surgery Partners Inc. SGRY 3/31/2021 -0.37 -0.30 +0.07 (-19.19%)
MediWound Ltd. MDWD 3/31/2021 -0.11 -0.10 +0.01 (-10.45%)
Passage Bio Inc. PASG 3/31/2021 -0.73 -0.76 -0.03 (3.74%)
Reynolds Consumer Products Inc. REYN 3/31/2021 0.36 0.36 0.00 (-1.12%)
Chimera Investment Corp. CIM 3/31/2021 0.30 0.36 +0.06 (19.37%)
Superior Industries International Inc. SUP 3/31/2021 -0.27 0.36 +0.63 (-233.28%)
Performance Food Group Co. PFGC 3/31/2021 0.28 0.19 -0.09 (-33.10%)
New York Times Co. Cl A NYT 3/31/2021 0.12 0.26 +0.14 (110.92%)
New Senior Investment Group Inc. SNR 3/31/2021 -0.07 -0.09 -0.02 (28.57%)
Horizon Therapeutics PLC HZNP 3/31/2021 0.05 0.03 -0.02 (-36.97%)
Bruker Corp. BRKR 3/31/2021 0.33 0.44 +0.11 (34.58%)
Amryt Pharma PLC ADR AMYT 3/31/2021 -0.18 -0.45 -0.27 (150.00%)
Chiasma Inc. CHMA 3/31/2021 -0.31 -0.49 -0.18 (58.06%)
CyberArk Software Ltd. CYBR 3/31/2021 0.03 0.09 +0.06 (160.15%)
Kala Pharmaceuticals Inc. KALA 3/31/2021 -0.47 -0.49 -0.02 (3.54%)
Avista Corp. AVA 3/31/2021 0.84 0.98 +0.15 (17.37%)
InMode Ltd. INMD 3/31/2021 0.53 0.69 +0.16 (29.22%)
Stratasys Ltd. SSYS 3/31/2021 -0.07 -0.06 +0.01 (-16.67%)
Heat Biologics Inc. HTBX 3/31/2021 -0.27 -0.31 -0.04 (13.41%)
Arbutus Biopharma Corp. ABUS 3/31/2021 -0.23 -0.21 +0.02 (-9.26%)
MGP Ingredients Inc. MGPI 3/31/2021 0.60 1.01 +0.41 (69.04%)
Belden Inc. BDC 3/31/2021 0.66 0.94 +0.28 (43.11%)
Spirit AeroSystems Holdings Inc. Cl A SPR 3/31/2021 -0.86 -1.22 -0.36 (42.04%)
Public Service Enterprise Group Inc. PEG 3/31/2021 1.12 1.28 +0.16 (14.13%)
General Motors Co. GM 3/31/2021 1.05 2.25 +1.20 (113.64%)
Jones Lang LaSalle Inc. JLL 3/31/2021 0.66 2.10 +1.44 (216.81%)
Madison Square Garden Sports Corp. MSGS 3/31/2021 -1.67 0.22 +1.89 (-113.21%)
International Money Express Inc. IMXI 3/31/2021 0.27 0.27 +0.00 (0.12%)
Gibraltar Industries Inc. ROCK 3/31/2021 0.50 0.53 +0.03 (5.47%)
Sinclair Broadcast Group Inc. Cl A SBGI 3/31/2021 -1.83 -0.16 +1.67 (-91.26%)
Clean Harbors Inc. CLH 3/31/2021 0.25 0.42 +0.17 (65.89%)
Cerner Corp. CERN 3/31/2021 0.74 0.76 +0.02 (2.59%)
Marcus Corp. MCS 3/31/2021 -1.21 -0.96 +0.25 (-20.33%)
Physicians Realty Trust DOC 3/31/2021 0.08 0.08 0.00 (-3.03%)
Advanced Energy Industries Inc. AEIS 3/31/2021 1.26 1.29 +0.03 (2.21%)
BlackRock TCP Capital Corp. TCPC 3/31/2021 0.32 0.32 +0.00 (0.45%)
Hemisphere Media Group Inc. Cl A HMTV 3/31/2021 0.03 0.85 +0.82 (3280.00%)
Landmark Infrastructure Partners L.P. LMRK 3/31/2021 0.03 0.11 +0.08 (312.49%)
Establishment Labs Holdings Inc. ESTA 3/31/2021 -0.34 -0.29 +0.05 (-14.78%)
Ardmore Shipping Corp. ASC 3/31/2021 -0.30 -0.26 +0.04 (-14.00%)
CNH Industrial N.V. CNHI 3/31/2021 0.15 0.32 +0.17 (116.23%)
Clovis Oncology Inc. CLVS 3/31/2021 -0.72 -0.64 +0.08 (-10.90%)
Novo Nordisk A/S ADR NVO 3/31/2021 0.81 0.88 +0.07 (9.04%)
Atlas Air Worldwide Holdings AAWW 3/31/2021 1.78 2.45 +0.67 (37.90%)
Cumulus Media Inc. CMLS 3/31/2021 -1.50 -1.07 +0.43 (-28.51%)
Dine Brands Global Inc. DIN 3/31/2021 0.87 1.75 +0.88 (101.85%)
Veritiv Corp. VRTV 3/31/2021 0.02 1.96 +1.94 (9721.37%)
SunPower Corp. SPWR 3/31/2021 0.02 0.05 +0.03 (156.46%)
America First Multifamily Investors L.P. ATAX 3/31/2021 0.08 0.09 +0.01 (12.50%)
Stellantis N.V. STLA 3/31/2021 0.52 0.52 Met
Graham Holdings Co. GHC 3/31/2021 3.95 11.05 +7.10 (179.75%)
IEC Electronics Corp. IEC 3/31/2021 0.17 -0.03 -0.20 (-117.65%)
Pinnacle West Capital Corp. PNW 3/31/2021 0.26 0.32 +0.06 (25.08%)
Flex Ltd. FLEX 3/31/2021 0.36 0.49 +0.13 (36.26%)
Tejon Ranch Co. TRC 3/31/2021 -0.01 -0.04 -0.03 (300.00%)
Gerdau S/A ADR GGB 3/31/2021 0.27 0.27 +0.00 (0.18%)
SOS Ltd. ADR SOS 12/31/2020 47.20 N/A N/A
LENSAR Inc. LNSR 3/31/2021 -0.33 -0.56 -0.23 (69.70%)
General Finance Corp. GFN 3/31/2021 0.08 0.58 +0.50 (622.81%)
Standard Motor Products Inc. SMP 3/31/2021 0.54 0.97 +0.43 (80.75%)
Genmab A/S ADR GMAB 3/31/2021 0.05 0.27 +0.22 (485.18%)
United Overseas Bank Ltd. ADR UOVEY 3/31/2021 0.90 0.90 +0.01 (0.57%)
Tata Consumer Products Ltd. GDR Reg S TTAZF 3/31/2021 0.02 0.01 -0.02 (-66.77%)
Tata Consumer Products Ltd. GDR TTAEY 3/31/2021 0.02 0.01 -0.02 (-66.77%)
Rimini Street Inc. RMNI 3/31/2021 0.09 0.10 +0.01 (8.57%)
Stabilis Solutions Inc. SLNG 3/31/2021 -0.02 -0.02 Met
Root Inc. Cl A ROOT 3/31/2021 -0.45 -0.40 +0.05 (-10.27%)
Axogen Inc. AXGN 3/31/2021 -0.17 -0.08 +0.09 (-52.54%)
MorphoSys AG ADR MOR 3/31/2021 -0.41 -0.38 +0.03 (-6.84%)
Central Garden & Pet Co. Cl A CENTA 3/31/2021 1.10 1.32 +0.22 (20.27%)
Redfin Corp. RDFN 3/31/2021 -0.33 -0.37 -0.04 (11.92%)
Cognizant Technology Solutions Corp. CTSH 3/31/2021 0.94 0.97 +0.03 (3.17%)
Central Garden & Pet Co. CENT 3/31/2021 1.10 1.32 +0.22 (20.27%)
Supernus Pharmaceuticals Inc. SUPN 3/31/2021 0.29 0.11 -0.18 (-62.07%)
Rigel Pharmaceuticals Inc. RIGL 3/31/2021 0.00 0.22 +0.22 (4404.50%)
G1 Therapeutics Inc. GTHX 3/31/2021 -1.07 -0.65 +0.42 (-39.39%)
Mistras Group Inc. MG 3/31/2021 -0.13 -0.14 -0.01 (9.80%)
Cutera Inc. CUTR 3/31/2021 -0.22 -0.02 +0.20 (-90.83%)
Ampio Pharmaceuticals Inc. AMPE 3/31/2021 -0.02 -0.02 Met
Vanda Pharmaceuticals Inc. VNDA 3/31/2021 0.08 0.15 +0.07 (87.50%)
Accolade Inc. ACCD 2/28/2021 -0.09 -0.08 +0.01 (-7.44%)
Safe Bulkers Inc. SB 3/31/2021 0.11 0.14 +0.03 (26.63%)
Tivity Health Inc. TVTY 3/31/2021 0.32 0.40 +0.09 (26.98%)
Bandwidth Inc. Cl A BAND 3/31/2021 0.01 0.30 +0.29 (2900.00%)
Etsy Inc. ETSY 3/31/2021 0.88 1.00 +0.12 (13.23%)
Sana Biotechnology Inc. SANA 3/31/2021 -0.95 -1.51 -0.55 (58.19%)
Grand Canyon Education Inc. LOPE 3/31/2021 1.68 1.72 +0.04 (2.23%)
Everi Holdings Inc. EVRI 3/31/2021 0.05 0.21 +0.16 (343.08%)
Conformis Inc. CFMS 3/31/2021 -0.08 -0.09 -0.01 (19.75%)
Leslie's Inc. LESL 3/31/2021 -0.01 -0.01 Met
PetIQ Inc. Cl A PETQ 3/31/2021 0.14 0.39 +0.24 (172.69%)
Safety Insurance Group Inc. SAFT 3/31/2021 1.65 1.93 +0.28 (16.88%)
Global Medical REIT Inc. GMRE 3/31/2021 0.05 0.03 -0.02 (-34.78%)
Inotiv Inc. NOTV 3/31/2021 -0.03 -0.06 -0.03 (100.00%)
Kimball Electronics Inc. KE 3/31/2021 0.43 0.39 -0.04 (-9.30%)
PennantPark Investment Corp. PNNT 3/31/2021 0.13 0.13 Met
Trimble Inc. TRMB 3/31/2021 0.55 0.66 +0.11 (20.85%)
Nu Skin Enterprises Inc. Cl A NUS 3/31/2021 0.73 0.91 +0.18 (25.34%)
Lumos Pharma Inc. LUMO 3/31/2021 -1.04 -1.04 Met
Turning Point Therapeutics Inc. TPTX 3/31/2021 -0.61 -0.73 -0.12 (20.26%)
Amplify Energy Corp. AMPY 3/31/2021 0.10 -0.51 -0.61 (-610.00%)
Conduent Inc. CNDT 3/31/2021 0.11 0.15 +0.04 (39.27%)
GFL Environmental Inc. GFL 3/31/2021 -0.02 0.03 +0.05 (-304.27%)
WW International Inc. WW 3/31/2021 -0.25 -0.18 +0.07 (-29.09%)
CareDx Inc. CDNA 3/31/2021 -0.12 -0.01 +0.11 (-91.53%)
Republic Services Inc. RSG 3/31/2021 0.85 0.93 +0.08 (9.91%)
Allogene Therapeutics Inc. ALLO 3/31/2021 -0.46 -0.25 +0.21 (-45.85%)
Sarepta Therapeutics Inc. SRPT 3/31/2021 -1.83 -2.10 -0.27 (14.89%)
Entasis Therapeutics Holdings Ltd. ETTX 3/31/2021 -0.29 -0.29 Met
Kratos Defense & Security Solutions Inc. KTOS 3/31/2021 -0.02 0.01 +0.03 (-147.06%)
ADT Inc. ADT 3/31/2021 0.14 0.04 -0.10 (-70.83%)
Twilio Inc. Cl A TWLO 3/31/2021 -0.10 0.05 +0.15 (-148.67%)
SLR Investment Corp. SLRC 3/31/2021 0.36 0.37 +0.01 (1.97%)
Amtech Systems Inc. ASYS 3/31/2021 -0.02 -0.02 Met
Schweitzer-Mauduit International Inc. SWM 3/31/2021 1.02 1.02 Met
One Liberty Properties Inc. OLP 3/31/2021 0.17 0.13 -0.04 (-23.53%)
Adaptive Biotechnologies Corp. ADPT 3/31/2021 -0.40 -0.29 +0.11 (-27.73%)
Ping Identity Holding Corp. PING 3/31/2021 0.03 0.04 +0.01 (29.73%)
Palomar Holdings Inc. PLMR 3/31/2021 0.48 0.73 +0.25 (51.51%)
Encore Capital Group Inc. ECPG 3/31/2021 1.93 2.97 +1.04 (53.69%)
SLR Senior Investment Corp. SUNS 3/31/2021 0.30 0.20 -0.10 (-33.33%)
TRACON Pharmaceuticals Inc. TCON 3/31/2021 -0.31 -0.33 -0.02 (7.91%)
Alector Inc. ALEC 3/31/2021 -0.69 -0.66 +0.03 (-4.58%)
OrthoPediatrics Corp. KIDS 3/31/2021 -0.27 -0.25 +0.02 (-6.11%)
Hudson Technologies Inc. HDSN 3/31/2021 -0.04 -0.02 +0.02 (-50.00%)
Hub Group Inc. Cl A HUBG 3/31/2021 0.45 0.51 +0.06 (14.17%)
Qorvo Inc. QRVO 3/31/2021 2.43 2.74 +0.31 (12.69%)
Rayonier Inc. RYN 3/31/2021 0.08 0.08 Met
Global Blood Therapeutics Inc. GBT 3/31/2021 -1.01 -1.21 -0.20 (20.03%)
Century Aluminum Co. CENX 3/31/2021 -0.45 -0.54 -0.09 (20.00%)
Soleno Therapeutics Inc. SLNO 3/31/2021 -0.08 -0.11 -0.03 (43.48%)
Talend S.A. ADR TLND 3/31/2021 -0.11 -0.11 Met
SuRo Capital Corp. SSSS 3/31/2021 1.78 4.50 +2.72 (152.89%)
Emcore Corp. EMKR 3/31/2021 0.11 0.17 +0.06 (54.55%)
OraSure Technologies Inc. OSUR 3/31/2021 0.04 0.05 +0.01 (13.07%)
Fate Therapeutics Inc. FATE 3/31/2021 -0.43 -0.48 -0.05 (10.44%)
10x Genomics Inc. TXG 3/31/2021 -0.27 -0.11 +0.16 (-59.75%)
PennantPark Floating Rate Capital Ltd. PFLT 3/31/2021 0.27 0.26 -0.01 (-2.99%)
Saratoga Investment Corp. SAR 2/28/2021 0.50 0.38 -0.12 (-24.30%)
Avid Technology Inc. AVID 3/31/2021 0.21 0.28 +0.07 (36.27%)
Callon Petroleum Co. CPE 3/31/2021 0.95 1.49 +0.54 (57.60%)
NuVasive Inc. NUVA 3/31/2021 0.35 0.37 +0.02 (5.82%)
SunRun Inc. RUN 3/31/2021 -0.05 -0.12 -0.07 (130.01%)
Yellow Corp. YELL 3/31/2021 -0.51 -1.34 -0.83 (163.05%)
ACRES Commercial Realty Corp. ACR 3/31/2021 0.10 0.10 Met
Rocket Cos. Inc. RKT 3/31/2021 0.90 0.89 -0.01 (-0.70%)
Barrett Business Services Inc. BBSI 3/31/2021 -0.67 -0.60 +0.07 (-9.77%)
James River Group Holdings Ltd. JRVR 3/31/2021 0.59 -3.54 -4.13 (-699.57%)
LHC Group LHCG 3/31/2021 1.25 1.39 +0.14 (11.22%)
Fox Corp. Cl A FOXA 3/31/2021 0.58 0.88 +0.30 (51.79%)
ProAssurance Corp. PRA 3/31/2021 0.02 0.04 +0.02 (112.96%)
Lincoln National Corp. LNC 3/31/2021 1.49 1.82 +0.33 (22.27%)
Marathon Oil Corp. MRO 3/31/2021 0.11 0.21 +0.10 (92.40%)
Federal Realty Investment Trust FRT 3/31/2021 0.21 0.60 +0.39 (189.37%)
Liberty Global PLC Cl A LBTYA 3/31/2021 0.12 2.51 +2.39 (1920.85%)
REGENXBIO Inc. RGNX 3/31/2021 -1.28 -1.20 +0.08 (-6.41%)
Invesco Mortgage Capital Inc. IVR 3/31/2021 0.09 0.11 +0.02 (23.71%)
Liberty Global PLC Cl B LBTYB 3/31/2021 0.12 2.51 +2.39 (1920.85%)
EPR Properties EPR 3/31/2021 -0.21 -0.04 +0.17 (-81.38%)
Liberty Global PLC Cl C LBTYK 3/31/2021 0.12 2.51 +2.39 (1920.85%)
Cimarex Energy Co. XEC 3/31/2021 2.04 1.98 -0.06 (-2.77%)
HubSpot Inc. HUBS 3/31/2021 0.29 0.31 +0.02 (6.01%)
DCP Midstream L.P. DCP 3/31/2021 0.30 0.19 -0.11 (-37.18%)
Lumen Technologies Inc. LUMN 3/31/2021 0.41 0.44 +0.03 (7.97%)
Zymeworks Inc. ZYME 3/31/2021 -0.87 -0.87 Met
Fox Corp. Cl B FOX 3/31/2021 0.58 0.88 +0.30 (51.02%)
QuinStreet Inc. QNST 3/31/2021 0.16 0.20 +0.04 (25.00%)
Neurocrine Biosciences Inc. NBIX 3/31/2021 0.53 0.33 -0.20 (-37.45%)
Envista Holdings Corp. NVST 3/31/2021 0.32 0.54 +0.22 (70.53%)
Heritage Insurance Holdings Inc. HRTG 3/31/2021 -0.12 -0.19 -0.07 (52.35%)
Turtle Beach Corp. HEAR 3/31/2021 0.46 0.52 +0.06 (13.87%)
Playa Hotels & Resorts N.V. PLYA 3/31/2021 -0.43 -0.43 Met
Apollo Medical Holdings Inc. AMEH 3/31/2021 0.22 0.30 +0.08 (36.36%)
Nevro Corp. NVRO 3/31/2021 -0.85 -0.85 0.00 (0.40%)
Synthetic Biologics Inc. SYN 3/31/2021 -0.02 -0.13 -0.11 (550.00%)
GoDaddy Inc. Cl A GDDY 3/31/2021 0.06 0.06 Met
Aviat Networks Inc. AVNW 3/31/2021 0.37 0.49 +0.12 (33.33%)
Innovative Industrial Properties Inc. IIPR 3/31/2021 0.97 1.05 +0.08 (8.02%)
Forrester Research Inc. FORR 3/31/2021 0.18 0.45 +0.27 (154.72%)
SilverBow Resources Inc. SBOW 3/31/2021 2.20 1.93 -0.27 (-12.40%)
Arlo Technologies Inc. ARLO 3/31/2021 -0.21 -0.03 +0.18 (-85.71%)
Upland Software Inc. UPLD 3/31/2021 0.40 0.60 +0.20 (49.07%)
Zix Corp. ZIXI 3/31/2021 0.15 0.15 0.00 (-1.32%)
Aerie Pharmaceuticals Inc. AERI 3/31/2021 -0.73 -0.72 +0.01 (-1.32%)
Tandem Diabetes Care Inc. TNDM 3/31/2021 -0.08 -0.08 Met
bluebird bio Inc. BLUE 3/31/2021 -3.02 -3.07 -0.05 (1.70%)
Evolent Health Inc. Cl A EVH 3/31/2021 -0.07 -0.01 +0.06 (-84.62%)
Sabra Healthcare REIT Inc. SBRA 3/31/2021 0.17 0.16 -0.01 (-7.25%)
Clearwater Paper Corp. CLW 3/31/2021 0.87 0.69 -0.18 (-20.99%)
Bloom Energy Corp. BE 3/31/2021 -0.07 -0.07 +0.00 (-3.08%)
Whiting Petroleum Corp. WLL 3/31/2021 1.63 2.79 +1.17 (71.69%)
Digi International Inc. DGII 3/31/2021 0.09 0.09 Met
Xencor Inc. XNCR 3/31/2021 -0.67 -0.04 +0.63 (-94.05%)
Hanger Inc. HNGR 3/31/2021 -0.24 -0.08 +0.16 (-65.96%)
Outset Medical Inc. OM 3/31/2021 -0.80 -0.56 +0.24 (-30.29%)
Ellington Financial Inc. EFC 3/31/2021 0.58 0.86 +0.28 (47.30%)
Myomo Inc. MYO 3/31/2021 -0.67 -0.57 +0.10 (-14.29%)
Personalis Inc. PSNL 3/31/2021 -0.36 -0.29 +0.07 (-18.89%)
Vapotherm Inc. VAPO 3/31/2021 -0.43 -0.30 +0.13 (-31.18%)
Glaukos Corp. GKOS 3/31/2021 -0.31 -0.21 +0.10 (-31.43%)
Warrior Met Coal Inc. HCC 3/31/2021 0.08 0.08 Met
FleetCor Technologies Inc. FLT 3/31/2021 2.72 2.82 +0.10 (3.53%)
Arena Pharmaceuticals Inc. ARNA 3/31/2021 -1.98 -1.98 Met
Xperi Holding Corp. XPER 3/31/2021 0.47 0.59 +0.12 (26.61%)
Staar Surgical Co. STAA 3/31/2021 0.03 0.20 +0.17 (500.01%)
Alpha & Omega Semiconductor Inc. AOSL 3/31/2021 0.55 0.77 +0.22 (40.00%)
ACADIA Pharmaceuticals Inc. ACAD 3/31/2021 -0.53 -0.42 +0.11 (-20.74%)
Bright Horizons Family Solutions Inc. BFAM 3/31/2021 0.14 0.23 +0.09 (64.17%)
Manitowoc Co. MTW 3/31/2021 0.00 -0.09 -0.09 (-166766.67%)
Quanterix Corp. QTRX 3/31/2021 -0.29 -0.29 Met
Quotient Technology Inc. QUOT 3/31/2021 -0.15 -0.15 Met
Inseego Corp. INSG 3/31/2021 -0.10 -0.08 +0.02 (-16.67%)
Smith Micro Software Inc. SMSI 3/31/2021 0.01 0.02 +0.01 (166.67%)
Arcus Biosciences Inc. RCUS 3/31/2021 -0.86 -1.08 -0.22 (26.19%)
Par Pacific Holdings Inc. PARR 3/31/2021 -1.42 -1.55 -0.13 (9.09%)
DLH Holdings Corp. DLHC 3/31/2021 0.14 0.19 +0.05 (37.40%)
Colony Credit Real Estate Inc. Cl A CLNC 3/31/2021 0.12 0.14 +0.02 (16.67%)
Ocular Therapeutix Inc. OCUL 3/31/2021 -0.21 -0.24 -0.03 (16.13%)
Uber Technologies Inc. UBER 3/31/2021 -0.56 -0.06 +0.50 (-89.26%)
United Insurance Holdings Corp. UIHC 3/31/2021 -0.57 -0.45 +0.12 (-20.75%)
Cubic Corp. CUB 3/31/2021 0.31 0.15 -0.16 (-51.61%)
Golden Star Resources Ltd. GSS 3/31/2021 0.10 0.04 -0.06 (-61.76%)
RPT Realty RPT 3/31/2021 -0.07 0.19 +0.26 (-359.42%)
INmune Bio Inc. INMB 3/31/2021 -0.27 -0.32 -0.05 (17.46%)
Royal Gold Inc. RGLD 3/31/2021 0.79 0.84 +0.05 (6.53%)
Gildan Activewear Inc. GIL 3/31/2021 0.19 0.48 +0.29 (159.11%)
CoreCivic Inc. CXW 3/31/2021 0.24 0.24 Met
Greenlight Capital Re Ltd. Cl A GLRE 3/31/2021 0.05 0.19 +0.14 (250.82%)
Kronos Worldwide Inc. KRO 3/31/2021 0.22 0.17 -0.05 (-24.31%)
Profire Energy Inc. PFIE 3/31/2021 -0.01 0.00 +0.01 (-100.00%)
DHI Group Inc. DHX 3/31/2021 0.03 0.05 +0.02 (66.67%)
Middlesex Water Co. MSEX 3/31/2021 0.46 0.39 -0.07 (-15.22%)
ION Geophysical Corp. IO 3/31/2021 -0.61 -0.95 -0.34 (55.74%)
PDC Energy Inc. PDCE 3/31/2021 0.89 1.41 +0.52 (57.58%)
Tanger Factory Outlet Centers Inc. SKT 3/31/2021 0.07 0.04 -0.03 (-40.54%)
Ceridian HCM Holding Inc. CDAY 3/31/2021 0.09 0.09 +0.00 (2.32%)
vTv Therapeutics Inc. Cl A VTVT 3/31/2021 -0.06 -0.08 -0.02 (33.33%)
Albemarle Corp. ALB 3/31/2021 0.80 1.10 +0.30 (38.09%)
Qualys Inc. QLYS 3/31/2021 0.68 0.74 +0.06 (8.08%)
Unum Group UNM 3/31/2021 0.98 1.04 +0.06 (5.89%)
Marriott Vacations Worldwide Corp. VAC 3/31/2021 -0.30 -0.49 -0.19 (60.95%)
Fair Isaac Corp. FICO 3/31/2021 2.66 3.06 +0.40 (14.95%)
Lannett Co. Inc. LCI 3/31/2021 -0.04 0.02 +0.06 (-155.56%)
Kennedy-Wilson Holdings Inc. KW 3/31/2021 -0.06 -0.04 +0.02 (-35.93%)
Tutor Perini Corp. TPC 3/31/2021 0.22 0.31 +0.09 (43.31%)
Invacare Corp. IVC 3/31/2021 -0.34 -0.36 -0.02 (4.85%)
Essential Utilities Inc. WTRG 3/31/2021 0.66 0.72 +0.06 (9.09%)
Allied Motion Technologies Inc. AMOT 3/31/2021 0.20 0.32 +0.12 (60.00%)
Curtiss-Wright Corp. CW 3/31/2021 1.30 1.51 +0.21 (16.09%)
Spirit Realty Capital Inc. SRC 3/31/2021 0.22 -0.04 -0.26 (-118.04%)
Equitable Holdings Inc. EQH 3/31/2021 1.27 1.35 +0.08 (6.17%)
Cross Country Healthcare Inc. CCRN 3/31/2021 0.34 0.58 +0.24 (69.85%)
Ezcorp Inc. Cl A EZPW 3/31/2021 0.08 0.17 +0.10 (126.67%)
Two Harbors Investment Corp. TWO 3/31/2021 0.23 0.17 -0.06 (-26.85%)
Earthstone Energy Inc. Cl A ESTE 3/31/2021 0.04 0.17 +0.13 (295.48%)
Crawford & Co. Cl A CRD.A 3/31/2021 0.15 0.15 Met
Crawford & Co. Cl B CRD.B 3/31/2021 0.15 0.15 Met
TriplePoint Venture Growth BDC Corp. TPVG 3/31/2021 0.37 0.29 -0.08 (-20.77%)
Primerica Inc. PRI 3/31/2021 2.38 2.44 +0.06 (2.52%)
MDU Resources Group Inc. MDU 3/31/2021 0.15 0.26 +0.11 (71.41%)
MetLife Inc. MET 3/31/2021 1.53 2.20 +0.67 (43.65%)
Diamedica Therapeutics Inc. DMAC 3/31/2021 -0.21 -0.19 +0.02 (-10.94%)
Five Star Senior Living Inc. FVE 3/31/2021 0.03 0.10 +0.07 (245.44%)
Hamilton Beach Brands Holding Co. Cl A HBB 3/31/2021 0.16 0.21 +0.05 (31.25%)
Laredo Petroleum Inc. LPI 3/31/2021 1.76 1.69 -0.07 (-3.80%)
Ansys Inc. ANSS 3/31/2021 0.84 1.12 +0.28 (33.17%)
Diversified Healthcare Trust DHC 3/31/2021 -0.25 -0.24 +0.01 (-4.09%)
Ortho Clinical Diagnostics Holdings PLC OCDX 3/31/2021 0.16 0.26 +0.10 (61.58%)
Weatherford International PLC WFTLF 3/31/2021 -1.20 -1.66 -0.46 (38.73%)
FMC Corp. FMC 3/31/2021 1.51 1.53 +0.02 (1.30%)
Ormat Technologies Inc. ORA 3/31/2021 0.41 0.27 -0.14 (-33.54%)
Q2 Holdings Inc. QTWO 3/31/2021 0.08 0.10 +0.02 (20.33%)
Neenah Inc. NP 3/31/2021 0.86 1.04 +0.19 (21.64%)
MGIC Investment Corp. MTG 3/31/2021 0.42 0.42 +0.00 (0.60%)
Green Dot Corp. Cl A GDOT 3/31/2021 0.87 0.83 -0.04 (-4.78%)
RLJ Lodging Trust RLJ 3/31/2021 -0.51 -0.51 +0.00 (-0.57%)
Pactiv Evergreen Inc. PTVE 3/31/2021 0.07 -0.07 -0.14 (-202.23%)
Atmos Energy Corp. ATO 3/31/2021 2.05 2.30 +0.25 (12.43%)
Liberty Latin America Ltd. Cl A LILA 3/31/2021 -0.10 0.38 +0.48 (-500.00%)
Liberty Latin America Ltd. Cl B LILAB 3/31/2021 -0.10 0.38 +0.48 (-500.00%)
Liberty Latin America Ltd. Cl C LILAK 3/31/2021 -0.03 0.38 +0.41 (-1295.53%)
PayPal Holdings Inc. PYPL 3/31/2021 1.01 1.22 +0.21 (20.26%)
Zynga Inc. Cl A ZNGA 3/31/2021 0.09 0.08 -0.01 (-8.18%)
Ryerson Holding Corp. RYI 3/31/2021 0.45 0.26 -0.19 (-42.22%)
Genco Shipping & Trading Ltd. GNK 3/31/2021 0.05 0.06 +0.01 (18.89%)
Vector Group Ltd. VGR 3/31/2021 0.29 0.29 Met
Copa Holdings S.A. Cl A CPA 3/31/2021 -2.23 -2.23 Met
Cactus Inc. Cl A WHD 3/31/2021 0.10 0.11 +0.01 (5.16%)
CF Industries Holdings Inc. CF 3/31/2021 0.59 0.67 +0.09 (14.90%)
South Jersey Industries Inc. SJI 3/31/2021 1.20 1.26 +0.06 (4.90%)
Franco-Nevada Corp. FNV 3/31/2021 0.80 0.84 +0.04 (5.17%)
Ranger Energy Services Inc. Cl A RNGR 3/31/2021 -0.34 -0.54 -0.20 (58.48%)
Companhia Paranaense de Energia-COPEL ADR ELP 3/31/2021 0.20 0.17 -0.03 (-13.08%)
OTC Markets Group Inc. Cl A OTCM 3/31/2021 0.39 0.82 +0.43 (110.26%)
Companhia Brasileira de Distribuicao Grupo Pao de Acucar ADR CBD 3/31/2021 0.01 0.00 -0.01 (-67.59%)
Tim S/A ADR TIMB 3/31/2021 0.13 0.12 -0.01 (-5.68%)
Healthcare Realty Trust Inc. HR 3/31/2021 0.06 0.17 +0.11 (194.82%)
Ultrapar Participacoes S/A ADR UGP 3/31/2021 0.04 0.03 -0.01 (-19.15%)
Stantec Inc. STN 3/31/2021 0.41 0.41 +0.00 (0.88%)
Hudson Pacific Properties Inc. HPP 3/31/2021 -0.01 0.03 +0.04 (-700.00%)
EQT Corp. EQT 3/31/2021 0.26 0.30 +0.04 (16.99%)
Sun Life Financial Inc. SLF 3/31/2021 1.17 1.19 +0.02 (1.67%)
Owl Rock Capital Corp. ORCC 3/31/2021 0.29 0.26 -0.03 (-10.03%)
DIRTT Environmental Solutions Ltd. DRTT 3/31/2021 -0.06 -0.15 -0.09 (150.00%)
Manulife Financial Corp. MFC 3/31/2021 0.62 0.67 +0.06 (9.33%)
Galiano Gold Inc. GAU 3/31/2021 0.04 0.06 +0.02 (43.37%)
Sturm Ruger & Co. RGR 3/31/2021 1.44 2.16 +0.73 (50.52%)
Air Transport Services Group Inc. ATSG 3/31/2021 0.27 0.19 -0.08 (-28.30%)
New Mountain Finance Corp. NMFC 3/31/2021 0.30 0.30 Met
American Equity Investment Life Holding Co. AEL 3/31/2021 0.59 0.43 -0.16 (-27.66%)
Bain Capital Specialty Finance Inc. BCSF 3/31/2021 0.34 0.34 0.00 (-0.23%)
Talos Energy Inc. TALO 3/31/2021 -0.17 -0.34 -0.17 (101.48%)
Taseko Mines Ltd. TGB 3/31/2021 0.00 -0.02 -0.01 (453.51%)
Intelsat S.A. INTEQ 3/31/2021 -0.60 -1.23 -0.63 (105.00%)
Primoris Services Corp. PRIM 3/31/2021 -0.08 0.12 +0.20 (-257.89%)
Rent-A-Center Inc. RCII 3/31/2021 1.12 1.32 +0.20 (17.41%)
MercadoLibre Inc. MELI 3/31/2021 0.03 -0.68 -0.71 (-2357.34%)
Western Asset Mortgage Capital Corp. WMC 3/31/2021 0.08 0.10 +0.02 (20.00%)
Global Indemnity Group LLC GBLI 3/31/2021 0.05 0.09 +0.04 (64.93%)
Falcon Minerals Corp. FLMN 3/31/2021 0.03 -0.03 -0.06 (-185.81%)
Coloplast A/S ADR CLPBY 3/31/2021 0.09 0.10 +0.01 (9.94%)
Silicon Motion Technology Corp. ADR SIMO 3/31/2021 0.97 1.11 +0.14 (14.76%)
Regis Corp. RGS 3/31/2021 -0.70 -0.70 Met
UGI Corp. UGI 3/31/2021 1.73 1.99 +0.26 (15.19%)
Alamo Group Inc. ALG 3/31/2021 1.39 1.47 +0.08 (5.76%)
Atento S.A. ATTO 3/31/2021 -0.04 -0.70 -0.66 (1650.00%)
Booking Holdings Inc. BKNG 3/31/2021 -5.97 -5.26 +0.71 (-11.93%)
Arc Resources Ltd. AETUF 3/31/2021 0.17 0.41 +0.24 (138.61%)
GeoPark Ltd. GPRK 3/31/2021 0.43 -0.17 -0.60 (-139.15%)
CMC Materials Inc. CCMP 3/31/2021 1.94 1.71 -0.23 (-11.85%)
Fastly Inc. Cl A FSLY 3/31/2021 -0.11 -0.12 -0.01 (9.15%)
TechTarget Inc. TTGT 3/31/2021 0.37 0.44 +0.07 (19.73%)
CSG Systems International Inc. CSGS 3/31/2021 0.78 0.82 +0.04 (5.13%)
Ashford Inc. AINC 3/31/2021 0.46 0.65 +0.19 (41.30%)
Braemar Hotels & Resorts Inc. BHR 3/31/2021 -0.76 -0.28 +0.48 (-63.16%)
Altus Midstream Co. ALTM 3/31/2021 0.79 0.25 -0.54 (-68.25%)
Allstate Corp. ALL 3/31/2021 3.93 6.11 +2.18 (55.63%)
BanColombia S.A. ADR CIB 3/31/2021 0.28 0.59 +0.31 (111.72%)
Company Name Symbol Fiscal Quarter EPS Forecast EPS Actual Surprise
Volkswagen AG 1/10th ADR VWAGY 3/31/2021 0.84 0.78 -0.06 (-7.36%)
Bank Polska Kasa Opieki S.A. GDR Reg S PKSVF 3/31/2021 0.22 0.22 Met
Volkswagen AG ADR Pfd. VWAPY 3/31/2021 0.84 0.78 -0.06 (-7.36%)
Bank Polska Kasa Opieki S.A. GDR 144A PKSKY 3/31/2021 0.22 0.22 Met
Haci Omer Sabanci Holding S.A. ADR 144A HOSZY 3/31/2021 0.02 0.02 Met
Haci Omer Sabanci Holding S.A. ADR Reg S HOSXF 3/31/2021 0.02 0.02 Met
Adtran Inc. ADTN 3/31/2021 0.04 0.13 +0.09 (205.88%)
Intesa Sanpaolo S.p.A. ADR ISNPY 3/31/2021 0.40 0.40 Met
Global Water Resources Inc. GWRS 3/31/2021 -0.01 0.00 +0.01 (-50.47%)
Kulicke & Soffa Industries Inc. KLIC 3/31/2021 1.14 1.26 +0.12 (10.14%)
Professional Holding Corp. Cl A PFHD 3/31/2021 0.35 0.34 -0.01 (-3.55%)
Great Panther Mining Ltd. GPL 3/31/2021 0.03 0.00 -0.03 (-100.00%)
Societe Generale (France) ADR SCGLY 3/31/2021 0.04 0.20 +0.16 (431.92%)
ING Groep N.V. ADR ING 3/31/2021 0.25 0.31 +0.07 (26.63%)
Fiverr International Ltd. FVRR 3/31/2021 -0.11 -0.01 +0.10 (-91.26%)
ObsEva S.A. OBSV 3/31/2021 -0.28 -0.29 -0.01 (4.26%)
Zalando SE ADR ZLNDY 3/31/2021 0.05 0.08 +0.03 (66.10%)
Schibsted ASA SBSNF 3/31/2021 0.14 0.17 +0.03 (23.34%)
Arkema ADR ARKAY 3/31/2021 2.03 2.50 +0.46 (22.88%)
ArcelorMittal ADR MT 3/31/2021 1.59 1.93 +0.34 (21.34%)
Air France-KLM ADR AFLYY 3/31/2021 -2.40 -4.16 -1.76 (73.55%)
Braskem S/A ADR BAK 3/31/2021 1.05 1.19 +0.15 (14.05%)
Muenchener Rueckversicherungs-Gesellschaft AG ADR MURGY 3/31/2021 0.42 0.51 +0.09 (21.89%)
Anheuser-Busch InBev S.A. ADR BUD 3/31/2021 0.50 0.51 +0.01 (1.59%)
Gold Fields Ltd. ADR GFI 3/31/2021 0.64 N/A N/A
Euronav N.V. EURN 3/31/2021 -0.35 -0.35 +0.00 (-0.47%)
ICL Group Ltd. ICL 3/31/2021 0.07 0.11 +0.04 (63.48%)
Nintendo Co. Ltd. ADR NTDOY 3/31/2021 0.65 1.00 +0.35 (54.45%)
Fresenius Medical Care AG & Co. KGaA ADR FMS 3/31/2021 0.47 0.51 +0.04 (7.95%)
Hecla Mining Co. HL 3/31/2021 0.04 0.06 +0.02 (59.37%)
Henkel AG & Co. KGaA ADR HENKY 3/31/2021 0.37 0.38 +0.01 (3.99%)
Henkel AG & Co. KGaA Pfd. ADR HENOY 3/31/2021 0.37 0.38 +0.01 (3.99%)
Continental AG CTTAF 3/31/2021 1.97 2.70 +0.73 (36.89%)
Continental AG ADR CTTAY 3/31/2021 0.20 0.27 +0.07 (36.89%)
Magna International Inc. MGA 3/31/2021 1.58 1.86 +0.28 (17.65%)
Vista Outdoor Inc. VSTO 3/31/2021 0.67 1.02 +0.35 (52.24%)
Iron Mountain Inc. IRM 3/31/2021 0.29 0.32 +0.03 (11.41%)
Deluxe Corp. DLX 3/31/2021 1.14 1.26 +0.13 (11.01%)
Prestige Consumer Healthcare Inc. PBH 3/31/2021 0.79 0.79 Met
Venator Materials PLC VNTR 3/31/2021 0.03 0.01 -0.02 (-70.50%)
Edgewell Personal Care Co. EPC 3/31/2021 0.59 0.70 +0.11 (18.64%)
Home Point Capital Inc. HMPT 3/31/2021 0.78 0.63 -0.15 (-19.72%)
W.R. Grace & Co. GRA 3/31/2021 0.73 0.73 0.00 (-0.64%)
DigitalOcean Holdings Inc. DOCN 3/31/2021 0.01 0.03 +0.02 (223.87%)
Clearway Energy Inc. Cl C CWEN 3/31/2021 -0.18 0.42 +0.60 (-333.47%)
Clearway Energy Inc. Cl A CWEN.A 3/31/2021 -0.18 0.42 +0.60 (-333.47%)
Core-Mark Holding Co. Inc. CORE 3/31/2021 0.22 0.36 +0.14 (65.52%)
22nd Century Group Inc. XXII 3/31/2021 -0.03 -0.03 Met
Sprague Resources LP SRLP 3/31/2021 0.77 1.82 +1.05 (136.99%)
Targa Resources Corp. TRGP 3/31/2021 0.15 0.55 +0.40 (266.75%)
Dentsply Sirona Inc. XRAY 3/31/2021 0.57 0.72 +0.15 (26.38%)
U.S. Concrete Inc. USCR 3/31/2021 -0.29 -0.29 +0.00 (-0.85%)
Bio-Techne Corp. TECH 3/31/2021 1.55 1.79 +0.24 (15.35%)
Linde PLC LIN 3/31/2021 2.26 2.49 +0.23 (10.34%)
Transphorm Inc. TGAN 3/31/2021 -0.12 -0.12 Met
Maximus Inc. MMS 3/31/2021 0.82 1.29 +0.47 (56.60%)
PAE Inc. Cl A PAE 3/31/2021 0.11 0.14 +0.03 (25.40%)
AES Corp. AES 3/31/2021 0.30 0.28 -0.02 (-7.11%)
Becton Dickinson & Co. BDX 3/31/2021 3.04 3.19 +0.15 (4.93%)
Regeneron Pharmaceuticals Inc. REGN 3/31/2021 8.68 9.89 +1.21 (13.88%)
Kirkland Lake Gold Ltd. KL 3/31/2021 0.67 0.63 -0.04 (-5.97%)
SeaWorld Entertainment Inc. SEAS 3/31/2021 -0.78 -0.57 +0.21 (-26.47%)
Immunic Inc. IMUX 3/31/2021 -0.70 -1.63 -0.94 (134.53%)
SpringWorks Therapeutics Inc. SWTX 3/31/2021 -0.51 -0.62 -0.11 (21.57%)
InfuSystems Holdings Inc. INFU 3/31/2021 0.04 0.03 -0.01 (-25.00%)
SEACOR Marine Holdings Inc. SMHI 3/31/2021 -0.68 -0.67 +0.01 (-1.47%)
Denbury Inc. DEN 3/31/2021 0.24 0.44 +0.20 (85.89%)
Goodrich Petroleum Corp. GDP 3/31/2021 0.39 0.47 +0.08 (21.45%)
EchoStar Corp. SATS 3/31/2021 -0.05 0.00 +0.05 (-98.41%)
Quarterhill Inc. QTRHF 3/31/2021 -0.03 -0.03 0.00 (3.10%)
Xenia Hotels & Resorts Inc. XHR 3/31/2021 -0.55 -0.50 +0.05 (-8.35%)
Ball Corp. BLL 3/31/2021 0.67 0.72 +0.05 (6.93%)
EPAM Systems Inc. EPAM 3/31/2021 1.69 1.81 +0.12 (7.40%)
Global Net Lease Inc. GNL 3/31/2021 0.01 -0.01 -0.02 (-300.00%)
GP Strategies Corp. GPX 3/31/2021 0.16 0.24 +0.08 (50.00%)
Epizyme Inc. EPZM 3/31/2021 -0.57 -0.69 -0.12 (20.20%)
Nielsen Holdings PLC NLSN 3/31/2021 0.32 0.47 +0.15 (47.37%)
VEREIT Inc. VER 3/31/2021 0.30 0.50 +0.20 (69.42%)
BrightView Holdings Inc. BV 3/31/2021 0.11 0.26 +0.15 (134.05%)
CenterPoint Energy Inc. CNP 3/31/2021 0.54 0.59 +0.05 (9.07%)
Allete Inc. ALE 3/31/2021 1.09 0.99 -0.10 (-8.84%)
Walker & Dunlop Inc. WD 3/31/2021 1.94 1.79 -0.15 (-7.73%)
Nine Energy Service Inc. NINE 3/31/2021 -0.71 -0.85 -0.14 (20.06%)
Titan International Inc. TWI 3/31/2021 0.06 0.07 +0.01 (16.67%)
State Auto Financial Corp. STFC 3/31/2021 -0.62 -0.61 +0.01 (-1.28%)
Myers Industries Inc. MYE 3/31/2021 0.18 0.22 +0.04 (22.22%)
Triple-S Management Corp. GTS 3/31/2021 0.76 0.67 -0.09 (-11.84%)
ACI Worldwide Inc. ACIW 3/31/2021 -0.12 -0.02 +0.10 (-83.05%)
CommScope Holding Co. Inc. COMM 3/31/2021 0.29 0.36 +0.07 (22.59%)
Proto Labs Inc. PRLB 3/31/2021 0.42 0.40 -0.02 (-4.76%)
Astronics Corp. Cl B ATROB 3/31/2021 -0.10 -0.39 -0.29 (273.70%)
Astronics Corp. ATRO 3/31/2021 -0.10 -0.39 -0.29 (273.70%)
Blue Apron Holdings Inc. APRN 3/31/2021 -0.86 -0.88 -0.02 (2.33%)
Vontier Corp. VNT 3/31/2021 0.55 0.63 +0.08 (14.01%)
AG Mortgage Investment Trust Inc. MITT 3/31/2021 0.15 0.08 -0.07 (-45.94%)
PQ Group Holdings Inc. PQG 3/31/2021 0.00 0.04 +0.04 (2531.58%)
Welbilt Inc. WBT 3/31/2021 0.03 0.08 +0.05 (174.96%)
Karuna Therapeutics Inc. KRTX 3/31/2021 -1.13 -1.10 +0.03 (-2.74%)
Wesco International Inc. WCC 3/31/2021 0.80 1.43 +0.63 (77.82%)
AdaptHealth Corp. Cl A AHCO 3/31/2021 0.25 -0.08 -0.33 (-131.88%)
Murphy Oil Corp. MUR 3/31/2021 -0.12 0.06 +0.18 (-149.47%)
Tapestry Inc. TPR 3/31/2021 0.31 0.51 +0.20 (63.08%)
Nomad Foods Ltd. NOMD 3/31/2021 0.39 0.47 +0.08 (20.42%)
TopBuild Corp. BLD 3/31/2021 1.95 2.02 +0.07 (3.36%)
BGSF Inc. BGSF 3/31/2021 0.16 0.16 +0.01 (3.23%)
Sally Beauty Holdings Inc. SBH 3/31/2021 0.15 0.57 +0.42 (287.38%)
Aptiv PLC APTV 3/31/2021 0.79 1.06 +0.27 (34.75%)
Reata Pharmaceuticals Inc. Cl A RETA 3/31/2021 -2.09 -1.86 +0.23 (-10.86%)
ChannelAdvisor Corp. ECOM 3/31/2021 0.17 0.24 +0.06 (37.31%)
International Seaways Inc. INSW 3/31/2021 -0.62 -0.48 +0.14 (-22.88%)
STORE Capital Corp. STOR 3/31/2021 0.22 0.21 -0.01 (-5.97%)
Liquidity Services Inc. LQDT 3/31/2021 0.11 0.19 +0.08 (72.73%)
Adient PLC ADNT 3/31/2021 0.55 1.15 +0.60 (107.43%)
Golden Minerals Co. AUMN 3/31/2021 -0.02 -0.02 Met
Madrigal Pharmaceuticals Inc. MDGL 3/31/2021 -3.85 -3.32 +0.53 (-13.73%)
Primo Water Corp. PRMW 3/31/2021 0.02 0.06 +0.04 (162.12%)
Kontoor Brands Inc. KTB 3/31/2021 0.89 1.43 +0.54 (61.09%)
TreeHouse Foods Inc. THS 3/31/2021 0.31 0.36 +0.05 (16.13%)
II-VI Inc. IIVI 3/31/2021 0.88 0.91 +0.03 (3.95%)
Cardinal Health Inc. CAH 3/31/2021 1.55 1.53 -0.02 (-1.57%)
Quanta Services Inc. PWR 3/31/2021 0.74 0.83 +0.09 (12.89%)
Domtar Corp. UFS 3/31/2021 0.37 0.09 -0.28 (-75.59%)
NRG Energy Inc. NRG 3/31/2021 0.90 -0.33 -1.23 (-136.62%)
Aravive Inc. ARAV 3/31/2021 -0.45 -0.44 +0.01 (-2.79%)
Vonage Holdings Corp. VG 3/31/2021 0.05 0.05 +0.00 (9.28%)
Chimerix Inc. CMRX 3/31/2021 -0.41 -1.21 -0.80 (192.27%)
Kymera Therapeutics Inc. KYMR 3/31/2021 -0.15 -0.29 -0.14 (95.51%)
Zoetis Inc. ZTS 3/31/2021 1.04 1.26 +0.22 (21.73%)
Athenex Inc. ATNX 3/31/2021 -0.40 -0.27 +0.13 (-32.01%)
Fidelity National Information Services Inc. FIS 3/31/2021 1.25 1.30 +0.05 (4.27%)
EVO Payments Inc. Cl A EVOP 3/31/2021 0.13 0.13 +0.00 (2.28%)
Gogo Inc. GOGO 3/31/2021 -0.15 -0.09 +0.06 (-40.41%)
Norwegian Cruise Line Holdings Ltd. NCLH 3/31/2021 -2.02 -2.03 -0.01 (0.32%)
Aldeyra Therapeutics Inc. ALDX 3/31/2021 -0.26 -0.25 +0.01 (-5.15%)
Trevena Inc. TRVN 3/31/2021 -0.08 -0.06 +0.02 (-25.00%)
Howmet Aerospace Inc. HWM 3/31/2021 0.19 0.22 +0.03 (14.70%)
Antares Pharma Inc. ATRS 3/31/2021 0.01 0.02 +0.01 (100.00%)
Bicycle Therapeutics Ltd. ADR BCYC 3/31/2021 -0.71 -0.73 -0.02 (3.30%)
Lifetime Brands Inc. LCUT 3/31/2021 -0.22 0.13 +0.35 (-159.09%)
ProQR Therapeutics N.V. PRQR 3/31/2021 -0.24 -0.25 -0.01 (2.77%)
Intercept Pharmaceuticals Inc. ICPT 3/31/2021 -1.48 -1.22 +0.26 (-17.64%)
Option Care Health Inc. OPCH 3/31/2021 0.03 -0.02 -0.05 (-160.50%)
CareCloud Inc. MTBC 3/31/2021 -0.38 -0.36 +0.02 (-5.68%)
VYNE Therapeutics Inc. VYNE 3/31/2021 -0.44 -0.37 +0.07 (-15.91%)
Builders FirstSource Inc. BLDR 3/31/2021 0.72 1.10 +0.38 (52.60%)
BioCryst Pharmaceuticals Inc. BCRX 3/31/2021 -0.27 -0.36 -0.09 (34.83%)
AAON Inc. AAON 3/31/2021 0.27 0.30 +0.03 (12.50%)
Fulcrum Therapeutics Inc. FULC 3/31/2021 -0.68 -0.54 +0.14 (-20.63%)
SSR Mining Inc. SSRM 3/31/2021 0.38 0.47 +0.09 (22.24%)
Wayfair Inc. Cl A W 3/31/2021 0.26 1.00 +0.74 (285.74%)
Hain Celestial Group Inc. HAIN 3/31/2021 0.38 0.44 +0.06 (16.81%)
OGE Energy Corp. OGE 3/31/2021 0.21 0.26 +0.05 (21.35%)
Ceco Environmental Corp. CECE 3/31/2021 0.09 0.09 +0.00 (3.85%)
Papa John's International Inc. PZZA 3/31/2021 0.56 0.90 +0.34 (59.80%)
Tenneco Inc. Cl A TEN 3/31/2021 0.68 1.09 +0.41 (59.49%)
Black Knight Inc. BKI 3/31/2021 0.51 0.56 +0.05 (9.50%)
Houghton Mifflin Harcourt Co. HMHC 3/31/2021 -0.57 -0.39 +0.18 (-31.38%)
Arlington Asset Investment Corp. AAIC 3/31/2021 0.07 0.03 -0.04 (-59.70%)
Provention Bio Inc. PRVB 3/31/2021 -0.47 -0.52 -0.05 (10.64%)
Essa Pharma Inc. EPIX 3/31/2021 -0.21 -0.29 -0.07 (33.64%)
Avaya Holdings Corp. AVYA 3/31/2021 0.75 0.74 -0.01 (-1.50%)
ViacomCBS Inc. Cl A VIACA 3/31/2021 1.23 1.52 +0.29 (23.14%)
Brookfield Infrastructure Partners L.P. BIP 3/31/2021 0.16 0.27 +0.11 (66.16%)
Terminix Global Holdings Inc. TMX 3/31/2021 0.21 0.30 +0.09 (41.36%)
ViacomCBS Inc. Cl B VIAC 3/31/2021 1.23 1.52 +0.29 (23.50%)
Evergy Inc. EVRG 3/31/2021 0.48 0.55 +0.07 (14.19%)
GasLog Partners LP GLOP 3/31/2021 0.31 0.38 +0.07 (21.31%)
Autolus Therapeutics Ltd. ADR AUTL 3/31/2021 -0.60 -0.53 +0.07 (-12.32%)
Penn National Gaming Inc. PENN 3/31/2021 0.26 0.55 +0.29 (114.72%)
Kimbell Royalty Partners L.P. KRP 3/31/2021 0.07 -0.02 -0.09 (-127.12%)
Middleby Corp. MIDD 3/31/2021 1.63 1.79 +0.16 (9.73%)
Starwood Property Trust Inc. STWD 3/31/2021 0.49 0.50 +0.01 (1.13%)
AlloVir Inc. ALVR 3/31/2021 -0.40 -0.50 -0.10 (24.53%)
Ironwood Pharmaceuticals Inc. Cl A IRWD 3/31/2021 0.25 0.25 Met
TherapeuticsMD Inc. TXMD 3/31/2021 -0.12 -0.11 +0.01 (-10.20%)
ADC Therapeutics S.A. ADCT 3/31/2021 -0.91 -0.74 +0.17 (-18.23%)
Moderna Inc. MRNA 3/31/2021 2.43 2.84 +0.41 (16.79%)
New Jersey Resources Corp. NJR 3/31/2021 1.18 1.77 +0.59 (50.00%)
Harvard Bioscience Inc. HBIO 3/31/2021 0.03 0.05 +0.02 (50.00%)
Huntington Ingalls Industries Inc. HII 3/31/2021 2.63 3.68 +1.05 (40.03%)
Lithium Americas Corp. LAC 3/31/2021 -0.09 -0.09 0.00 (5.88%)
Atlantica Sustainable Infrastructure PLC AY 3/31/2021 -0.13 -0.18 -0.05 (35.00%)
Axcella Health Inc. AXLA 3/31/2021 -0.42 -0.40 +0.02 (-4.00%)
Dyne Therapeutics Inc. DYN 3/31/2021 -0.60 -0.50 +0.10 (-17.08%)
XOMA Corp. XOMA 3/31/2021 -0.15 -0.70 -0.55 (366.67%)
Adaptimmune Therapeutics PLC ADR ADAP 3/31/2021 -0.25 -0.04 +0.21 (-84.00%)
Protara Therapeutics Inc. TARA 3/31/2021 -0.69 -1.20 -0.51 (73.91%)
GasLog Ltd. GLOG 3/31/2021 0.32 0.58 +0.26 (80.11%)
Laureate Education Inc. Cl A LAUR 3/31/2021 -0.44 -0.82 -0.38 (85.91%)
Intellia Therapeutics Inc. NTLA 3/31/2021 -0.66 -0.69 -0.03 (4.89%)
World Acceptance Corp. WRLD 3/31/2021 5.09 6.96 +1.88 (36.87%)
Insmed Inc. INSM 3/31/2021 -0.94 -0.89 +0.05 (-5.57%)
Flir Systems Inc. FLIR 3/31/2021 0.52 0.49 -0.03 (-6.00%)
BridgeBio Pharma Inc. BBIO 3/31/2021 -0.75 -1.18 -0.43 (57.33%)
Ranpak Holdings Corp. PACK 3/31/2021 -0.02 0.08 +0.10 (-500.00%)
Gossamer Bio Inc. GOSS 3/31/2021 -0.76 -0.78 -0.02 (3.17%)
Shyft Group Inc. SHYF 3/31/2021 0.33 0.36 +0.03 (9.09%)
NetScout Systems Inc. NTCT 3/31/2021 0.44 0.49 +0.05 (12.00%)
Syros Pharmaceuticals Inc. SYRS 3/31/2021 -0.46 -0.23 +0.23 (-50.46%)
Cars.com Inc. CARS 3/31/2021 0.36 0.47 +0.11 (31.81%)
Suburban Propane Partners L.P. SPH 3/31/2021 1.70 1.99 +0.29 (17.03%)
Agenus Inc. AGEN 3/31/2021 -0.31 -0.27 +0.04 (-11.96%)
Acushnet Holdings Corp. GOLF 3/31/2021 0.65 1.13 +0.48 (74.23%)
Marubeni Corp. ADR MARUY 3/31/2021 2.30 3.35 +1.05 (45.54%)
X4 Pharmaceuticals Inc. XFOR 3/31/2021 -0.84 -1.30 -0.46 (55.07%)
Catalyst Biosciences Inc. CBIO 3/31/2021 -0.58 -0.79 -0.21 (36.80%)
Kellogg Co. K 3/31/2021 0.96 1.11 +0.15 (15.50%)
Insight Enterprises Inc. NSIT 3/31/2021 1.43 1.30 -0.13 (-8.84%)
Magenta Therapeutics Inc. MGTA 3/31/2021 -0.39 -0.36 +0.03 (-7.22%)
BioDelivery Sciences International Inc. BDSI 3/31/2021 0.06 0.05 -0.01 (-21.05%)
Lipocine Inc. LPCN 3/31/2021 -0.05 -0.04 +0.01 (-20.00%)
Sunoco L.P. SUN 3/31/2021 0.65 1.68 +1.04 (160.55%)
Ardelyx Inc. ARDX 3/31/2021 -0.33 -0.34 -0.01 (3.23%)
Colony Capital Inc. CLNY 3/31/2021 -0.16 -0.30 -0.14 (84.62%)
Arrow Electronics Inc. ARW 3/31/2021 2.30 2.84 +0.54 (23.61%)
Heska Corp. HSKA 3/31/2021 -0.32 0.19 +0.51 (-160.00%)
PPL Corp. PPL 3/31/2021 0.58 0.28 -0.30 (-52.06%)
Nova Measuring Instruments Ltd. NVMI 3/31/2021 0.63 0.70 +0.07 (11.49%)
CRA International Inc. CRAI 3/31/2021 0.83 1.37 +0.54 (65.73%)
Amyris Inc. AMRS 3/31/2021 -0.16 -1.08 -0.92 (575.00%)
eXp World Holdings Inc. EXPI 3/31/2021 0.06 0.03 -0.03 (-52.63%)
InterDigital Inc. IDCC 3/31/2021 0.01 0.18 +0.17 (1340.00%)
U.S. Physical Therapy Inc. USPH 3/31/2021 0.47 0.64 +0.17 (36.17%)
Albireo Pharma Inc. ALBO 3/31/2021 -1.80 -2.29 -0.49 (27.49%)
MFA Financial Inc. MFA 3/31/2021 0.08 0.17 +0.09 (108.16%)
Newmark Group Inc. NMRK 3/31/2021 0.10 0.20 +0.10 (100.00%)
APA Corp. APA 3/31/2021 0.71 0.91 +0.20 (28.74%)
Alpha Pro Tech Ltd. APT 3/31/2021 0.33 0.27 -0.06 (-18.18%)
Gritstone Oncology Inc. GRTS 3/31/2021 -0.39 0.10 +0.49 (-125.64%)
Ambev S.A. ADR ABEV 3/31/2021 0.03 0.03 +0.01 (21.17%)
Azul S.A. ADR AZUL 3/31/2021 -9.83 -8.05 +1.78 (-18.14%)
Canadian Natural Resources Ltd. CNQ 3/31/2021 0.69 0.84 +0.15 (21.88%)
Shift4 Payments Inc. FOUR 3/31/2021 -0.20 -0.62 -0.42 (214.49%)
Oaktree Specialty Lending Corp. OCSL 3/31/2021 0.14 0.12 -0.02 (-12.20%)
Select Interior Concepts Inc. Cl A SIC 3/31/2021 -0.06 -0.07 -0.01 (16.67%)
Sappi Ltd. ADR SPPJY 3/31/2021 -0.04 -0.04 0.00 (2.43%)
MGE Energy Inc. MGEE 3/31/2021 0.81 0.97 +0.16 (19.75%)
National Energy Services Reunited Corp. NESR 3/31/2021 0.12 0.14 +0.02 (17.80%)
PLDT Inc. ADR PHI 3/31/2021 0.65 0.56 -0.09 (-13.33%)
Focus Financial Partners Inc. FOCS 3/31/2021 0.86 0.92 +0.06 (6.82%)
Americold Realty Trust COLD 3/31/2021 0.14 -0.07 -0.21 (-148.90%)
Adverum Biotechnologies Inc. ADVM 3/31/2021 -0.38 -0.29 +0.09 (-23.91%)
Lightpath Technologies Inc. Cl A LPTH 3/31/2021 0.02 -0.01 -0.03 (-150.00%)
Cytokinetics Inc. CYTK 3/31/2021 -0.58 -0.66 -0.08 (13.06%)
Farmer Bros. Co. FARM 3/31/2021 -0.40 -0.78 -0.38 (94.51%)
LATAM Airlines Group S.A. ADR LTMAQ 3/31/2021 -0.79 -0.79 Met
Beacon Roofing Supply Inc. BECN 3/31/2021 0.03 0.29 +0.25 (760.12%)
Credicorp Ltd. BAP 3/31/2021 8.40 8.49 +0.09 (1.05%)
Certara Inc. CERT 3/31/2021 0.05 0.06 +0.01 (31.04%)
Trinity Capital Inc. TRIN 3/31/2021 0.28 0.31 +0.03 (10.77%)
Acceleron Pharma Inc. XLRN 3/31/2021 -0.78 -1.05 -0.27 (33.95%)
Open Text Corp. OTEX 3/31/2021 0.69 0.75 +0.06 (8.70%)
Appian Corp. Cl A APPN 3/31/2021 -0.13 -0.06 +0.07 (-53.02%)
Acorda Therapeutics Inc. ACOR 3/31/2021 -3.71 -3.53 +0.18 (-4.85%)
TPI Composites Inc. TPIC 3/31/2021 -0.16 -0.05 +0.11 (-68.86%)
Aterian Inc. ATER 3/31/2021 -0.31 -3.15 -2.84 (905.32%)
Insulet Corp. PODD 3/31/2021 0.07 0.00 -0.07 (-100.00%)
Expedia Group Inc. EXPE 3/31/2021 -2.30 -2.02 +0.28 (-12.14%)
Galapagos N.V. ADR GLPG 3/31/2021 -1.12 -0.23 +0.89 (-79.35%)
Zogenix Inc. ZGNX 3/31/2021 -1.02 -1.00 +0.02 (-1.65%)
ViewRay Inc. VRAY 3/31/2021 -0.17 -0.17 0.00 (1.49%)
Natus Medical Inc. NTUS 3/31/2021 0.16 0.16 Met
Cambium Networks Corp. CMBM 3/31/2021 0.33 0.41 +0.08 (25.19%)
Avinger Inc. AVGR 3/31/2021 -0.06 -0.07 -0.01 (16.67%)
Calyxt Inc. CLXT 3/31/2021 -0.25 -0.24 +0.01 (-5.26%)
Issuer Direct Corp. ISDR 3/31/2021 0.18 0.18 Met
Codiak BioSciences Inc. CDAK 3/31/2021 -0.70 -0.51 +0.19 (-27.49%)
PCTEL Inc. PCTI 3/31/2021 -0.01 0.00 +0.01 (-100.00%)
Coherus BioSciences Inc. CHRS 3/31/2021 -0.21 -2.37 -2.16 (1046.56%)
Dynavax Technologies Corp. DVAX 3/31/2021 -0.03 0.01 +0.04 (-140.00%)
SPX Corp. SPXC 3/31/2021 0.66 0.68 +0.02 (2.72%)
PDF Solutions Inc. PDFS 3/31/2021 -0.03 -0.05 -0.02 (50.00%)
Oyster Point Pharma Inc. OYST 3/31/2021 -0.91 -0.73 +0.18 (-19.78%)
ZIOPHARM Oncology Inc. ZIOP 3/31/2021 -0.11 -0.10 +0.00 (-4.76%)
Franchise Group Inc. FRG 3/31/2021 0.85 0.90 +0.05 (6.30%)
Health Catalyst Inc. HCAT 3/31/2021 -0.17 -0.06 +0.11 (-64.70%)
Axonics Inc. AXNX